<?xml version="1.0" encoding="UTF-8" standalone="no" ?>
<gpx xmlns="http://www.topografix.com/GPX/1/1" xmlns:xsi="http://www.w3.org/2001/XMLSchema-instance" xsi:schemaLocation="http://www.topografix.com/GPX/1/1 http://www.topografix.com/GPX/1/1/gpx.xsd" version="1.1" creator="VisuGPX - https://www.visugpx.com">
  <metadata>
    <name>Le Cap Fréhel</name>
    <desc><![CDATA[Départ de l'anse du Croc jusqu'à la pointe de Château Serein, puis le GR 34 ]]></desc>
  </metadata>
  <trk>
    <name><![CDATA[20180411220232-bsbDQ]]></name>
    <trkseg>
      <trkpt lat="48.65472" lon="-2.36528">
        <ele>15</ele>
        <time>2018-04-11T09:52:00Z</time>
      </trkpt>
      <trkpt lat="48.65426" lon="-2.36527">
        <ele>17</ele>
        <time>2018-04-11T09:52:05Z</time>
      </trkpt>
      <trkpt lat="48.65409" lon="-2.36523">
        <ele>24</ele>
        <time>2018-04-11T09:52:07Z</time>
      </trkpt>
      <trkpt lat="48.654" lon="-2.3652">
        <ele>25</ele>
        <time>2018-04-11T09:52:09Z</time>
      </trkpt>
      <trkpt lat="48.65416" lon="-2.36515">
        <ele>22</ele>
        <time>2018-04-11T09:52:37Z</time>
      </trkpt>
      <trkpt lat="48.65416" lon="-2.36515">
        <ele>22</ele>
        <time>2018-04-11T09:52:37Z</time>
      </trkpt>
      <trkpt lat="48.65416" lon="-2.36515">
        <ele>22</ele>
        <time>2018-04-11T09:52:37Z</time>
      </trkpt>
      <trkpt lat="48.65416" lon="-2.36515">
        <ele>22</ele>
        <time>2018-04-11T09:52:37Z</time>
      </trkpt>
      <trkpt lat="48.65408" lon="-2.36514">
        <ele>22</ele>
        <time>2018-04-11T09:52:24Z</time>
      </trkpt>
      <trkpt lat="48.65417" lon="-2.36516">
        <ele>17</ele>
        <time>2018-04-11T09:52:41Z</time>
      </trkpt>
      <trkpt lat="48.65429" lon="-2.3652">
        <ele>17</ele>
        <time>2018-04-11T09:52:44Z</time>
      </trkpt>
      <trkpt lat="48.65421" lon="-2.36514">
        <ele>17</ele>
        <time>2018-04-11T09:53:01Z</time>
      </trkpt>
      <trkpt lat="48.65423" lon="-2.365">
        <ele>16</ele>
        <time>2018-04-11T09:53:54Z</time>
      </trkpt>
      <trkpt lat="48.65428" lon="-2.36488">
        <ele>14</ele>
        <time>2018-04-11T09:54:07Z</time>
      </trkpt>
      <trkpt lat="48.65429" lon="-2.36474">
        <ele>13</ele>
        <time>2018-04-11T09:54:18Z</time>
      </trkpt>
      <trkpt lat="48.65423" lon="-2.36463">
        <ele>13</ele>
        <time>2018-04-11T09:54:29Z</time>
      </trkpt>
      <trkpt lat="48.65415" lon="-2.36455">
        <ele>22</ele>
        <time>2018-04-11T09:54:40Z</time>
      </trkpt>
      <trkpt lat="48.65408" lon="-2.36447">
        <ele>22</ele>
        <time>2018-04-11T09:54:50Z</time>
      </trkpt>
      <trkpt lat="48.65402" lon="-2.36436">
        <ele>22</ele>
        <time>2018-04-11T09:55:00Z</time>
      </trkpt>
      <trkpt lat="48.65391" lon="-2.36414">
        <ele>22</ele>
        <time>2018-04-11T09:55:18Z</time>
      </trkpt>
      <trkpt lat="48.65384" lon="-2.36403">
        <ele>23</ele>
        <time>2018-04-11T09:55:29Z</time>
      </trkpt>
      <trkpt lat="48.65387" lon="-2.3639">
        <ele>23</ele>
        <time>2018-04-11T09:55:40Z</time>
      </trkpt>
      <trkpt lat="48.65393" lon="-2.36379">
        <ele>22</ele>
        <time>2018-04-11T09:55:51Z</time>
      </trkpt>
      <trkpt lat="48.6539" lon="-2.36365">
        <ele>22</ele>
        <time>2018-04-11T09:56:05Z</time>
      </trkpt>
      <trkpt lat="48.65385" lon="-2.36353">
        <ele>22</ele>
        <time>2018-04-11T09:56:19Z</time>
      </trkpt>
      <trkpt lat="48.65377" lon="-2.36344">
        <ele>23</ele>
        <time>2018-04-11T09:56:30Z</time>
      </trkpt>
      <trkpt lat="48.65371" lon="-2.36332">
        <ele>23</ele>
        <time>2018-04-11T09:56:41Z</time>
      </trkpt>
      <trkpt lat="48.65366" lon="-2.3632">
        <ele>23</ele>
        <time>2018-04-11T09:56:51Z</time>
      </trkpt>
      <trkpt lat="48.65364" lon="-2.36306">
        <ele>23</ele>
        <time>2018-04-11T09:57:00Z</time>
      </trkpt>
      <trkpt lat="48.6536" lon="-2.36292">
        <ele>23</ele>
        <time>2018-04-11T09:57:08Z</time>
      </trkpt>
      <trkpt lat="48.65358" lon="-2.36279">
        <ele>23</ele>
        <time>2018-04-11T09:57:18Z</time>
      </trkpt>
      <trkpt lat="48.65361" lon="-2.36266">
        <ele>23</ele>
        <time>2018-04-11T09:57:27Z</time>
      </trkpt>
      <trkpt lat="48.65369" lon="-2.36255">
        <ele>22</ele>
        <time>2018-04-11T09:57:35Z</time>
      </trkpt>
      <trkpt lat="48.6537" lon="-2.3624">
        <ele>22</ele>
        <time>2018-04-11T09:57:43Z</time>
      </trkpt>
      <trkpt lat="48.65369" lon="-2.36224">
        <ele>22</ele>
        <time>2018-04-11T09:57:50Z</time>
      </trkpt>
      <trkpt lat="48.65366" lon="-2.36211">
        <ele>22</ele>
        <time>2018-04-11T09:57:56Z</time>
      </trkpt>
      <trkpt lat="48.65359" lon="-2.36185">
        <ele>23</ele>
        <time>2018-04-11T09:58:10Z</time>
      </trkpt>
      <trkpt lat="48.65352" lon="-2.36174">
        <ele>24</ele>
        <time>2018-04-11T09:58:19Z</time>
      </trkpt>
      <trkpt lat="48.6535" lon="-2.3616">
        <ele>25</ele>
        <time>2018-04-11T09:58:31Z</time>
      </trkpt>
      <trkpt lat="48.6535" lon="-2.36146">
        <ele>25</ele>
        <time>2018-04-11T09:58:39Z</time>
      </trkpt>
      <trkpt lat="48.65354" lon="-2.36133">
        <ele>25</ele>
        <time>2018-04-11T09:58:46Z</time>
      </trkpt>
      <trkpt lat="48.65356" lon="-2.36119">
        <ele>25</ele>
        <time>2018-04-11T09:58:53Z</time>
      </trkpt>
      <trkpt lat="48.65363" lon="-2.36093">
        <ele>25</ele>
        <time>2018-04-11T09:59:07Z</time>
      </trkpt>
      <trkpt lat="48.65367" lon="-2.36079">
        <ele>25</ele>
        <time>2018-04-11T09:59:13Z</time>
      </trkpt>
      <trkpt lat="48.6538" lon="-2.36026">
        <ele>24</ele>
        <time>2018-04-11T09:59:38Z</time>
      </trkpt>
      <trkpt lat="48.65386" lon="-2.36014">
        <ele>24</ele>
        <time>2018-04-11T09:59:45Z</time>
      </trkpt>
      <trkpt lat="48.65392" lon="-2.36002">
        <ele>23</ele>
        <time>2018-04-11T09:59:52Z</time>
      </trkpt>
      <trkpt lat="48.65396" lon="-2.35988">
        <ele>22</ele>
        <time>2018-04-11T09:59:59Z</time>
      </trkpt>
      <trkpt lat="48.65398" lon="-2.35974">
        <ele>23</ele>
        <time>2018-04-11T10:00:06Z</time>
      </trkpt>
      <trkpt lat="48.65401" lon="-2.35961">
        <ele>23</ele>
        <time>2018-04-11T10:00:13Z</time>
      </trkpt>
      <trkpt lat="48.65406" lon="-2.35948">
        <ele>22</ele>
        <time>2018-04-11T10:00:20Z</time>
      </trkpt>
      <trkpt lat="48.65411" lon="-2.35937">
        <ele>22</ele>
        <time>2018-04-11T10:00:27Z</time>
      </trkpt>
      <trkpt lat="48.65414" lon="-2.35923">
        <ele>20</ele>
        <time>2018-04-11T10:00:34Z</time>
      </trkpt>
      <trkpt lat="48.65414" lon="-2.35908">
        <ele>21</ele>
        <time>2018-04-11T10:00:42Z</time>
      </trkpt>
      <trkpt lat="48.65408" lon="-2.35897">
        <ele>22</ele>
        <time>2018-04-11T10:00:50Z</time>
      </trkpt>
      <trkpt lat="48.65402" lon="-2.35885">
        <ele>23</ele>
        <time>2018-04-11T10:00:58Z</time>
      </trkpt>
      <trkpt lat="48.65398" lon="-2.35871">
        <ele>23</ele>
        <time>2018-04-11T10:01:06Z</time>
      </trkpt>
      <trkpt lat="48.65388" lon="-2.35829">
        <ele>24</ele>
        <time>2018-04-11T10:01:30Z</time>
      </trkpt>
      <trkpt lat="48.65389" lon="-2.35815">
        <ele>25</ele>
        <time>2018-04-11T10:01:38Z</time>
      </trkpt>
      <trkpt lat="48.65392" lon="-2.35801">
        <ele>25</ele>
        <time>2018-04-11T10:01:45Z</time>
      </trkpt>
      <trkpt lat="48.65393" lon="-2.35787">
        <ele>25</ele>
        <time>2018-04-11T10:01:52Z</time>
      </trkpt>
      <trkpt lat="48.65392" lon="-2.35772">
        <ele>25</ele>
        <time>2018-04-11T10:02:00Z</time>
      </trkpt>
      <trkpt lat="48.65386" lon="-2.3576">
        <ele>25</ele>
        <time>2018-04-11T10:02:08Z</time>
      </trkpt>
      <trkpt lat="48.6538" lon="-2.3575">
        <ele>25</ele>
        <time>2018-04-11T10:02:16Z</time>
      </trkpt>
      <trkpt lat="48.65374" lon="-2.3574">
        <ele>26</ele>
        <time>2018-04-11T10:02:24Z</time>
      </trkpt>
      <trkpt lat="48.65366" lon="-2.35732">
        <ele>26</ele>
        <time>2018-04-11T10:02:33Z</time>
      </trkpt>
      <trkpt lat="48.65356" lon="-2.35731">
        <ele>27</ele>
        <time>2018-04-11T10:02:46Z</time>
      </trkpt>
      <trkpt lat="48.65347" lon="-2.35734">
        <ele>27</ele>
        <time>2018-04-11T10:02:56Z</time>
      </trkpt>
      <trkpt lat="48.65338" lon="-2.35736">
        <ele>27</ele>
        <time>2018-04-11T10:03:04Z</time>
      </trkpt>
      <trkpt lat="48.65328" lon="-2.35736">
        <ele>29</ele>
        <time>2018-04-11T10:03:13Z</time>
      </trkpt>
      <trkpt lat="48.65319" lon="-2.35735">
        <ele>30</ele>
        <time>2018-04-11T10:03:21Z</time>
      </trkpt>
      <trkpt lat="48.6531" lon="-2.35731">
        <ele>30</ele>
        <time>2018-04-11T10:03:30Z</time>
      </trkpt>
      <trkpt lat="48.65301" lon="-2.35726">
        <ele>31</ele>
        <time>2018-04-11T10:03:39Z</time>
      </trkpt>
      <trkpt lat="48.65292" lon="-2.35723">
        <ele>31</ele>
        <time>2018-04-11T10:03:48Z</time>
      </trkpt>
      <trkpt lat="48.65282" lon="-2.35721">
        <ele>32</ele>
        <time>2018-04-11T10:03:57Z</time>
      </trkpt>
      <trkpt lat="48.65273" lon="-2.35724">
        <ele>32</ele>
        <time>2018-04-11T10:04:10Z</time>
      </trkpt>
      <trkpt lat="48.65264" lon="-2.35724">
        <ele>32</ele>
        <time>2018-04-11T10:04:21Z</time>
      </trkpt>
      <trkpt lat="48.65255" lon="-2.35723">
        <ele>32</ele>
        <time>2018-04-11T10:04:28Z</time>
      </trkpt>
      <trkpt lat="48.65226" lon="-2.35721">
        <ele>35</ele>
        <time>2018-04-11T10:04:47Z</time>
      </trkpt>
      <trkpt lat="48.65217" lon="-2.35718">
        <ele>35</ele>
        <time>2018-04-11T10:04:55Z</time>
      </trkpt>
      <trkpt lat="48.65208" lon="-2.35712">
        <ele>35</ele>
        <time>2018-04-11T10:05:01Z</time>
      </trkpt>
      <trkpt lat="48.652" lon="-2.35707">
        <ele>35</ele>
        <time>2018-04-11T10:05:07Z</time>
      </trkpt>
      <trkpt lat="48.65192" lon="-2.35699">
        <ele>35</ele>
        <time>2018-04-11T10:05:13Z</time>
      </trkpt>
      <trkpt lat="48.65186" lon="-2.35688">
        <ele>35</ele>
        <time>2018-04-11T10:05:20Z</time>
      </trkpt>
      <trkpt lat="48.6518" lon="-2.35676">
        <ele>35</ele>
        <time>2018-04-11T10:05:27Z</time>
      </trkpt>
      <trkpt lat="48.65171" lon="-2.3565">
        <ele>35</ele>
        <time>2018-04-11T10:05:41Z</time>
      </trkpt>
      <trkpt lat="48.65164" lon="-2.35638">
        <ele>35</ele>
        <time>2018-04-11T10:05:48Z</time>
      </trkpt>
      <trkpt lat="48.65158" lon="-2.35627">
        <ele>35</ele>
        <time>2018-04-11T10:05:55Z</time>
      </trkpt>
      <trkpt lat="48.65154" lon="-2.35612">
        <ele>35</ele>
        <time>2018-04-11T10:06:02Z</time>
      </trkpt>
      <trkpt lat="48.65149" lon="-2.35599">
        <ele>35</ele>
        <time>2018-04-11T10:06:09Z</time>
      </trkpt>
      <trkpt lat="48.65143" lon="-2.35586">
        <ele>35</ele>
        <time>2018-04-11T10:06:17Z</time>
      </trkpt>
      <trkpt lat="48.65136" lon="-2.35577">
        <ele>34</ele>
        <time>2018-04-11T10:06:24Z</time>
      </trkpt>
      <trkpt lat="48.65129" lon="-2.35568">
        <ele>34</ele>
        <time>2018-04-11T10:06:31Z</time>
      </trkpt>
      <trkpt lat="48.65124" lon="-2.35557">
        <ele>34</ele>
        <time>2018-04-11T10:06:38Z</time>
      </trkpt>
      <trkpt lat="48.65118" lon="-2.35546">
        <ele>34</ele>
        <time>2018-04-11T10:06:46Z</time>
      </trkpt>
      <trkpt lat="48.65111" lon="-2.35535">
        <ele>34</ele>
        <time>2018-04-11T10:06:54Z</time>
      </trkpt>
      <trkpt lat="48.65103" lon="-2.35526">
        <ele>34</ele>
        <time>2018-04-11T10:07:01Z</time>
      </trkpt>
      <trkpt lat="48.65095" lon="-2.3552">
        <ele>33</ele>
        <time>2018-04-11T10:07:08Z</time>
      </trkpt>
      <trkpt lat="48.65089" lon="-2.35509">
        <ele>33</ele>
        <time>2018-04-11T10:07:15Z</time>
      </trkpt>
      <trkpt lat="48.65083" lon="-2.35497">
        <ele>33</ele>
        <time>2018-04-11T10:07:22Z</time>
      </trkpt>
      <trkpt lat="48.65076" lon="-2.35488">
        <ele>33</ele>
        <time>2018-04-11T10:07:30Z</time>
      </trkpt>
      <trkpt lat="48.65068" lon="-2.35482">
        <ele>33</ele>
        <time>2018-04-11T10:07:37Z</time>
      </trkpt>
      <trkpt lat="48.65061" lon="-2.35474">
        <ele>33</ele>
        <time>2018-04-11T10:07:45Z</time>
      </trkpt>
      <trkpt lat="48.65054" lon="-2.35464">
        <ele>33</ele>
        <time>2018-04-11T10:07:53Z</time>
      </trkpt>
      <trkpt lat="48.65051" lon="-2.3545">
        <ele>33</ele>
        <time>2018-04-11T10:08:00Z</time>
      </trkpt>
      <trkpt lat="48.65051" lon="-2.35436">
        <ele>33</ele>
        <time>2018-04-11T10:08:07Z</time>
      </trkpt>
      <trkpt lat="48.65051" lon="-2.35422">
        <ele>32</ele>
        <time>2018-04-11T10:08:13Z</time>
      </trkpt>
      <trkpt lat="48.65048" lon="-2.35408">
        <ele>32</ele>
        <time>2018-04-11T10:08:20Z</time>
      </trkpt>
      <trkpt lat="48.65041" lon="-2.35366">
        <ele>32</ele>
        <time>2018-04-11T10:08:42Z</time>
      </trkpt>
      <trkpt lat="48.65032" lon="-2.35294">
        <ele>33</ele>
        <time>2018-04-11T10:09:23Z</time>
      </trkpt>
      <trkpt lat="48.65032" lon="-2.3528">
        <ele>33</ele>
        <time>2018-04-11T10:09:30Z</time>
      </trkpt>
      <trkpt lat="48.65033" lon="-2.35265">
        <ele>33</ele>
        <time>2018-04-11T10:09:37Z</time>
      </trkpt>
      <trkpt lat="48.65032" lon="-2.35251">
        <ele>34</ele>
        <time>2018-04-11T10:09:43Z</time>
      </trkpt>
      <trkpt lat="48.65028" lon="-2.35236">
        <ele>34</ele>
        <time>2018-04-11T10:09:50Z</time>
      </trkpt>
      <trkpt lat="48.65025" lon="-2.35221">
        <ele>35</ele>
        <time>2018-04-11T10:09:57Z</time>
      </trkpt>
      <trkpt lat="48.65017" lon="-2.35195">
        <ele>35</ele>
        <time>2018-04-11T10:10:11Z</time>
      </trkpt>
      <trkpt lat="48.6501" lon="-2.35185">
        <ele>35</ele>
        <time>2018-04-11T10:10:18Z</time>
      </trkpt>
      <trkpt lat="48.64991" lon="-2.35151">
        <ele>36</ele>
        <time>2018-04-11T10:10:42Z</time>
      </trkpt>
      <trkpt lat="48.64985" lon="-2.35139">
        <ele>36</ele>
        <time>2018-04-11T10:10:50Z</time>
      </trkpt>
      <trkpt lat="48.64981" lon="-2.35126">
        <ele>36</ele>
        <time>2018-04-11T10:10:58Z</time>
      </trkpt>
      <trkpt lat="48.64979" lon="-2.35112">
        <ele>36</ele>
        <time>2018-04-11T10:11:05Z</time>
      </trkpt>
      <trkpt lat="48.64977" lon="-2.35097">
        <ele>37</ele>
        <time>2018-04-11T10:11:13Z</time>
      </trkpt>
      <trkpt lat="48.64971" lon="-2.35085">
        <ele>37</ele>
        <time>2018-04-11T10:11:21Z</time>
      </trkpt>
      <trkpt lat="48.64962" lon="-2.35085">
        <ele>36</ele>
        <time>2018-04-11T10:11:30Z</time>
      </trkpt>
      <trkpt lat="48.64934" lon="-2.35089">
        <ele>36</ele>
        <time>2018-04-11T10:11:58Z</time>
      </trkpt>
      <trkpt lat="48.64924" lon="-2.35085">
        <ele>36</ele>
        <time>2018-04-11T10:12:06Z</time>
      </trkpt>
      <trkpt lat="48.64915" lon="-2.35079">
        <ele>36</ele>
        <time>2018-04-11T10:12:15Z</time>
      </trkpt>
      <trkpt lat="48.64898" lon="-2.35066">
        <ele>37</ele>
        <time>2018-04-11T10:12:32Z</time>
      </trkpt>
      <trkpt lat="48.64891" lon="-2.35056">
        <ele>37</ele>
        <time>2018-04-11T10:12:40Z</time>
      </trkpt>
      <trkpt lat="48.6489" lon="-2.35043">
        <ele>37</ele>
        <time>2018-04-11T10:12:46Z</time>
      </trkpt>
      <trkpt lat="48.64885" lon="-2.34999">
        <ele>38</ele>
        <time>2018-04-11T10:13:05Z</time>
      </trkpt>
      <trkpt lat="48.64881" lon="-2.34986">
        <ele>38</ele>
        <time>2018-04-11T10:13:13Z</time>
      </trkpt>
      <trkpt lat="48.64874" lon="-2.34978">
        <ele>38</ele>
        <time>2018-04-11T10:13:22Z</time>
      </trkpt>
      <trkpt lat="48.64865" lon="-2.34976">
        <ele>38</ele>
        <time>2018-04-11T10:13:30Z</time>
      </trkpt>
      <trkpt lat="48.64835" lon="-2.34973">
        <ele>38</ele>
        <time>2018-04-11T10:13:52Z</time>
      </trkpt>
      <trkpt lat="48.64825" lon="-2.34972">
        <ele>38</ele>
        <time>2018-04-11T10:13:59Z</time>
      </trkpt>
      <trkpt lat="48.64816" lon="-2.34967">
        <ele>38</ele>
        <time>2018-04-11T10:14:06Z</time>
      </trkpt>
      <trkpt lat="48.64812" lon="-2.34954">
        <ele>38</ele>
        <time>2018-04-11T10:14:12Z</time>
      </trkpt>
      <trkpt lat="48.64813" lon="-2.3494">
        <ele>38</ele>
        <time>2018-04-11T10:14:18Z</time>
      </trkpt>
      <trkpt lat="48.64818" lon="-2.34884">
        <ele>39</ele>
        <time>2018-04-11T10:14:42Z</time>
      </trkpt>
      <trkpt lat="48.64817" lon="-2.3487">
        <ele>39</ele>
        <time>2018-04-11T10:14:48Z</time>
      </trkpt>
      <trkpt lat="48.64817" lon="-2.34854">
        <ele>39</ele>
        <time>2018-04-11T10:14:55Z</time>
      </trkpt>
      <trkpt lat="48.64819" lon="-2.34841">
        <ele>39</ele>
        <time>2018-04-11T10:15:01Z</time>
      </trkpt>
      <trkpt lat="48.64821" lon="-2.34826">
        <ele>39</ele>
        <time>2018-04-11T10:15:08Z</time>
      </trkpt>
      <trkpt lat="48.64824" lon="-2.34811">
        <ele>39</ele>
        <time>2018-04-11T10:15:15Z</time>
      </trkpt>
      <trkpt lat="48.64828" lon="-2.34796">
        <ele>39</ele>
        <time>2018-04-11T10:15:22Z</time>
      </trkpt>
      <trkpt lat="48.64833" lon="-2.34782">
        <ele>38</ele>
        <time>2018-04-11T10:15:29Z</time>
      </trkpt>
      <trkpt lat="48.64843" lon="-2.34757">
        <ele>38</ele>
        <time>2018-04-11T10:15:42Z</time>
      </trkpt>
      <trkpt lat="48.64854" lon="-2.34732">
        <ele>38</ele>
        <time>2018-04-11T10:15:55Z</time>
      </trkpt>
      <trkpt lat="48.64859" lon="-2.34718">
        <ele>38</ele>
        <time>2018-04-11T10:16:02Z</time>
      </trkpt>
      <trkpt lat="48.64888" lon="-2.34628">
        <ele>38</ele>
        <time>2018-04-11T10:16:51Z</time>
      </trkpt>
      <trkpt lat="48.64892" lon="-2.34615">
        <ele>38</ele>
        <time>2018-04-11T10:16:58Z</time>
      </trkpt>
      <trkpt lat="48.64896" lon="-2.34602">
        <ele>38</ele>
        <time>2018-04-11T10:17:05Z</time>
      </trkpt>
      <trkpt lat="48.64899" lon="-2.34589">
        <ele>38</ele>
        <time>2018-04-11T10:17:12Z</time>
      </trkpt>
      <trkpt lat="48.64903" lon="-2.34576">
        <ele>39</ele>
        <time>2018-04-11T10:17:19Z</time>
      </trkpt>
      <trkpt lat="48.64908" lon="-2.34562">
        <ele>39</ele>
        <time>2018-04-11T10:17:27Z</time>
      </trkpt>
      <trkpt lat="48.64913" lon="-2.34548">
        <ele>39</ele>
        <time>2018-04-11T10:17:35Z</time>
      </trkpt>
      <trkpt lat="48.64917" lon="-2.34536">
        <ele>39</ele>
        <time>2018-04-11T10:17:43Z</time>
      </trkpt>
      <trkpt lat="48.64945" lon="-2.3444">
        <ele>40</ele>
        <time>2018-04-11T10:18:36Z</time>
      </trkpt>
      <trkpt lat="48.64948" lon="-2.34427">
        <ele>41</ele>
        <time>2018-04-11T10:18:43Z</time>
      </trkpt>
      <trkpt lat="48.64964" lon="-2.34359">
        <ele>41</ele>
        <time>2018-04-11T10:19:19Z</time>
      </trkpt>
      <trkpt lat="48.64969" lon="-2.34345">
        <ele>41</ele>
        <time>2018-04-11T10:19:27Z</time>
      </trkpt>
      <trkpt lat="48.64987" lon="-2.3429">
        <ele>42</ele>
        <time>2018-04-11T10:19:55Z</time>
      </trkpt>
      <trkpt lat="48.65006" lon="-2.34225">
        <ele>42</ele>
        <time>2018-04-11T10:20:30Z</time>
      </trkpt>
      <trkpt lat="48.6501" lon="-2.34211">
        <ele>42</ele>
        <time>2018-04-11T10:20:38Z</time>
      </trkpt>
      <trkpt lat="48.65024" lon="-2.34155">
        <ele>41</ele>
        <time>2018-04-11T10:21:07Z</time>
      </trkpt>
      <trkpt lat="48.65039" lon="-2.34085">
        <ele>41</ele>
        <time>2018-04-11T10:21:42Z</time>
      </trkpt>
      <trkpt lat="48.65039" lon="-2.34072">
        <ele>40</ele>
        <time>2018-04-11T10:21:49Z</time>
      </trkpt>
      <trkpt lat="48.6503" lon="-2.34064">
        <ele>40</ele>
        <time>2018-04-11T10:21:57Z</time>
      </trkpt>
      <trkpt lat="48.65021" lon="-2.34059">
        <ele>40</ele>
        <time>2018-04-11T10:22:04Z</time>
      </trkpt>
      <trkpt lat="48.65012" lon="-2.34054">
        <ele>40</ele>
        <time>2018-04-11T10:22:11Z</time>
      </trkpt>
      <trkpt lat="48.65004" lon="-2.34048">
        <ele>40</ele>
        <time>2018-04-11T10:22:18Z</time>
      </trkpt>
      <trkpt lat="48.64978" lon="-2.34027">
        <ele>41</ele>
        <time>2018-04-11T10:22:41Z</time>
      </trkpt>
      <trkpt lat="48.64971" lon="-2.34018">
        <ele>41</ele>
        <time>2018-04-11T10:22:48Z</time>
      </trkpt>
      <trkpt lat="48.64955" lon="-2.34">
        <ele>42</ele>
        <time>2018-04-11T10:23:02Z</time>
      </trkpt>
      <trkpt lat="48.64949" lon="-2.33989">
        <ele>42</ele>
        <time>2018-04-11T10:23:09Z</time>
      </trkpt>
      <trkpt lat="48.64947" lon="-2.33975">
        <ele>42</ele>
        <time>2018-04-11T10:23:15Z</time>
      </trkpt>
      <trkpt lat="48.64952" lon="-2.33963">
        <ele>42</ele>
        <time>2018-04-11T10:23:22Z</time>
      </trkpt>
      <trkpt lat="48.64959" lon="-2.33952">
        <ele>42</ele>
        <time>2018-04-11T10:23:35Z</time>
      </trkpt>
      <trkpt lat="48.64966" lon="-2.33943">
        <ele>42</ele>
        <time>2018-04-11T10:23:42Z</time>
      </trkpt>
      <trkpt lat="48.64972" lon="-2.33932">
        <ele>42</ele>
        <time>2018-04-11T10:23:49Z</time>
      </trkpt>
      <trkpt lat="48.64976" lon="-2.33919">
        <ele>42</ele>
        <time>2018-04-11T10:23:56Z</time>
      </trkpt>
      <trkpt lat="48.64979" lon="-2.33906">
        <ele>42</ele>
        <time>2018-04-11T10:24:03Z</time>
      </trkpt>
      <trkpt lat="48.65007" lon="-2.33782">
        <ele>44</ele>
        <time>2018-04-11T10:25:10Z</time>
      </trkpt>
      <trkpt lat="48.65009" lon="-2.33769">
        <ele>44</ele>
        <time>2018-04-11T10:25:17Z</time>
      </trkpt>
      <trkpt lat="48.65008" lon="-2.33755">
        <ele>44</ele>
        <time>2018-04-11T10:25:24Z</time>
      </trkpt>
      <trkpt lat="48.65008" lon="-2.33739">
        <ele>45</ele>
        <time>2018-04-11T10:25:31Z</time>
      </trkpt>
      <trkpt lat="48.65008" lon="-2.33725">
        <ele>45</ele>
        <time>2018-04-11T10:25:39Z</time>
      </trkpt>
      <trkpt lat="48.65003" lon="-2.33712">
        <ele>45</ele>
        <time>2018-04-11T10:25:47Z</time>
      </trkpt>
      <trkpt lat="48.64997" lon="-2.33702">
        <ele>47</ele>
        <time>2018-04-11T10:25:55Z</time>
      </trkpt>
      <trkpt lat="48.64983" lon="-2.33684">
        <ele>47</ele>
        <time>2018-04-11T10:26:10Z</time>
      </trkpt>
      <trkpt lat="48.64975" lon="-2.33675">
        <ele>48</ele>
        <time>2018-04-11T10:26:17Z</time>
      </trkpt>
      <trkpt lat="48.64959" lon="-2.33659">
        <ele>49</ele>
        <time>2018-04-11T10:26:34Z</time>
      </trkpt>
      <trkpt lat="48.64952" lon="-2.33649">
        <ele>49</ele>
        <time>2018-04-11T10:26:43Z</time>
      </trkpt>
      <trkpt lat="48.64945" lon="-2.33639">
        <ele>49</ele>
        <time>2018-04-11T10:26:51Z</time>
      </trkpt>
      <trkpt lat="48.64937" lon="-2.3363">
        <ele>49</ele>
        <time>2018-04-11T10:27:00Z</time>
      </trkpt>
      <trkpt lat="48.64928" lon="-2.33627">
        <ele>49</ele>
        <time>2018-04-11T10:27:12Z</time>
      </trkpt>
      <trkpt lat="48.64919" lon="-2.33627">
        <ele>50</ele>
        <time>2018-04-11T10:27:23Z</time>
      </trkpt>
      <trkpt lat="48.64909" lon="-2.33631">
        <ele>51</ele>
        <time>2018-04-11T10:27:29Z</time>
      </trkpt>
      <trkpt lat="48.6489" lon="-2.33638">
        <ele>51</ele>
        <time>2018-04-11T10:27:44Z</time>
      </trkpt>
      <trkpt lat="48.6488" lon="-2.33638">
        <ele>51</ele>
        <time>2018-04-11T10:27:52Z</time>
      </trkpt>
      <trkpt lat="48.6487" lon="-2.33636">
        <ele>52</ele>
        <time>2018-04-11T10:27:59Z</time>
      </trkpt>
      <trkpt lat="48.64861" lon="-2.33631">
        <ele>52</ele>
        <time>2018-04-11T10:28:06Z</time>
      </trkpt>
      <trkpt lat="48.64852" lon="-2.33624">
        <ele>52</ele>
        <time>2018-04-11T10:28:13Z</time>
      </trkpt>
      <trkpt lat="48.64828" lon="-2.33605">
        <ele>53</ele>
        <time>2018-04-11T10:28:34Z</time>
      </trkpt>
      <trkpt lat="48.64818" lon="-2.33599">
        <ele>53</ele>
        <time>2018-04-11T10:28:42Z</time>
      </trkpt>
      <trkpt lat="48.64774" lon="-2.3357">
        <ele>52</ele>
        <time>2018-04-11T10:29:17Z</time>
      </trkpt>
      <trkpt lat="48.64766" lon="-2.33567">
        <ele>52</ele>
        <time>2018-04-11T10:29:25Z</time>
      </trkpt>
      <trkpt lat="48.64756" lon="-2.33565">
        <ele>52</ele>
        <time>2018-04-11T10:29:33Z</time>
      </trkpt>
      <trkpt lat="48.64746" lon="-2.33563">
        <ele>53</ele>
        <time>2018-04-11T10:29:41Z</time>
      </trkpt>
      <trkpt lat="48.64727" lon="-2.33558">
        <ele>53</ele>
        <time>2018-04-11T10:29:56Z</time>
      </trkpt>
      <trkpt lat="48.64717" lon="-2.33554">
        <ele>53</ele>
        <time>2018-04-11T10:30:03Z</time>
      </trkpt>
      <trkpt lat="48.64699" lon="-2.33544">
        <ele>53</ele>
        <time>2018-04-11T10:30:16Z</time>
      </trkpt>
      <trkpt lat="48.64673" lon="-2.33526">
        <ele>53</ele>
        <time>2018-04-11T10:30:37Z</time>
      </trkpt>
      <trkpt lat="48.64664" lon="-2.33519">
        <ele>53</ele>
        <time>2018-04-11T10:30:44Z</time>
      </trkpt>
      <trkpt lat="48.64657" lon="-2.33511">
        <ele>53</ele>
        <time>2018-04-11T10:30:51Z</time>
      </trkpt>
      <trkpt lat="48.6465" lon="-2.335">
        <ele>53</ele>
        <time>2018-04-11T10:31:00Z</time>
      </trkpt>
      <trkpt lat="48.64643" lon="-2.3349">
        <ele>54</ele>
        <time>2018-04-11T10:31:07Z</time>
      </trkpt>
      <trkpt lat="48.64635" lon="-2.33482">
        <ele>54</ele>
        <time>2018-04-11T10:31:14Z</time>
      </trkpt>
      <trkpt lat="48.64627" lon="-2.33475">
        <ele>54</ele>
        <time>2018-04-11T10:31:21Z</time>
      </trkpt>
      <trkpt lat="48.64619" lon="-2.33466">
        <ele>54</ele>
        <time>2018-04-11T10:31:28Z</time>
      </trkpt>
      <trkpt lat="48.64611" lon="-2.33456">
        <ele>54</ele>
        <time>2018-04-11T10:31:35Z</time>
      </trkpt>
      <trkpt lat="48.6459" lon="-2.33428">
        <ele>54</ele>
        <time>2018-04-11T10:31:56Z</time>
      </trkpt>
      <trkpt lat="48.64574" lon="-2.3341">
        <ele>54</ele>
        <time>2018-04-11T10:32:11Z</time>
      </trkpt>
      <trkpt lat="48.64541" lon="-2.33377">
        <ele>54</ele>
        <time>2018-04-11T10:32:40Z</time>
      </trkpt>
      <trkpt lat="48.64527" lon="-2.33357">
        <ele>54</ele>
        <time>2018-04-11T10:32:54Z</time>
      </trkpt>
      <trkpt lat="48.6452" lon="-2.33347">
        <ele>54</ele>
        <time>2018-04-11T10:33:01Z</time>
      </trkpt>
      <trkpt lat="48.64513" lon="-2.33335">
        <ele>54</ele>
        <time>2018-04-11T10:33:09Z</time>
      </trkpt>
      <trkpt lat="48.64507" lon="-2.33324">
        <ele>54</ele>
        <time>2018-04-11T10:33:16Z</time>
      </trkpt>
      <trkpt lat="48.64503" lon="-2.33313">
        <ele>54</ele>
        <time>2018-04-11T10:33:23Z</time>
      </trkpt>
      <trkpt lat="48.64495" lon="-2.33303">
        <ele>54</ele>
        <time>2018-04-11T10:33:31Z</time>
      </trkpt>
      <trkpt lat="48.64488" lon="-2.33293">
        <ele>54</ele>
        <time>2018-04-11T10:33:39Z</time>
      </trkpt>
      <trkpt lat="48.64481" lon="-2.33282">
        <ele>54</ele>
        <time>2018-04-11T10:33:46Z</time>
      </trkpt>
      <trkpt lat="48.64479" lon="-2.33269">
        <ele>54</ele>
        <time>2018-04-11T10:33:54Z</time>
      </trkpt>
      <trkpt lat="48.64482" lon="-2.33255">
        <ele>55</ele>
        <time>2018-04-11T10:34:01Z</time>
      </trkpt>
      <trkpt lat="48.64486" lon="-2.33242">
        <ele>55</ele>
        <time>2018-04-11T10:34:08Z</time>
      </trkpt>
      <trkpt lat="48.64491" lon="-2.33229">
        <ele>55</ele>
        <time>2018-04-11T10:34:16Z</time>
      </trkpt>
      <trkpt lat="48.64497" lon="-2.33218">
        <ele>54</ele>
        <time>2018-04-11T10:34:23Z</time>
      </trkpt>
      <trkpt lat="48.64501" lon="-2.33205">
        <ele>55</ele>
        <time>2018-04-11T10:34:30Z</time>
      </trkpt>
      <trkpt lat="48.64504" lon="-2.33192">
        <ele>55</ele>
        <time>2018-04-11T10:34:37Z</time>
      </trkpt>
      <trkpt lat="48.6451" lon="-2.3318">
        <ele>54</ele>
        <time>2018-04-11T10:34:44Z</time>
      </trkpt>
      <trkpt lat="48.64528" lon="-2.33145">
        <ele>54</ele>
        <time>2018-04-11T10:35:04Z</time>
      </trkpt>
      <trkpt lat="48.64535" lon="-2.33133">
        <ele>54</ele>
        <time>2018-04-11T10:35:11Z</time>
      </trkpt>
      <trkpt lat="48.64541" lon="-2.3312">
        <ele>54</ele>
        <time>2018-04-11T10:35:18Z</time>
      </trkpt>
      <trkpt lat="48.64545" lon="-2.33107">
        <ele>54</ele>
        <time>2018-04-11T10:35:25Z</time>
      </trkpt>
      <trkpt lat="48.64548" lon="-2.33093">
        <ele>54</ele>
        <time>2018-04-11T10:35:33Z</time>
      </trkpt>
      <trkpt lat="48.64562" lon="-2.33024">
        <ele>54</ele>
        <time>2018-04-11T10:36:11Z</time>
      </trkpt>
      <trkpt lat="48.64566" lon="-2.32995">
        <ele>55</ele>
        <time>2018-04-11T10:36:25Z</time>
      </trkpt>
      <trkpt lat="48.64565" lon="-2.3298">
        <ele>54</ele>
        <time>2018-04-11T10:36:32Z</time>
      </trkpt>
      <trkpt lat="48.64564" lon="-2.32965">
        <ele>54</ele>
        <time>2018-04-11T10:36:40Z</time>
      </trkpt>
      <trkpt lat="48.64565" lon="-2.32951">
        <ele>54</ele>
        <time>2018-04-11T10:36:47Z</time>
      </trkpt>
      <trkpt lat="48.64567" lon="-2.32936">
        <ele>54</ele>
        <time>2018-04-11T10:36:54Z</time>
      </trkpt>
      <trkpt lat="48.64567" lon="-2.32921">
        <ele>54</ele>
        <time>2018-04-11T10:37:01Z</time>
      </trkpt>
      <trkpt lat="48.64566" lon="-2.32907">
        <ele>54</ele>
        <time>2018-04-11T10:37:08Z</time>
      </trkpt>
      <trkpt lat="48.64568" lon="-2.32892">
        <ele>54</ele>
        <time>2018-04-11T10:37:16Z</time>
      </trkpt>
      <trkpt lat="48.6457" lon="-2.32863">
        <ele>54</ele>
        <time>2018-04-11T10:37:33Z</time>
      </trkpt>
      <trkpt lat="48.64569" lon="-2.3285">
        <ele>54</ele>
        <time>2018-04-11T10:37:39Z</time>
      </trkpt>
      <trkpt lat="48.64568" lon="-2.32835">
        <ele>54</ele>
        <time>2018-04-11T10:37:46Z</time>
      </trkpt>
      <trkpt lat="48.64569" lon="-2.32819">
        <ele>55</ele>
        <time>2018-04-11T10:37:53Z</time>
      </trkpt>
      <trkpt lat="48.64568" lon="-2.32805">
        <ele>55</ele>
        <time>2018-04-11T10:38:00Z</time>
      </trkpt>
      <trkpt lat="48.64567" lon="-2.32789">
        <ele>55</ele>
        <time>2018-04-11T10:38:08Z</time>
      </trkpt>
      <trkpt lat="48.64567" lon="-2.32774">
        <ele>55</ele>
        <time>2018-04-11T10:38:15Z</time>
      </trkpt>
      <trkpt lat="48.64565" lon="-2.32671">
        <ele>57</ele>
        <time>2018-04-11T10:39:05Z</time>
      </trkpt>
      <trkpt lat="48.64566" lon="-2.32656">
        <ele>57</ele>
        <time>2018-04-11T10:39:11Z</time>
      </trkpt>
      <trkpt lat="48.64565" lon="-2.32642">
        <ele>57</ele>
        <time>2018-04-11T10:39:17Z</time>
      </trkpt>
      <trkpt lat="48.64562" lon="-2.32629">
        <ele>57</ele>
        <time>2018-04-11T10:39:23Z</time>
      </trkpt>
      <trkpt lat="48.6456" lon="-2.32613">
        <ele>57</ele>
        <time>2018-04-11T10:39:30Z</time>
      </trkpt>
      <trkpt lat="48.64556" lon="-2.32599">
        <ele>57</ele>
        <time>2018-04-11T10:39:37Z</time>
      </trkpt>
      <trkpt lat="48.64553" lon="-2.32585">
        <ele>57</ele>
        <time>2018-04-11T10:39:44Z</time>
      </trkpt>
      <trkpt lat="48.64545" lon="-2.32542">
        <ele>57</ele>
        <time>2018-04-11T10:40:06Z</time>
      </trkpt>
      <trkpt lat="48.64541" lon="-2.32529">
        <ele>57</ele>
        <time>2018-04-11T10:40:14Z</time>
      </trkpt>
      <trkpt lat="48.64537" lon="-2.32517">
        <ele>57</ele>
        <time>2018-04-11T10:40:21Z</time>
      </trkpt>
      <trkpt lat="48.64532" lon="-2.32505">
        <ele>57</ele>
        <time>2018-04-11T10:40:28Z</time>
      </trkpt>
      <trkpt lat="48.64514" lon="-2.32454">
        <ele>57</ele>
        <time>2018-04-11T10:40:57Z</time>
      </trkpt>
      <trkpt lat="48.64513" lon="-2.32439">
        <ele>57</ele>
        <time>2018-04-11T10:41:04Z</time>
      </trkpt>
      <trkpt lat="48.64515" lon="-2.32424">
        <ele>57</ele>
        <time>2018-04-11T10:41:11Z</time>
      </trkpt>
      <trkpt lat="48.64521" lon="-2.32381">
        <ele>57</ele>
        <time>2018-04-11T10:41:32Z</time>
      </trkpt>
      <trkpt lat="48.64521" lon="-2.32367">
        <ele>57</ele>
        <time>2018-04-11T10:41:41Z</time>
      </trkpt>
      <trkpt lat="48.64524" lon="-2.32353">
        <ele>57</ele>
        <time>2018-04-11T10:41:49Z</time>
      </trkpt>
      <trkpt lat="48.64526" lon="-2.32339">
        <ele>57</ele>
        <time>2018-04-11T10:41:56Z</time>
      </trkpt>
      <trkpt lat="48.64521" lon="-2.32327">
        <ele>58</ele>
        <time>2018-04-11T10:42:04Z</time>
      </trkpt>
      <trkpt lat="48.6451" lon="-2.32305">
        <ele>58</ele>
        <time>2018-04-11T10:42:22Z</time>
      </trkpt>
      <trkpt lat="48.64502" lon="-2.32295">
        <ele>58</ele>
        <time>2018-04-11T10:42:31Z</time>
      </trkpt>
      <trkpt lat="48.64485" lon="-2.32278">
        <ele>58</ele>
        <time>2018-04-11T10:42:46Z</time>
      </trkpt>
      <trkpt lat="48.64478" lon="-2.32271">
        <ele>58</ele>
        <time>2018-04-11T10:42:53Z</time>
      </trkpt>
      <trkpt lat="48.6447" lon="-2.32262">
        <ele>58</ele>
        <time>2018-04-11T10:43:00Z</time>
      </trkpt>
      <trkpt lat="48.64464" lon="-2.32251">
        <ele>58</ele>
        <time>2018-04-11T10:43:06Z</time>
      </trkpt>
      <trkpt lat="48.64459" lon="-2.3224">
        <ele>58</ele>
        <time>2018-04-11T10:43:12Z</time>
      </trkpt>
      <trkpt lat="48.64453" lon="-2.32229">
        <ele>58</ele>
        <time>2018-04-11T10:43:19Z</time>
      </trkpt>
      <trkpt lat="48.64442" lon="-2.32206">
        <ele>58</ele>
        <time>2018-04-11T10:43:34Z</time>
      </trkpt>
      <trkpt lat="48.6442" lon="-2.32158">
        <ele>58</ele>
        <time>2018-04-11T10:44:05Z</time>
      </trkpt>
      <trkpt lat="48.64392" lon="-2.32097">
        <ele>58</ele>
        <time>2018-04-11T10:44:44Z</time>
      </trkpt>
      <trkpt lat="48.64385" lon="-2.32085">
        <ele>58</ele>
        <time>2018-04-11T10:44:52Z</time>
      </trkpt>
      <trkpt lat="48.6436" lon="-2.32043">
        <ele>58</ele>
        <time>2018-04-11T10:45:23Z</time>
      </trkpt>
      <trkpt lat="48.64353" lon="-2.32033">
        <ele>58</ele>
        <time>2018-04-11T10:45:31Z</time>
      </trkpt>
      <trkpt lat="48.64348" lon="-2.32022">
        <ele>58</ele>
        <time>2018-04-11T10:45:40Z</time>
      </trkpt>
      <trkpt lat="48.64341" lon="-2.32012">
        <ele>58</ele>
        <time>2018-04-11T10:45:49Z</time>
      </trkpt>
      <trkpt lat="48.64333" lon="-2.32005">
        <ele>58</ele>
        <time>2018-04-11T10:46:00Z</time>
      </trkpt>
      <trkpt lat="48.6433" lon="-2.31992">
        <ele>58</ele>
        <time>2018-04-11T10:46:30Z</time>
      </trkpt>
      <trkpt lat="48.64321" lon="-2.31989">
        <ele>58</ele>
        <time>2018-04-11T10:46:44Z</time>
      </trkpt>
      <trkpt lat="48.64312" lon="-2.31986">
        <ele>58</ele>
        <time>2018-04-11T10:47:10Z</time>
      </trkpt>
      <trkpt lat="48.64303" lon="-2.3198">
        <ele>59</ele>
        <time>2018-04-11T10:47:19Z</time>
      </trkpt>
      <trkpt lat="48.64294" lon="-2.31975">
        <ele>59</ele>
        <time>2018-04-11T10:47:30Z</time>
      </trkpt>
      <trkpt lat="48.64286" lon="-2.31967">
        <ele>59</ele>
        <time>2018-04-11T10:47:40Z</time>
      </trkpt>
      <trkpt lat="48.6427" lon="-2.31951">
        <ele>59</ele>
        <time>2018-04-11T10:47:57Z</time>
      </trkpt>
      <trkpt lat="48.64262" lon="-2.31945">
        <ele>59</ele>
        <time>2018-04-11T10:48:10Z</time>
      </trkpt>
      <trkpt lat="48.64252" lon="-2.31942">
        <ele>59</ele>
        <time>2018-04-11T10:48:18Z</time>
      </trkpt>
      <trkpt lat="48.64243" lon="-2.3194">
        <ele>60</ele>
        <time>2018-04-11T10:48:25Z</time>
      </trkpt>
      <trkpt lat="48.64234" lon="-2.31934">
        <ele>60</ele>
        <time>2018-04-11T10:48:32Z</time>
      </trkpt>
      <trkpt lat="48.64225" lon="-2.31928">
        <ele>60</ele>
        <time>2018-04-11T10:48:41Z</time>
      </trkpt>
      <trkpt lat="48.64208" lon="-2.31913">
        <ele>60</ele>
        <time>2018-04-11T10:48:59Z</time>
      </trkpt>
      <trkpt lat="48.64201" lon="-2.31905">
        <ele>60</ele>
        <time>2018-04-11T10:49:07Z</time>
      </trkpt>
      <trkpt lat="48.64194" lon="-2.31895">
        <ele>60</ele>
        <time>2018-04-11T10:49:18Z</time>
      </trkpt>
      <trkpt lat="48.64188" lon="-2.31884">
        <ele>60</ele>
        <time>2018-04-11T10:49:27Z</time>
      </trkpt>
      <trkpt lat="48.64176" lon="-2.31861">
        <ele>61</ele>
        <time>2018-04-11T10:49:44Z</time>
      </trkpt>
      <trkpt lat="48.64173" lon="-2.31848">
        <ele>61</ele>
        <time>2018-04-11T10:49:53Z</time>
      </trkpt>
      <trkpt lat="48.64173" lon="-2.31832">
        <ele>61</ele>
        <time>2018-04-11T10:50:44Z</time>
      </trkpt>
      <trkpt lat="48.64174" lon="-2.31819">
        <ele>60</ele>
        <time>2018-04-11T10:50:51Z</time>
      </trkpt>
      <trkpt lat="48.64188" lon="-2.31718">
        <ele>60</ele>
        <time>2018-04-11T10:51:42Z</time>
      </trkpt>
      <trkpt lat="48.64188" lon="-2.31703">
        <ele>60</ele>
        <time>2018-04-11T10:51:49Z</time>
      </trkpt>
      <trkpt lat="48.64186" lon="-2.31689">
        <ele>60</ele>
        <time>2018-04-11T10:51:57Z</time>
      </trkpt>
      <trkpt lat="48.6418" lon="-2.31678">
        <ele>60</ele>
        <time>2018-04-11T10:52:06Z</time>
      </trkpt>
      <trkpt lat="48.64174" lon="-2.31667">
        <ele>60</ele>
        <time>2018-04-11T10:52:14Z</time>
      </trkpt>
      <trkpt lat="48.64168" lon="-2.31654">
        <ele>61</ele>
        <time>2018-04-11T10:52:21Z</time>
      </trkpt>
      <trkpt lat="48.64163" lon="-2.31642">
        <ele>59</ele>
        <time>2018-04-11T10:52:27Z</time>
      </trkpt>
      <trkpt lat="48.64156" lon="-2.31631">
        <ele>59</ele>
        <time>2018-04-11T10:52:33Z</time>
      </trkpt>
      <trkpt lat="48.64143" lon="-2.3161">
        <ele>59</ele>
        <time>2018-04-11T10:52:46Z</time>
      </trkpt>
      <trkpt lat="48.64139" lon="-2.31598">
        <ele>59</ele>
        <time>2018-04-11T10:52:55Z</time>
      </trkpt>
      <trkpt lat="48.64121" lon="-2.31562">
        <ele>59</ele>
        <time>2018-04-11T10:53:16Z</time>
      </trkpt>
      <trkpt lat="48.64117" lon="-2.3155">
        <ele>59</ele>
        <time>2018-04-11T10:53:23Z</time>
      </trkpt>
      <trkpt lat="48.64113" lon="-2.31536">
        <ele>59</ele>
        <time>2018-04-11T10:53:31Z</time>
      </trkpt>
      <trkpt lat="48.64118" lon="-2.31524">
        <ele>59</ele>
        <time>2018-04-11T10:53:40Z</time>
      </trkpt>
      <trkpt lat="48.64128" lon="-2.315">
        <ele>59</ele>
        <time>2018-04-11T10:53:56Z</time>
      </trkpt>
      <trkpt lat="48.64122" lon="-2.3149">
        <ele>59</ele>
        <time>2018-04-11T10:54:15Z</time>
      </trkpt>
      <trkpt lat="48.64112" lon="-2.31493">
        <ele>59</ele>
        <time>2018-04-11T10:54:27Z</time>
      </trkpt>
      <trkpt lat="48.64102" lon="-2.31495">
        <ele>59</ele>
        <time>2018-04-11T10:54:43Z</time>
      </trkpt>
      <trkpt lat="48.64093" lon="-2.31491">
        <ele>58</ele>
        <time>2018-04-11T10:54:53Z</time>
      </trkpt>
      <trkpt lat="48.64088" lon="-2.31478">
        <ele>59</ele>
        <time>2018-04-11T10:54:59Z</time>
      </trkpt>
      <trkpt lat="48.64083" lon="-2.31464">
        <ele>57</ele>
        <time>2018-04-11T10:55:06Z</time>
      </trkpt>
      <trkpt lat="48.64075" lon="-2.31455">
        <ele>57</ele>
        <time>2018-04-11T10:55:13Z</time>
      </trkpt>
      <trkpt lat="48.64054" lon="-2.31428">
        <ele>56</ele>
        <time>2018-04-11T10:55:36Z</time>
      </trkpt>
      <trkpt lat="48.64045" lon="-2.3142">
        <ele>56</ele>
        <time>2018-04-11T10:55:44Z</time>
      </trkpt>
      <trkpt lat="48.64038" lon="-2.31412">
        <ele>55</ele>
        <time>2018-04-11T10:55:55Z</time>
      </trkpt>
      <trkpt lat="48.64031" lon="-2.31401">
        <ele>54</ele>
        <time>2018-04-11T10:56:03Z</time>
      </trkpt>
      <trkpt lat="48.64023" lon="-2.31395">
        <ele>54</ele>
        <time>2018-04-11T10:56:12Z</time>
      </trkpt>
      <trkpt lat="48.64004" lon="-2.31385">
        <ele>54</ele>
        <time>2018-04-11T10:56:30Z</time>
      </trkpt>
      <trkpt lat="48.63996" lon="-2.31377">
        <ele>51</ele>
        <time>2018-04-11T10:56:40Z</time>
      </trkpt>
      <trkpt lat="48.63989" lon="-2.31367">
        <ele>51</ele>
        <time>2018-04-11T10:56:49Z</time>
      </trkpt>
      <trkpt lat="48.63983" lon="-2.31356">
        <ele>51</ele>
        <time>2018-04-11T10:56:57Z</time>
      </trkpt>
      <trkpt lat="48.63977" lon="-2.31344">
        <ele>51</ele>
        <time>2018-04-11T10:57:04Z</time>
      </trkpt>
      <trkpt lat="48.63973" lon="-2.31331">
        <ele>49</ele>
        <time>2018-04-11T10:57:11Z</time>
      </trkpt>
      <trkpt lat="48.63972" lon="-2.31317">
        <ele>49</ele>
        <time>2018-04-11T10:57:19Z</time>
      </trkpt>
      <trkpt lat="48.63973" lon="-2.31303">
        <ele>49</ele>
        <time>2018-04-11T10:57:27Z</time>
      </trkpt>
      <trkpt lat="48.63975" lon="-2.31259">
        <ele>48</ele>
        <time>2018-04-11T10:57:54Z</time>
      </trkpt>
      <trkpt lat="48.63978" lon="-2.31245">
        <ele>45</ele>
        <time>2018-04-11T10:58:01Z</time>
      </trkpt>
      <trkpt lat="48.63979" lon="-2.31231">
        <ele>45</ele>
        <time>2018-04-11T10:58:08Z</time>
      </trkpt>
      <trkpt lat="48.63982" lon="-2.31218">
        <ele>44</ele>
        <time>2018-04-11T10:58:16Z</time>
      </trkpt>
      <trkpt lat="48.63982" lon="-2.31203">
        <ele>44</ele>
        <time>2018-04-11T10:58:25Z</time>
      </trkpt>
      <trkpt lat="48.63984" lon="-2.31189">
        <ele>43</ele>
        <time>2018-04-11T10:58:36Z</time>
      </trkpt>
      <trkpt lat="48.63986" lon="-2.31175">
        <ele>42</ele>
        <time>2018-04-11T10:58:50Z</time>
      </trkpt>
      <trkpt lat="48.63987" lon="-2.31161">
        <ele>40</ele>
        <time>2018-04-11T10:59:03Z</time>
      </trkpt>
      <trkpt lat="48.63993" lon="-2.31149">
        <ele>41</ele>
        <time>2018-04-11T10:59:12Z</time>
      </trkpt>
      <trkpt lat="48.63996" lon="-2.31136">
        <ele>41</ele>
        <time>2018-04-11T10:59:21Z</time>
      </trkpt>
      <trkpt lat="48.64002" lon="-2.31124">
        <ele>38</ele>
        <time>2018-04-11T10:59:31Z</time>
      </trkpt>
      <trkpt lat="48.64008" lon="-2.31103">
        <ele>37</ele>
        <time>2018-04-11T10:59:49Z</time>
      </trkpt>
      <trkpt lat="48.64014" lon="-2.31092">
        <ele>36</ele>
        <time>2018-04-11T10:59:58Z</time>
      </trkpt>
      <trkpt lat="48.64028" lon="-2.31069">
        <ele>33</ele>
        <time>2018-04-11T11:00:15Z</time>
      </trkpt>
      <trkpt lat="48.64042" lon="-2.3105">
        <ele>33</ele>
        <time>2018-04-11T11:00:31Z</time>
      </trkpt>
      <trkpt lat="48.6405" lon="-2.31043">
        <ele>32</ele>
        <time>2018-04-11T11:00:44Z</time>
      </trkpt>
      <trkpt lat="48.6406" lon="-2.31036">
        <ele>31</ele>
        <time>2018-04-11T11:00:46Z</time>
      </trkpt>
      <trkpt lat="48.64067" lon="-2.31028">
        <ele>30</ele>
        <time>2018-04-11T11:00:52Z</time>
      </trkpt>
      <trkpt lat="48.64075" lon="-2.31019">
        <ele>28</ele>
        <time>2018-04-11T11:01:02Z</time>
      </trkpt>
      <trkpt lat="48.64079" lon="-2.31006">
        <ele>24</ele>
        <time>2018-04-11T11:01:12Z</time>
      </trkpt>
      <trkpt lat="48.64084" lon="-2.30994">
        <ele>19</ele>
        <time>2018-04-11T11:01:20Z</time>
      </trkpt>
      <trkpt lat="48.64088" lon="-2.30981">
        <ele>17</ele>
        <time>2018-04-11T11:01:35Z</time>
      </trkpt>
      <trkpt lat="48.64089" lon="-2.30968">
        <ele>15</ele>
        <time>2018-04-11T11:02:03Z</time>
      </trkpt>
      <trkpt lat="48.64096" lon="-2.30958">
        <ele>14</ele>
        <time>2018-04-11T11:03:24Z</time>
      </trkpt>
      <trkpt lat="48.64107" lon="-2.30956">
        <ele>13</ele>
        <time>2018-04-11T11:03:43Z</time>
      </trkpt>
      <trkpt lat="48.64115" lon="-2.30963">
        <ele>14</ele>
        <time>2018-04-11T11:04:50Z</time>
      </trkpt>
      <trkpt lat="48.64118" lon="-2.30977">
        <ele>14</ele>
        <time>2018-04-11T11:05:02Z</time>
      </trkpt>
      <trkpt lat="48.64123" lon="-2.3099">
        <ele>15</ele>
        <time>2018-04-11T11:05:34Z</time>
      </trkpt>
      <trkpt lat="48.64132" lon="-2.31002">
        <ele>24</ele>
        <time>2018-04-11T11:07:48Z</time>
      </trkpt>
      <trkpt lat="48.64142" lon="-2.31002">
        <ele>23</ele>
        <time>2018-04-11T11:08:00Z</time>
      </trkpt>
      <trkpt lat="48.64152" lon="-2.31003">
        <ele>21</ele>
        <time>2018-04-11T11:08:15Z</time>
      </trkpt>
      <trkpt lat="48.64159" lon="-2.31012">
        <ele>21</ele>
        <time>2018-04-11T11:08:24Z</time>
      </trkpt>
      <trkpt lat="48.64173" lon="-2.3103">
        <ele>24</ele>
        <time>2018-04-11T11:08:39Z</time>
      </trkpt>
      <trkpt lat="48.64181" lon="-2.3104">
        <ele>26</ele>
        <time>2018-04-11T11:08:47Z</time>
      </trkpt>
      <trkpt lat="48.64185" lon="-2.31053">
        <ele>28</ele>
        <time>2018-04-11T11:09:03Z</time>
      </trkpt>
      <trkpt lat="48.64193" lon="-2.3106">
        <ele>29</ele>
        <time>2018-04-11T11:09:56Z</time>
      </trkpt>
      <trkpt lat="48.64202" lon="-2.31062">
        <ele>29</ele>
        <time>2018-04-11T11:10:11Z</time>
      </trkpt>
      <trkpt lat="48.64211" lon="-2.31061">
        <ele>29</ele>
        <time>2018-04-11T11:10:25Z</time>
      </trkpt>
      <trkpt lat="48.6422" lon="-2.31056">
        <ele>28</ele>
        <time>2018-04-11T11:10:35Z</time>
      </trkpt>
      <trkpt lat="48.64226" lon="-2.31046">
        <ele>27</ele>
        <time>2018-04-11T11:10:50Z</time>
      </trkpt>
      <trkpt lat="48.64235" lon="-2.31042">
        <ele>26</ele>
        <time>2018-04-11T11:11:03Z</time>
      </trkpt>
      <trkpt lat="48.64245" lon="-2.31039">
        <ele>25</ele>
        <time>2018-04-11T11:11:13Z</time>
      </trkpt>
      <trkpt lat="48.64253" lon="-2.31029">
        <ele>27</ele>
        <time>2018-04-11T11:11:29Z</time>
      </trkpt>
      <trkpt lat="48.64261" lon="-2.31025">
        <ele>26</ele>
        <time>2018-04-11T11:11:42Z</time>
      </trkpt>
      <trkpt lat="48.64272" lon="-2.31018">
        <ele>26</ele>
        <time>2018-04-11T11:12:01Z</time>
      </trkpt>
      <trkpt lat="48.64281" lon="-2.31014">
        <ele>27</ele>
        <time>2018-04-11T11:12:13Z</time>
      </trkpt>
      <trkpt lat="48.64291" lon="-2.31011">
        <ele>28</ele>
        <time>2018-04-11T11:12:23Z</time>
      </trkpt>
      <trkpt lat="48.643" lon="-2.31011">
        <ele>29</ele>
        <time>2018-04-11T11:12:37Z</time>
      </trkpt>
      <trkpt lat="48.64309" lon="-2.3101">
        <ele>30</ele>
        <time>2018-04-11T11:12:53Z</time>
      </trkpt>
      <trkpt lat="48.64328" lon="-2.31005">
        <ele>29</ele>
        <time>2018-04-11T11:13:17Z</time>
      </trkpt>
      <trkpt lat="48.64336" lon="-2.30999">
        <ele>28</ele>
        <time>2018-04-11T11:13:28Z</time>
      </trkpt>
      <trkpt lat="48.64346" lon="-2.30997">
        <ele>30</ele>
        <time>2018-04-11T11:13:41Z</time>
      </trkpt>
      <trkpt lat="48.64353" lon="-2.30989">
        <ele>31</ele>
        <time>2018-04-11T11:13:56Z</time>
      </trkpt>
      <trkpt lat="48.64362" lon="-2.30982">
        <ele>32</ele>
        <time>2018-04-11T11:14:08Z</time>
      </trkpt>
      <trkpt lat="48.64372" lon="-2.30977">
        <ele>33</ele>
        <time>2018-04-11T11:14:19Z</time>
      </trkpt>
      <trkpt lat="48.64381" lon="-2.30972">
        <ele>33</ele>
        <time>2018-04-11T11:14:28Z</time>
      </trkpt>
      <trkpt lat="48.64389" lon="-2.30966">
        <ele>33</ele>
        <time>2018-04-11T11:14:35Z</time>
      </trkpt>
      <trkpt lat="48.64396" lon="-2.30957">
        <ele>31</ele>
        <time>2018-04-11T11:14:45Z</time>
      </trkpt>
      <trkpt lat="48.64404" lon="-2.30949">
        <ele>29</ele>
        <time>2018-04-11T11:14:54Z</time>
      </trkpt>
      <trkpt lat="48.64436" lon="-2.30916">
        <ele>20</ele>
        <time>2018-04-11T11:15:31Z</time>
      </trkpt>
      <trkpt lat="48.64444" lon="-2.30906">
        <ele>22</ele>
        <time>2018-04-11T11:15:41Z</time>
      </trkpt>
      <trkpt lat="48.64454" lon="-2.30905">
        <ele>24</ele>
        <time>2018-04-11T11:15:51Z</time>
      </trkpt>
      <trkpt lat="48.64462" lon="-2.309">
        <ele>26</ele>
        <time>2018-04-11T11:16:02Z</time>
      </trkpt>
      <trkpt lat="48.64468" lon="-2.30889">
        <ele>26</ele>
        <time>2018-04-11T11:16:10Z</time>
      </trkpt>
      <trkpt lat="48.64476" lon="-2.30881">
        <ele>25</ele>
        <time>2018-04-11T11:16:19Z</time>
      </trkpt>
      <trkpt lat="48.64483" lon="-2.3087">
        <ele>23</ele>
        <time>2018-04-11T11:16:30Z</time>
      </trkpt>
      <trkpt lat="48.64492" lon="-2.30866">
        <ele>22</ele>
        <time>2018-04-11T11:16:39Z</time>
      </trkpt>
      <trkpt lat="48.64499" lon="-2.30857">
        <ele>20</ele>
        <time>2018-04-11T11:16:48Z</time>
      </trkpt>
      <trkpt lat="48.64509" lon="-2.30856">
        <ele>28</ele>
        <time>2018-04-11T11:16:57Z</time>
      </trkpt>
      <trkpt lat="48.64519" lon="-2.30861">
        <ele>31</ele>
        <time>2018-04-11T11:17:06Z</time>
      </trkpt>
      <trkpt lat="48.64528" lon="-2.30864">
        <ele>33</ele>
        <time>2018-04-11T11:17:21Z</time>
      </trkpt>
      <trkpt lat="48.64538" lon="-2.30873">
        <ele>36</ele>
        <time>2018-04-11T11:18:21Z</time>
      </trkpt>
      <trkpt lat="48.64544" lon="-2.30884">
        <ele>38</ele>
        <time>2018-04-11T11:18:34Z</time>
      </trkpt>
      <trkpt lat="48.64542" lon="-2.30869">
        <ele>36</ele>
        <time>2018-04-11T11:19:04Z</time>
      </trkpt>
      <trkpt lat="48.64542" lon="-2.30855">
        <ele>35</ele>
        <time>2018-04-11T11:19:13Z</time>
      </trkpt>
      <trkpt lat="48.6455" lon="-2.30848">
        <ele>36</ele>
        <time>2018-04-11T11:19:45Z</time>
      </trkpt>
      <trkpt lat="48.64574" lon="-2.30827">
        <ele>36</ele>
        <time>2018-04-11T11:20:31Z</time>
      </trkpt>
      <trkpt lat="48.64594" lon="-2.30807">
        <ele>40</ele>
        <time>2018-04-11T11:20:50Z</time>
      </trkpt>
      <trkpt lat="48.64603" lon="-2.30797">
        <ele>39</ele>
        <time>2018-04-11T11:21:05Z</time>
      </trkpt>
      <trkpt lat="48.64609" lon="-2.30787">
        <ele>38</ele>
        <time>2018-04-11T11:21:22Z</time>
      </trkpt>
      <trkpt lat="48.64617" lon="-2.30779">
        <ele>38</ele>
        <time>2018-04-11T11:21:32Z</time>
      </trkpt>
      <trkpt lat="48.64623" lon="-2.30769">
        <ele>38</ele>
        <time>2018-04-11T11:21:41Z</time>
      </trkpt>
      <trkpt lat="48.64636" lon="-2.30745">
        <ele>31</ele>
        <time>2018-04-11T11:21:57Z</time>
      </trkpt>
      <trkpt lat="48.64642" lon="-2.30735">
        <ele>32</ele>
        <time>2018-04-11T11:22:05Z</time>
      </trkpt>
      <trkpt lat="48.64664" lon="-2.30704">
        <ele>29</ele>
        <time>2018-04-11T11:22:39Z</time>
      </trkpt>
      <trkpt lat="48.64674" lon="-2.30693">
        <ele>41</ele>
        <time>2018-04-11T11:22:55Z</time>
      </trkpt>
      <trkpt lat="48.6468" lon="-2.30682">
        <ele>39</ele>
        <time>2018-04-11T11:23:04Z</time>
      </trkpt>
      <trkpt lat="48.64689" lon="-2.30671">
        <ele>40</ele>
        <time>2018-04-11T11:23:29Z</time>
      </trkpt>
      <trkpt lat="48.64691" lon="-2.30657">
        <ele>33</ele>
        <time>2018-04-11T11:23:38Z</time>
      </trkpt>
      <trkpt lat="48.64693" lon="-2.30642">
        <ele>33</ele>
        <time>2018-04-11T11:23:46Z</time>
      </trkpt>
      <trkpt lat="48.64698" lon="-2.30628">
        <ele>33</ele>
        <time>2018-04-11T11:23:57Z</time>
      </trkpt>
      <trkpt lat="48.64703" lon="-2.30616">
        <ele>32</ele>
        <time>2018-04-11T11:24:07Z</time>
      </trkpt>
      <trkpt lat="48.6471" lon="-2.30607">
        <ele>33</ele>
        <time>2018-04-11T11:24:17Z</time>
      </trkpt>
      <trkpt lat="48.64724" lon="-2.30589">
        <ele>35</ele>
        <time>2018-04-11T11:24:34Z</time>
      </trkpt>
      <trkpt lat="48.6473" lon="-2.30577">
        <ele>31</ele>
        <time>2018-04-11T11:24:43Z</time>
      </trkpt>
      <trkpt lat="48.64737" lon="-2.30566">
        <ele>31</ele>
        <time>2018-04-11T11:24:51Z</time>
      </trkpt>
      <trkpt lat="48.64744" lon="-2.30557">
        <ele>30</ele>
        <time>2018-04-11T11:24:58Z</time>
      </trkpt>
      <trkpt lat="48.64751" lon="-2.30548">
        <ele>36</ele>
        <time>2018-04-11T11:25:06Z</time>
      </trkpt>
      <trkpt lat="48.64757" lon="-2.30537">
        <ele>34</ele>
        <time>2018-04-11T11:25:12Z</time>
      </trkpt>
      <trkpt lat="48.6477" lon="-2.30516">
        <ele>31</ele>
        <time>2018-04-11T11:25:28Z</time>
      </trkpt>
      <trkpt lat="48.64775" lon="-2.30504">
        <ele>31</ele>
        <time>2018-04-11T11:25:38Z</time>
      </trkpt>
      <trkpt lat="48.64782" lon="-2.30495">
        <ele>24</ele>
        <time>2018-04-11T11:25:54Z</time>
      </trkpt>
      <trkpt lat="48.64785" lon="-2.30482">
        <ele>25</ele>
        <time>2018-04-11T11:26:06Z</time>
      </trkpt>
      <trkpt lat="48.64786" lon="-2.30468">
        <ele>24</ele>
        <time>2018-04-11T11:26:19Z</time>
      </trkpt>
      <trkpt lat="48.64791" lon="-2.30456">
        <ele>24</ele>
        <time>2018-04-11T11:26:33Z</time>
      </trkpt>
      <trkpt lat="48.64801" lon="-2.30432">
        <ele>25</ele>
        <time>2018-04-11T11:26:48Z</time>
      </trkpt>
      <trkpt lat="48.64804" lon="-2.30419">
        <ele>26</ele>
        <time>2018-04-11T11:26:57Z</time>
      </trkpt>
      <trkpt lat="48.64809" lon="-2.30407">
        <ele>22</ele>
        <time>2018-04-11T11:27:06Z</time>
      </trkpt>
      <trkpt lat="48.64815" lon="-2.30396">
        <ele>22</ele>
        <time>2018-04-11T11:27:31Z</time>
      </trkpt>
      <trkpt lat="48.64824" lon="-2.30388">
        <ele>21</ele>
        <time>2018-04-11T11:27:52Z</time>
      </trkpt>
      <trkpt lat="48.6484" lon="-2.30374">
        <ele>29</ele>
        <time>2018-04-11T11:28:16Z</time>
      </trkpt>
      <trkpt lat="48.64849" lon="-2.3037">
        <ele>29</ele>
        <time>2018-04-11T11:28:37Z</time>
      </trkpt>
      <trkpt lat="48.64858" lon="-2.30365">
        <ele>30</ele>
        <time>2018-04-11T11:28:50Z</time>
      </trkpt>
      <trkpt lat="48.64866" lon="-2.30357">
        <ele>30</ele>
        <time>2018-04-11T11:28:59Z</time>
      </trkpt>
      <trkpt lat="48.64875" lon="-2.30352">
        <ele>31</ele>
        <time>2018-04-11T11:29:09Z</time>
      </trkpt>
      <trkpt lat="48.64884" lon="-2.30347">
        <ele>32</ele>
        <time>2018-04-11T11:29:18Z</time>
      </trkpt>
      <trkpt lat="48.64891" lon="-2.30338">
        <ele>33</ele>
        <time>2018-04-11T11:29:28Z</time>
      </trkpt>
      <trkpt lat="48.64899" lon="-2.30329">
        <ele>28</ele>
        <time>2018-04-11T11:29:37Z</time>
      </trkpt>
      <trkpt lat="48.64905" lon="-2.30318">
        <ele>28</ele>
        <time>2018-04-11T11:29:52Z</time>
      </trkpt>
      <trkpt lat="48.64914" lon="-2.3031">
        <ele>27</ele>
        <time>2018-04-11T11:30:01Z</time>
      </trkpt>
      <trkpt lat="48.64921" lon="-2.30299">
        <ele>34</ele>
        <time>2018-04-11T11:30:11Z</time>
      </trkpt>
      <trkpt lat="48.64928" lon="-2.3029">
        <ele>33</ele>
        <time>2018-04-11T11:30:20Z</time>
      </trkpt>
      <trkpt lat="48.64929" lon="-2.30275">
        <ele>31</ele>
        <time>2018-04-11T11:30:30Z</time>
      </trkpt>
      <trkpt lat="48.64932" lon="-2.30263">
        <ele>28</ele>
        <time>2018-04-11T11:30:51Z</time>
      </trkpt>
      <trkpt lat="48.64938" lon="-2.30249">
        <ele>24</ele>
        <time>2018-04-11T11:31:03Z</time>
      </trkpt>
      <trkpt lat="48.64947" lon="-2.30244">
        <ele>26</ele>
        <time>2018-04-11T11:31:36Z</time>
      </trkpt>
      <trkpt lat="48.64955" lon="-2.30237">
        <ele>28</ele>
        <time>2018-04-11T11:32:02Z</time>
      </trkpt>
      <trkpt lat="48.64962" lon="-2.30225">
        <ele>29</ele>
        <time>2018-04-11T11:32:21Z</time>
      </trkpt>
      <trkpt lat="48.64962" lon="-2.30211">
        <ele>29</ele>
        <time>2018-04-11T11:32:35Z</time>
      </trkpt>
      <trkpt lat="48.64964" lon="-2.30196">
        <ele>29</ele>
        <time>2018-04-11T11:32:44Z</time>
      </trkpt>
      <trkpt lat="48.64975" lon="-2.30181">
        <ele>31</ele>
        <time>2018-04-11T11:33:25Z</time>
      </trkpt>
      <trkpt lat="48.64979" lon="-2.30168">
        <ele>33</ele>
        <time>2018-04-11T11:33:34Z</time>
      </trkpt>
      <trkpt lat="48.64983" lon="-2.30154">
        <ele>28</ele>
        <time>2018-04-11T11:33:45Z</time>
      </trkpt>
      <trkpt lat="48.64989" lon="-2.30143">
        <ele>27</ele>
        <time>2018-04-11T11:33:56Z</time>
      </trkpt>
      <trkpt lat="48.64996" lon="-2.30132">
        <ele>25</ele>
        <time>2018-04-11T11:34:05Z</time>
      </trkpt>
      <trkpt lat="48.65003" lon="-2.30122">
        <ele>36</ele>
        <time>2018-04-11T11:34:14Z</time>
      </trkpt>
      <trkpt lat="48.6501" lon="-2.30114">
        <ele>35</ele>
        <time>2018-04-11T11:34:24Z</time>
      </trkpt>
      <trkpt lat="48.65019" lon="-2.30111">
        <ele>36</ele>
        <time>2018-04-11T11:34:33Z</time>
      </trkpt>
      <trkpt lat="48.65028" lon="-2.30106">
        <ele>36</ele>
        <time>2018-04-11T11:34:42Z</time>
      </trkpt>
      <trkpt lat="48.65038" lon="-2.30104">
        <ele>38</ele>
        <time>2018-04-11T11:34:53Z</time>
      </trkpt>
      <trkpt lat="48.65047" lon="-2.301">
        <ele>38</ele>
        <time>2018-04-11T11:35:01Z</time>
      </trkpt>
      <trkpt lat="48.65056" lon="-2.30096">
        <ele>39</ele>
        <time>2018-04-11T11:35:09Z</time>
      </trkpt>
      <trkpt lat="48.65065" lon="-2.30089">
        <ele>39</ele>
        <time>2018-04-11T11:35:22Z</time>
      </trkpt>
      <trkpt lat="48.65071" lon="-2.30079">
        <ele>31</ele>
        <time>2018-04-11T11:35:33Z</time>
      </trkpt>
      <trkpt lat="48.65075" lon="-2.30065">
        <ele>29</ele>
        <time>2018-04-11T11:35:45Z</time>
      </trkpt>
      <trkpt lat="48.65077" lon="-2.30051">
        <ele>25</ele>
        <time>2018-04-11T11:35:53Z</time>
      </trkpt>
      <trkpt lat="48.65084" lon="-2.30042">
        <ele>33</ele>
        <time>2018-04-11T11:36:17Z</time>
      </trkpt>
      <trkpt lat="48.65093" lon="-2.30042">
        <ele>34</ele>
        <time>2018-04-11T11:36:28Z</time>
      </trkpt>
      <trkpt lat="48.65103" lon="-2.3004">
        <ele>34</ele>
        <time>2018-04-11T11:36:37Z</time>
      </trkpt>
      <trkpt lat="48.65111" lon="-2.30043">
        <ele>35</ele>
        <time>2018-04-11T11:37:21Z</time>
      </trkpt>
      <trkpt lat="48.65111" lon="-2.30028">
        <ele>33</ele>
        <time>2018-04-11T11:37:55Z</time>
      </trkpt>
      <trkpt lat="48.65111" lon="-2.3">
        <ele>27</ele>
        <time>2018-04-11T11:38:27Z</time>
      </trkpt>
      <trkpt lat="48.65118" lon="-2.29977">
        <ele>29</ele>
        <time>2018-04-11T11:39:07Z</time>
      </trkpt>
      <trkpt lat="48.65097" lon="-2.29977">
        <ele>26</ele>
        <time>2018-04-11T12:11:01Z</time>
      </trkpt>
      <trkpt lat="48.65114" lon="-2.29982">
        <ele>28</ele>
        <time>2018-04-11T12:11:24Z</time>
      </trkpt>
      <trkpt lat="48.65114" lon="-2.29982">
        <ele>28</ele>
        <time>2018-04-11T12:11:24Z</time>
      </trkpt>
      <trkpt lat="48.65114" lon="-2.29982">
        <ele>28</ele>
        <time>2018-04-11T12:11:24Z</time>
      </trkpt>
      <trkpt lat="48.65114" lon="-2.29982">
        <ele>28</ele>
        <time>2018-04-11T12:11:24Z</time>
      </trkpt>
      <trkpt lat="48.65115" lon="-2.29984">
        <ele>28</ele>
        <time>2018-04-11T12:11:30Z</time>
      </trkpt>
      <trkpt lat="48.65121" lon="-2.29995">
        <ele>29</ele>
        <time>2018-04-11T12:11:39Z</time>
      </trkpt>
      <trkpt lat="48.65128" lon="-2.30005">
        <ele>34</ele>
        <time>2018-04-11T12:11:58Z</time>
      </trkpt>
      <trkpt lat="48.65136" lon="-2.30011">
        <ele>35</ele>
        <time>2018-04-11T12:12:10Z</time>
      </trkpt>
      <trkpt lat="48.65146" lon="-2.30019">
        <ele>37</ele>
        <time>2018-04-11T12:12:32Z</time>
      </trkpt>
      <trkpt lat="48.65144" lon="-2.30006">
        <ele>36</ele>
        <time>2018-04-11T12:13:14Z</time>
      </trkpt>
      <trkpt lat="48.65141" lon="-2.29992">
        <ele>33</ele>
        <time>2018-04-11T12:13:31Z</time>
      </trkpt>
      <trkpt lat="48.65142" lon="-2.29978">
        <ele>33</ele>
        <time>2018-04-11T12:13:51Z</time>
      </trkpt>
      <trkpt lat="48.65147" lon="-2.29961">
        <ele>33</ele>
        <time>2018-04-11T12:14:13Z</time>
      </trkpt>
      <trkpt lat="48.65141" lon="-2.2995">
        <ele>33</ele>
        <time>2018-04-11T12:14:26Z</time>
      </trkpt>
      <trkpt lat="48.65139" lon="-2.29935">
        <ele>34</ele>
        <time>2018-04-11T12:14:38Z</time>
      </trkpt>
      <trkpt lat="48.65144" lon="-2.29923">
        <ele>36</ele>
        <time>2018-04-11T12:14:50Z</time>
      </trkpt>
      <trkpt lat="48.65149" lon="-2.29909">
        <ele>35</ele>
        <time>2018-04-11T12:15:12Z</time>
      </trkpt>
      <trkpt lat="48.65156" lon="-2.29898">
        <ele>34</ele>
        <time>2018-04-11T12:15:27Z</time>
      </trkpt>
      <trkpt lat="48.65168" lon="-2.29899">
        <ele>45</ele>
        <time>2018-04-11T12:15:54Z</time>
      </trkpt>
      <trkpt lat="48.65177" lon="-2.29903">
        <ele>46</ele>
        <time>2018-04-11T12:16:04Z</time>
      </trkpt>
      <trkpt lat="48.65186" lon="-2.29901">
        <ele>46</ele>
        <time>2018-04-11T12:16:34Z</time>
      </trkpt>
      <trkpt lat="48.65196" lon="-2.29899">
        <ele>47</ele>
        <time>2018-04-11T12:16:47Z</time>
      </trkpt>
      <trkpt lat="48.65204" lon="-2.29891">
        <ele>47</ele>
        <time>2018-04-11T12:16:57Z</time>
      </trkpt>
      <trkpt lat="48.65213" lon="-2.2989">
        <ele>48</ele>
        <time>2018-04-11T12:17:07Z</time>
      </trkpt>
      <trkpt lat="48.65223" lon="-2.29891">
        <ele>49</ele>
        <time>2018-04-11T12:17:17Z</time>
      </trkpt>
      <trkpt lat="48.65231" lon="-2.29897">
        <ele>51</ele>
        <time>2018-04-11T12:17:27Z</time>
      </trkpt>
      <trkpt lat="48.6524" lon="-2.29904">
        <ele>54</ele>
        <time>2018-04-11T12:17:36Z</time>
      </trkpt>
      <trkpt lat="48.65248" lon="-2.29898">
        <ele>53</ele>
        <time>2018-04-11T12:17:52Z</time>
      </trkpt>
      <trkpt lat="48.65255" lon="-2.29888">
        <ele>56</ele>
        <time>2018-04-11T12:18:10Z</time>
      </trkpt>
      <trkpt lat="48.65263" lon="-2.29881">
        <ele>55</ele>
        <time>2018-04-11T12:18:29Z</time>
      </trkpt>
      <trkpt lat="48.65271" lon="-2.29874">
        <ele>54</ele>
        <time>2018-04-11T12:18:42Z</time>
      </trkpt>
      <trkpt lat="48.6528" lon="-2.2987">
        <ele>53</ele>
        <time>2018-04-11T12:18:54Z</time>
      </trkpt>
      <trkpt lat="48.65289" lon="-2.29866">
        <ele>53</ele>
        <time>2018-04-11T12:19:06Z</time>
      </trkpt>
      <trkpt lat="48.65298" lon="-2.29859">
        <ele>53</ele>
        <time>2018-04-11T12:19:14Z</time>
      </trkpt>
      <trkpt lat="48.65307" lon="-2.29856">
        <ele>52</ele>
        <time>2018-04-11T12:19:22Z</time>
      </trkpt>
      <trkpt lat="48.65316" lon="-2.29853">
        <ele>52</ele>
        <time>2018-04-11T12:19:30Z</time>
      </trkpt>
      <trkpt lat="48.65325" lon="-2.29852">
        <ele>51</ele>
        <time>2018-04-11T12:19:48Z</time>
      </trkpt>
      <trkpt lat="48.65345" lon="-2.29851">
        <ele>51</ele>
        <time>2018-04-11T12:20:16Z</time>
      </trkpt>
      <trkpt lat="48.65354" lon="-2.29854">
        <ele>52</ele>
        <time>2018-04-11T12:20:26Z</time>
      </trkpt>
      <trkpt lat="48.65364" lon="-2.29853">
        <ele>52</ele>
        <time>2018-04-11T12:20:35Z</time>
      </trkpt>
      <trkpt lat="48.65373" lon="-2.29851">
        <ele>51</ele>
        <time>2018-04-11T12:20:42Z</time>
      </trkpt>
      <trkpt lat="48.65383" lon="-2.29853">
        <ele>51</ele>
        <time>2018-04-11T12:20:51Z</time>
      </trkpt>
      <trkpt lat="48.65392" lon="-2.29851">
        <ele>50</ele>
        <time>2018-04-11T12:21:00Z</time>
      </trkpt>
      <trkpt lat="48.65401" lon="-2.29849">
        <ele>49</ele>
        <time>2018-04-11T12:21:08Z</time>
      </trkpt>
      <trkpt lat="48.65415" lon="-2.29851">
        <ele>49</ele>
        <time>2018-04-11T12:21:31Z</time>
      </trkpt>
      <trkpt lat="48.65424" lon="-2.29848">
        <ele>47</ele>
        <time>2018-04-11T12:21:39Z</time>
      </trkpt>
      <trkpt lat="48.65433" lon="-2.29851">
        <ele>48</ele>
        <time>2018-04-11T12:21:48Z</time>
      </trkpt>
      <trkpt lat="48.65442" lon="-2.29859">
        <ele>49</ele>
        <time>2018-04-11T12:22:01Z</time>
      </trkpt>
      <trkpt lat="48.65448" lon="-2.29868">
        <ele>50</ele>
        <time>2018-04-11T12:22:09Z</time>
      </trkpt>
      <trkpt lat="48.65456" lon="-2.29876">
        <ele>51</ele>
        <time>2018-04-11T12:22:19Z</time>
      </trkpt>
      <trkpt lat="48.65478" lon="-2.29895">
        <ele>52</ele>
        <time>2018-04-11T12:22:48Z</time>
      </trkpt>
      <trkpt lat="48.65487" lon="-2.29898">
        <ele>53</ele>
        <time>2018-04-11T12:22:56Z</time>
      </trkpt>
      <trkpt lat="48.65494" lon="-2.29907">
        <ele>54</ele>
        <time>2018-04-11T12:23:04Z</time>
      </trkpt>
      <trkpt lat="48.65502" lon="-2.29913">
        <ele>55</ele>
        <time>2018-04-11T12:23:13Z</time>
      </trkpt>
      <trkpt lat="48.65549" lon="-2.29942">
        <ele>56</ele>
        <time>2018-04-11T12:24:39Z</time>
      </trkpt>
      <trkpt lat="48.65559" lon="-2.29938">
        <ele>56</ele>
        <time>2018-04-11T12:24:54Z</time>
      </trkpt>
      <trkpt lat="48.65555" lon="-2.29925">
        <ele>56</ele>
        <time>2018-04-11T12:25:13Z</time>
      </trkpt>
      <trkpt lat="48.65554" lon="-2.29911">
        <ele>52</ele>
        <time>2018-04-11T12:25:24Z</time>
      </trkpt>
      <trkpt lat="48.65555" lon="-2.29897">
        <ele>51</ele>
        <time>2018-04-11T12:25:33Z</time>
      </trkpt>
      <trkpt lat="48.65556" lon="-2.29854">
        <ele>49</ele>
        <time>2018-04-11T12:25:59Z</time>
      </trkpt>
      <trkpt lat="48.65558" lon="-2.29838">
        <ele>48</ele>
        <time>2018-04-11T12:26:09Z</time>
      </trkpt>
      <trkpt lat="48.65561" lon="-2.29825">
        <ele>38</ele>
        <time>2018-04-11T12:26:17Z</time>
      </trkpt>
      <trkpt lat="48.65563" lon="-2.2981">
        <ele>36</ele>
        <time>2018-04-11T12:26:25Z</time>
      </trkpt>
      <trkpt lat="48.65566" lon="-2.29798">
        <ele>34</ele>
        <time>2018-04-11T12:26:32Z</time>
      </trkpt>
      <trkpt lat="48.65573" lon="-2.29788">
        <ele>33</ele>
        <time>2018-04-11T12:26:42Z</time>
      </trkpt>
      <trkpt lat="48.65582" lon="-2.2978">
        <ele>32</ele>
        <time>2018-04-11T12:26:50Z</time>
      </trkpt>
      <trkpt lat="48.65598" lon="-2.29765">
        <ele>37</ele>
        <time>2018-04-11T12:27:09Z</time>
      </trkpt>
      <trkpt lat="48.65605" lon="-2.29756">
        <ele>37</ele>
        <time>2018-04-11T12:27:20Z</time>
      </trkpt>
      <trkpt lat="48.6562" lon="-2.29745">
        <ele>30</ele>
        <time>2018-04-11T12:27:41Z</time>
      </trkpt>
      <trkpt lat="48.6563" lon="-2.2974">
        <ele>32</ele>
        <time>2018-04-11T12:28:02Z</time>
      </trkpt>
      <trkpt lat="48.65637" lon="-2.2973">
        <ele>32</ele>
        <time>2018-04-11T12:28:35Z</time>
      </trkpt>
      <trkpt lat="48.6564" lon="-2.29716">
        <ele>31</ele>
        <time>2018-04-11T12:28:40Z</time>
      </trkpt>
      <trkpt lat="48.65647" lon="-2.29705">
        <ele>30</ele>
        <time>2018-04-11T12:28:48Z</time>
      </trkpt>
      <trkpt lat="48.65653" lon="-2.29693">
        <ele>30</ele>
        <time>2018-04-11T12:28:56Z</time>
      </trkpt>
      <trkpt lat="48.6566" lon="-2.29684">
        <ele>30</ele>
        <time>2018-04-11T12:29:03Z</time>
      </trkpt>
      <trkpt lat="48.65667" lon="-2.29676">
        <ele>36</ele>
        <time>2018-04-11T12:29:16Z</time>
      </trkpt>
      <trkpt lat="48.65674" lon="-2.29667">
        <ele>35</ele>
        <time>2018-04-11T12:29:26Z</time>
      </trkpt>
      <trkpt lat="48.65683" lon="-2.29661">
        <ele>30</ele>
        <time>2018-04-11T12:29:34Z</time>
      </trkpt>
      <trkpt lat="48.65693" lon="-2.29657">
        <ele>30</ele>
        <time>2018-04-11T12:29:44Z</time>
      </trkpt>
      <trkpt lat="48.65701" lon="-2.29649">
        <ele>30</ele>
        <time>2018-04-11T12:29:53Z</time>
      </trkpt>
      <trkpt lat="48.65713" lon="-2.29645">
        <ele>30</ele>
        <time>2018-04-11T12:30:08Z</time>
      </trkpt>
      <trkpt lat="48.65721" lon="-2.29639">
        <ele>31</ele>
        <time>2018-04-11T12:30:16Z</time>
      </trkpt>
      <trkpt lat="48.65729" lon="-2.2963">
        <ele>30</ele>
        <time>2018-04-11T12:30:24Z</time>
      </trkpt>
      <trkpt lat="48.65736" lon="-2.2962">
        <ele>29</ele>
        <time>2018-04-11T12:30:32Z</time>
      </trkpt>
      <trkpt lat="48.65743" lon="-2.29609">
        <ele>27</ele>
        <time>2018-04-11T12:30:40Z</time>
      </trkpt>
      <trkpt lat="48.65752" lon="-2.29604">
        <ele>34</ele>
        <time>2018-04-11T12:30:50Z</time>
      </trkpt>
      <trkpt lat="48.65759" lon="-2.29595">
        <ele>32</ele>
        <time>2018-04-11T12:31:00Z</time>
      </trkpt>
      <trkpt lat="48.65768" lon="-2.29588">
        <ele>33</ele>
        <time>2018-04-11T12:31:09Z</time>
      </trkpt>
      <trkpt lat="48.65777" lon="-2.29581">
        <ele>26</ele>
        <time>2018-04-11T12:31:18Z</time>
      </trkpt>
      <trkpt lat="48.65785" lon="-2.29572">
        <ele>26</ele>
        <time>2018-04-11T12:31:28Z</time>
      </trkpt>
      <trkpt lat="48.65791" lon="-2.29563">
        <ele>26</ele>
        <time>2018-04-11T12:31:37Z</time>
      </trkpt>
      <trkpt lat="48.65798" lon="-2.29553">
        <ele>26</ele>
        <time>2018-04-11T12:31:45Z</time>
      </trkpt>
      <trkpt lat="48.65803" lon="-2.29542">
        <ele>25</ele>
        <time>2018-04-11T12:31:54Z</time>
      </trkpt>
      <trkpt lat="48.65808" lon="-2.29525">
        <ele>24</ele>
        <time>2018-04-11T12:32:10Z</time>
      </trkpt>
      <trkpt lat="48.65808" lon="-2.29512">
        <ele>24</ele>
        <time>2018-04-11T12:32:25Z</time>
      </trkpt>
      <trkpt lat="48.65812" lon="-2.29499">
        <ele>19</ele>
        <time>2018-04-11T12:32:41Z</time>
      </trkpt>
      <trkpt lat="48.65811" lon="-2.29485">
        <ele>18</ele>
        <time>2018-04-11T12:32:54Z</time>
      </trkpt>
      <trkpt lat="48.65811" lon="-2.29471">
        <ele>17</ele>
        <time>2018-04-11T12:33:03Z</time>
      </trkpt>
      <trkpt lat="48.65816" lon="-2.29459">
        <ele>17</ele>
        <time>2018-04-11T12:33:20Z</time>
      </trkpt>
      <trkpt lat="48.65826" lon="-2.29436">
        <ele>15</ele>
        <time>2018-04-11T12:33:35Z</time>
      </trkpt>
      <trkpt lat="48.65834" lon="-2.29425">
        <ele>17</ele>
        <time>2018-04-11T12:33:51Z</time>
      </trkpt>
      <trkpt lat="48.65843" lon="-2.29424">
        <ele>18</ele>
        <time>2018-04-11T12:34:10Z</time>
      </trkpt>
      <trkpt lat="48.65852" lon="-2.29424">
        <ele>20</ele>
        <time>2018-04-11T12:34:21Z</time>
      </trkpt>
      <trkpt lat="48.65861" lon="-2.2943">
        <ele>22</ele>
        <time>2018-04-11T12:34:32Z</time>
      </trkpt>
      <trkpt lat="48.65869" lon="-2.29438">
        <ele>23</ele>
        <time>2018-04-11T12:34:43Z</time>
      </trkpt>
      <trkpt lat="48.65912" lon="-2.29483">
        <ele>33</ele>
        <time>2018-04-11T12:36:00Z</time>
      </trkpt>
      <trkpt lat="48.6592" lon="-2.29487">
        <ele>37</ele>
        <time>2018-04-11T12:36:12Z</time>
      </trkpt>
      <trkpt lat="48.6593" lon="-2.29489">
        <ele>37</ele>
        <time>2018-04-11T12:36:26Z</time>
      </trkpt>
      <trkpt lat="48.6594" lon="-2.2949">
        <ele>36</ele>
        <time>2018-04-11T12:36:39Z</time>
      </trkpt>
      <trkpt lat="48.65949" lon="-2.29493">
        <ele>36</ele>
        <time>2018-04-11T12:36:50Z</time>
      </trkpt>
      <trkpt lat="48.65957" lon="-2.29499">
        <ele>37</ele>
        <time>2018-04-11T12:37:00Z</time>
      </trkpt>
      <trkpt lat="48.65966" lon="-2.29502">
        <ele>46</ele>
        <time>2018-04-11T12:37:11Z</time>
      </trkpt>
      <trkpt lat="48.65985" lon="-2.29508">
        <ele>47</ele>
        <time>2018-04-11T12:37:30Z</time>
      </trkpt>
      <trkpt lat="48.65994" lon="-2.29506">
        <ele>47</ele>
        <time>2018-04-11T12:37:42Z</time>
      </trkpt>
      <trkpt lat="48.66003" lon="-2.29503">
        <ele>48</ele>
        <time>2018-04-11T12:37:52Z</time>
      </trkpt>
      <trkpt lat="48.66012" lon="-2.29498">
        <ele>46</ele>
        <time>2018-04-11T12:38:08Z</time>
      </trkpt>
      <trkpt lat="48.66018" lon="-2.29488">
        <ele>45</ele>
        <time>2018-04-11T12:38:22Z</time>
      </trkpt>
      <trkpt lat="48.66025" lon="-2.29477">
        <ele>44</ele>
        <time>2018-04-11T12:38:35Z</time>
      </trkpt>
      <trkpt lat="48.66031" lon="-2.29465">
        <ele>43</ele>
        <time>2018-04-11T12:38:44Z</time>
      </trkpt>
      <trkpt lat="48.66038" lon="-2.29454">
        <ele>42</ele>
        <time>2018-04-11T12:38:52Z</time>
      </trkpt>
      <trkpt lat="48.66045" lon="-2.29443">
        <ele>41</ele>
        <time>2018-04-11T12:39:00Z</time>
      </trkpt>
      <trkpt lat="48.66052" lon="-2.29434">
        <ele>41</ele>
        <time>2018-04-11T12:39:09Z</time>
      </trkpt>
      <trkpt lat="48.66059" lon="-2.29425">
        <ele>41</ele>
        <time>2018-04-11T12:39:17Z</time>
      </trkpt>
      <trkpt lat="48.66067" lon="-2.29417">
        <ele>42</ele>
        <time>2018-04-11T12:39:26Z</time>
      </trkpt>
      <trkpt lat="48.66075" lon="-2.29409">
        <ele>37</ele>
        <time>2018-04-11T12:39:44Z</time>
      </trkpt>
      <trkpt lat="48.66082" lon="-2.294">
        <ele>35</ele>
        <time>2018-04-11T12:39:52Z</time>
      </trkpt>
      <trkpt lat="48.66089" lon="-2.29388">
        <ele>40</ele>
        <time>2018-04-11T12:40:00Z</time>
      </trkpt>
      <trkpt lat="48.66096" lon="-2.29379">
        <ele>39</ele>
        <time>2018-04-11T12:40:08Z</time>
      </trkpt>
      <trkpt lat="48.66105" lon="-2.29372">
        <ele>39</ele>
        <time>2018-04-11T12:40:22Z</time>
      </trkpt>
      <trkpt lat="48.66121" lon="-2.29359">
        <ele>39</ele>
        <time>2018-04-11T12:40:45Z</time>
      </trkpt>
      <trkpt lat="48.66138" lon="-2.29341">
        <ele>41</ele>
        <time>2018-04-11T12:41:06Z</time>
      </trkpt>
      <trkpt lat="48.66144" lon="-2.29332">
        <ele>34</ele>
        <time>2018-04-11T12:41:19Z</time>
      </trkpt>
      <trkpt lat="48.66149" lon="-2.29319">
        <ele>34</ele>
        <time>2018-04-11T12:41:29Z</time>
      </trkpt>
      <trkpt lat="48.66151" lon="-2.29305">
        <ele>32</ele>
        <time>2018-04-11T12:41:43Z</time>
      </trkpt>
      <trkpt lat="48.66155" lon="-2.29278">
        <ele>30</ele>
        <time>2018-04-11T12:42:09Z</time>
      </trkpt>
      <trkpt lat="48.66154" lon="-2.29259">
        <ele>31</ele>
        <time>2018-04-11T12:42:36Z</time>
      </trkpt>
      <trkpt lat="48.66151" lon="-2.29246">
        <ele>25</ele>
        <time>2018-04-11T12:42:51Z</time>
      </trkpt>
      <trkpt lat="48.6615" lon="-2.29228">
        <ele>22</ele>
        <time>2018-04-11T12:43:12Z</time>
      </trkpt>
      <trkpt lat="48.66156" lon="-2.29217">
        <ele>21</ele>
        <time>2018-04-11T12:43:24Z</time>
      </trkpt>
      <trkpt lat="48.66162" lon="-2.29207">
        <ele>20</ele>
        <time>2018-04-11T12:43:31Z</time>
      </trkpt>
      <trkpt lat="48.66167" lon="-2.29195">
        <ele>33</ele>
        <time>2018-04-11T12:43:41Z</time>
      </trkpt>
      <trkpt lat="48.6617" lon="-2.29181">
        <ele>28</ele>
        <time>2018-04-11T12:43:57Z</time>
      </trkpt>
      <trkpt lat="48.66176" lon="-2.29171">
        <ele>26</ele>
        <time>2018-04-11T12:44:04Z</time>
      </trkpt>
      <trkpt lat="48.66185" lon="-2.29163">
        <ele>24</ele>
        <time>2018-04-11T12:44:11Z</time>
      </trkpt>
      <trkpt lat="48.66192" lon="-2.29153">
        <ele>26</ele>
        <time>2018-04-11T12:44:17Z</time>
      </trkpt>
      <trkpt lat="48.662" lon="-2.29143">
        <ele>27</ele>
        <time>2018-04-11T12:44:23Z</time>
      </trkpt>
      <trkpt lat="48.66206" lon="-2.29132">
        <ele>27</ele>
        <time>2018-04-11T12:44:29Z</time>
      </trkpt>
      <trkpt lat="48.66212" lon="-2.29121">
        <ele>27</ele>
        <time>2018-04-11T12:44:36Z</time>
      </trkpt>
      <trkpt lat="48.66218" lon="-2.29111">
        <ele>27</ele>
        <time>2018-04-11T12:45:05Z</time>
      </trkpt>
      <trkpt lat="48.66223" lon="-2.291">
        <ele>27</ele>
        <time>2018-04-11T12:45:12Z</time>
      </trkpt>
      <trkpt lat="48.66234" lon="-2.29077">
        <ele>24</ele>
        <time>2018-04-11T12:46:06Z</time>
      </trkpt>
      <trkpt lat="48.66242" lon="-2.2907">
        <ele>25</ele>
        <time>2018-04-11T12:46:16Z</time>
      </trkpt>
      <trkpt lat="48.66249" lon="-2.2906">
        <ele>22</ele>
        <time>2018-04-11T12:46:26Z</time>
      </trkpt>
      <trkpt lat="48.66257" lon="-2.29052">
        <ele>33</ele>
        <time>2018-04-11T12:46:35Z</time>
      </trkpt>
      <trkpt lat="48.66272" lon="-2.29036">
        <ele>32</ele>
        <time>2018-04-11T12:46:55Z</time>
      </trkpt>
      <trkpt lat="48.66276" lon="-2.29023">
        <ele>31</ele>
        <time>2018-04-11T12:47:08Z</time>
      </trkpt>
      <trkpt lat="48.66283" lon="-2.29012">
        <ele>31</ele>
        <time>2018-04-11T12:47:18Z</time>
      </trkpt>
      <trkpt lat="48.66296" lon="-2.28992">
        <ele>25</ele>
        <time>2018-04-11T12:47:43Z</time>
      </trkpt>
      <trkpt lat="48.66296" lon="-2.28978">
        <ele>25</ele>
        <time>2018-04-11T12:47:56Z</time>
      </trkpt>
      <trkpt lat="48.66301" lon="-2.28959">
        <ele>24</ele>
        <time>2018-04-11T12:48:23Z</time>
      </trkpt>
      <trkpt lat="48.66306" lon="-2.28947">
        <ele>24</ele>
        <time>2018-04-11T12:48:38Z</time>
      </trkpt>
      <trkpt lat="48.66309" lon="-2.28934">
        <ele>24</ele>
        <time>2018-04-11T12:48:58Z</time>
      </trkpt>
      <trkpt lat="48.66308" lon="-2.28921">
        <ele>24</ele>
        <time>2018-04-11T12:49:42Z</time>
      </trkpt>
      <trkpt lat="48.6631" lon="-2.28902">
        <ele>21</ele>
        <time>2018-04-11T12:49:47Z</time>
      </trkpt>
      <trkpt lat="48.66307" lon="-2.28889">
        <ele>19</ele>
        <time>2018-04-11T12:50:09Z</time>
      </trkpt>
      <trkpt lat="48.66306" lon="-2.28871">
        <ele>18</ele>
        <time>2018-04-11T12:50:28Z</time>
      </trkpt>
      <trkpt lat="48.66306" lon="-2.28856">
        <ele>19</ele>
        <time>2018-04-11T12:50:37Z</time>
      </trkpt>
      <trkpt lat="48.66302" lon="-2.28843">
        <ele>18</ele>
        <time>2018-04-11T12:50:44Z</time>
      </trkpt>
      <trkpt lat="48.663" lon="-2.28829">
        <ele>16</ele>
        <time>2018-04-11T12:50:53Z</time>
      </trkpt>
      <trkpt lat="48.663" lon="-2.28815">
        <ele>16</ele>
        <time>2018-04-11T12:51:00Z</time>
      </trkpt>
      <trkpt lat="48.66301" lon="-2.28799">
        <ele>15</ele>
        <time>2018-04-11T12:51:07Z</time>
      </trkpt>
      <trkpt lat="48.66304" lon="-2.28785">
        <ele>15</ele>
        <time>2018-04-11T12:51:14Z</time>
      </trkpt>
      <trkpt lat="48.66307" lon="-2.28771">
        <ele>16</ele>
        <time>2018-04-11T12:51:21Z</time>
      </trkpt>
      <trkpt lat="48.6631" lon="-2.28757">
        <ele>17</ele>
        <time>2018-04-11T12:51:28Z</time>
      </trkpt>
      <trkpt lat="48.66315" lon="-2.28744">
        <ele>15</ele>
        <time>2018-04-11T12:51:35Z</time>
      </trkpt>
      <trkpt lat="48.6632" lon="-2.28732">
        <ele>14</ele>
        <time>2018-04-11T12:51:42Z</time>
      </trkpt>
      <trkpt lat="48.66326" lon="-2.28721">
        <ele>13</ele>
        <time>2018-04-11T12:51:50Z</time>
      </trkpt>
      <trkpt lat="48.66333" lon="-2.2871">
        <ele>12</ele>
        <time>2018-04-11T12:51:57Z</time>
      </trkpt>
      <trkpt lat="48.66341" lon="-2.287">
        <ele>22</ele>
        <time>2018-04-11T12:52:05Z</time>
      </trkpt>
      <trkpt lat="48.66357" lon="-2.28686">
        <ele>22</ele>
        <time>2018-04-11T12:52:22Z</time>
      </trkpt>
      <trkpt lat="48.66365" lon="-2.28678">
        <ele>23</ele>
        <time>2018-04-11T12:52:31Z</time>
      </trkpt>
      <trkpt lat="48.66374" lon="-2.28674">
        <ele>25</ele>
        <time>2018-04-11T12:52:42Z</time>
      </trkpt>
      <trkpt lat="48.66382" lon="-2.28666">
        <ele>17</ele>
        <time>2018-04-11T12:52:51Z</time>
      </trkpt>
      <trkpt lat="48.66392" lon="-2.2866">
        <ele>19</ele>
        <time>2018-04-11T12:52:59Z</time>
      </trkpt>
      <trkpt lat="48.6641" lon="-2.28647">
        <ele>20</ele>
        <time>2018-04-11T12:53:16Z</time>
      </trkpt>
      <trkpt lat="48.66437" lon="-2.28632">
        <ele>21</ele>
        <time>2018-04-11T12:53:41Z</time>
      </trkpt>
      <trkpt lat="48.66446" lon="-2.28628">
        <ele>21</ele>
        <time>2018-04-11T12:53:49Z</time>
      </trkpt>
      <trkpt lat="48.66454" lon="-2.28619">
        <ele>20</ele>
        <time>2018-04-11T12:53:59Z</time>
      </trkpt>
      <trkpt lat="48.66462" lon="-2.28612">
        <ele>19</ele>
        <time>2018-04-11T12:54:07Z</time>
      </trkpt>
      <trkpt lat="48.66469" lon="-2.28601">
        <ele>17</ele>
        <time>2018-04-11T12:54:16Z</time>
      </trkpt>
      <trkpt lat="48.66476" lon="-2.2859">
        <ele>16</ele>
        <time>2018-04-11T12:54:23Z</time>
      </trkpt>
      <trkpt lat="48.66484" lon="-2.28583">
        <ele>10</ele>
        <time>2018-04-11T12:54:30Z</time>
      </trkpt>
      <trkpt lat="48.66494" lon="-2.28582">
        <ele>11</ele>
        <time>2018-04-11T12:54:39Z</time>
      </trkpt>
      <trkpt lat="48.66504" lon="-2.28579">
        <ele>10</ele>
        <time>2018-04-11T12:55:17Z</time>
      </trkpt>
      <trkpt lat="48.66512" lon="-2.28586">
        <ele>13</ele>
        <time>2018-04-11T12:55:27Z</time>
      </trkpt>
      <trkpt lat="48.66512" lon="-2.286">
        <ele>15</ele>
        <time>2018-04-11T12:55:39Z</time>
      </trkpt>
      <trkpt lat="48.6651" lon="-2.28614">
        <ele>17</ele>
        <time>2018-04-11T12:55:52Z</time>
      </trkpt>
      <trkpt lat="48.66516" lon="-2.28632">
        <ele>20</ele>
        <time>2018-04-11T12:56:17Z</time>
      </trkpt>
      <trkpt lat="48.66523" lon="-2.28642">
        <ele>21</ele>
        <time>2018-04-11T12:56:28Z</time>
      </trkpt>
      <trkpt lat="48.66532" lon="-2.28649">
        <ele>21</ele>
        <time>2018-04-11T12:56:44Z</time>
      </trkpt>
      <trkpt lat="48.66541" lon="-2.28653">
        <ele>21</ele>
        <time>2018-04-11T12:56:58Z</time>
      </trkpt>
      <trkpt lat="48.6655" lon="-2.28654">
        <ele>20</ele>
        <time>2018-04-11T12:57:07Z</time>
      </trkpt>
      <trkpt lat="48.66559" lon="-2.28656">
        <ele>20</ele>
        <time>2018-04-11T12:57:15Z</time>
      </trkpt>
      <trkpt lat="48.66572" lon="-2.28664">
        <ele>21</ele>
        <time>2018-04-11T12:57:46Z</time>
      </trkpt>
      <trkpt lat="48.66579" lon="-2.28672">
        <ele>25</ele>
        <time>2018-04-11T12:57:54Z</time>
      </trkpt>
      <trkpt lat="48.66595" lon="-2.28688">
        <ele>26</ele>
        <time>2018-04-11T12:58:09Z</time>
      </trkpt>
      <trkpt lat="48.66604" lon="-2.2869">
        <ele>27</ele>
        <time>2018-04-11T12:58:17Z</time>
      </trkpt>
      <trkpt lat="48.66614" lon="-2.28686">
        <ele>26</ele>
        <time>2018-04-11T12:58:28Z</time>
      </trkpt>
      <trkpt lat="48.66622" lon="-2.28679">
        <ele>26</ele>
        <time>2018-04-11T12:58:38Z</time>
      </trkpt>
      <trkpt lat="48.6663" lon="-2.2867">
        <ele>25</ele>
        <time>2018-04-11T12:59:30Z</time>
      </trkpt>
      <trkpt lat="48.66638" lon="-2.28677">
        <ele>24</ele>
        <time>2018-04-11T12:59:45Z</time>
      </trkpt>
      <trkpt lat="48.66646" lon="-2.28685">
        <ele>24</ele>
        <time>2018-04-11T12:59:57Z</time>
      </trkpt>
      <trkpt lat="48.66654" lon="-2.28691">
        <ele>25</ele>
        <time>2018-04-11T13:00:07Z</time>
      </trkpt>
      <trkpt lat="48.66663" lon="-2.28695">
        <ele>25</ele>
        <time>2018-04-11T13:00:17Z</time>
      </trkpt>
      <trkpt lat="48.66673" lon="-2.28702">
        <ele>22</ele>
        <time>2018-04-11T13:00:25Z</time>
      </trkpt>
      <trkpt lat="48.6668" lon="-2.28713">
        <ele>24</ele>
        <time>2018-04-11T13:00:32Z</time>
      </trkpt>
      <trkpt lat="48.66693" lon="-2.28734">
        <ele>25</ele>
        <time>2018-04-11T13:00:53Z</time>
      </trkpt>
      <trkpt lat="48.66694" lon="-2.28749">
        <ele>26</ele>
        <time>2018-04-11T13:01:09Z</time>
      </trkpt>
      <trkpt lat="48.66696" lon="-2.28763">
        <ele>29</ele>
        <time>2018-04-11T13:01:20Z</time>
      </trkpt>
      <trkpt lat="48.66697" lon="-2.28778">
        <ele>29</ele>
        <time>2018-04-11T13:01:34Z</time>
      </trkpt>
      <trkpt lat="48.66704" lon="-2.28789">
        <ele>28</ele>
        <time>2018-04-11T13:01:42Z</time>
      </trkpt>
      <trkpt lat="48.6671" lon="-2.28799">
        <ele>27</ele>
        <time>2018-04-11T13:01:50Z</time>
      </trkpt>
      <trkpt lat="48.66714" lon="-2.28812">
        <ele>26</ele>
        <time>2018-04-11T13:02:00Z</time>
      </trkpt>
      <trkpt lat="48.6671" lon="-2.28825">
        <ele>27</ele>
        <time>2018-04-11T13:02:10Z</time>
      </trkpt>
      <trkpt lat="48.66695" lon="-2.28863">
        <ele>31</ele>
        <time>2018-04-11T13:02:39Z</time>
      </trkpt>
      <trkpt lat="48.66693" lon="-2.28877">
        <ele>32</ele>
        <time>2018-04-11T13:02:47Z</time>
      </trkpt>
      <trkpt lat="48.6669" lon="-2.28891">
        <ele>33</ele>
        <time>2018-04-11T13:02:58Z</time>
      </trkpt>
      <trkpt lat="48.6669" lon="-2.28906">
        <ele>34</ele>
        <time>2018-04-11T13:03:11Z</time>
      </trkpt>
      <trkpt lat="48.66691" lon="-2.2892">
        <ele>38</ele>
        <time>2018-04-11T13:03:19Z</time>
      </trkpt>
      <trkpt lat="48.66692" lon="-2.28933">
        <ele>37</ele>
        <time>2018-04-11T13:03:30Z</time>
      </trkpt>
      <trkpt lat="48.66694" lon="-2.28947">
        <ele>37</ele>
        <time>2018-04-11T13:03:38Z</time>
      </trkpt>
      <trkpt lat="48.66696" lon="-2.28974">
        <ele>38</ele>
        <time>2018-04-11T13:04:09Z</time>
      </trkpt>
      <trkpt lat="48.66702" lon="-2.28986">
        <ele>37</ele>
        <time>2018-04-11T13:04:18Z</time>
      </trkpt>
      <trkpt lat="48.66708" lon="-2.28997">
        <ele>36</ele>
        <time>2018-04-11T13:04:27Z</time>
      </trkpt>
      <trkpt lat="48.66716" lon="-2.29007">
        <ele>37</ele>
        <time>2018-04-11T13:05:21Z</time>
      </trkpt>
      <trkpt lat="48.66714" lon="-2.29022">
        <ele>38</ele>
        <time>2018-04-11T13:05:31Z</time>
      </trkpt>
      <trkpt lat="48.66708" lon="-2.29033">
        <ele>40</ele>
        <time>2018-04-11T13:05:40Z</time>
      </trkpt>
      <trkpt lat="48.66706" lon="-2.29047">
        <ele>40</ele>
        <time>2018-04-11T13:05:58Z</time>
      </trkpt>
      <trkpt lat="48.66707" lon="-2.29061">
        <ele>40</ele>
        <time>2018-04-11T13:06:13Z</time>
      </trkpt>
      <trkpt lat="48.66711" lon="-2.2909">
        <ele>42</ele>
        <time>2018-04-11T13:06:31Z</time>
      </trkpt>
      <trkpt lat="48.66709" lon="-2.29104">
        <ele>42</ele>
        <time>2018-04-11T13:06:41Z</time>
      </trkpt>
      <trkpt lat="48.66703" lon="-2.29115">
        <ele>44</ele>
        <time>2018-04-11T13:06:50Z</time>
      </trkpt>
      <trkpt lat="48.66696" lon="-2.29126">
        <ele>45</ele>
        <time>2018-04-11T13:06:59Z</time>
      </trkpt>
      <trkpt lat="48.66695" lon="-2.2914">
        <ele>45</ele>
        <time>2018-04-11T13:07:08Z</time>
      </trkpt>
      <trkpt lat="48.66695" lon="-2.29155">
        <ele>46</ele>
        <time>2018-04-11T13:07:18Z</time>
      </trkpt>
      <trkpt lat="48.66699" lon="-2.29167">
        <ele>47</ele>
        <time>2018-04-11T13:07:27Z</time>
      </trkpt>
      <trkpt lat="48.66705" lon="-2.29178">
        <ele>46</ele>
        <time>2018-04-11T13:07:38Z</time>
      </trkpt>
      <trkpt lat="48.66709" lon="-2.29191">
        <ele>46</ele>
        <time>2018-04-11T13:07:47Z</time>
      </trkpt>
      <trkpt lat="48.66717" lon="-2.292">
        <ele>45</ele>
        <time>2018-04-11T13:07:56Z</time>
      </trkpt>
      <trkpt lat="48.66722" lon="-2.29211">
        <ele>44</ele>
        <time>2018-04-11T13:08:04Z</time>
      </trkpt>
      <trkpt lat="48.66728" lon="-2.29221">
        <ele>44</ele>
        <time>2018-04-11T13:08:11Z</time>
      </trkpt>
      <trkpt lat="48.66732" lon="-2.29234">
        <ele>43</ele>
        <time>2018-04-11T13:08:19Z</time>
      </trkpt>
      <trkpt lat="48.66736" lon="-2.29248">
        <ele>42</ele>
        <time>2018-04-11T13:08:28Z</time>
      </trkpt>
      <trkpt lat="48.66741" lon="-2.2926">
        <ele>43</ele>
        <time>2018-04-11T13:08:36Z</time>
      </trkpt>
      <trkpt lat="48.66747" lon="-2.29272">
        <ele>44</ele>
        <time>2018-04-11T13:08:44Z</time>
      </trkpt>
      <trkpt lat="48.6675" lon="-2.29284">
        <ele>40</ele>
        <time>2018-04-11T13:08:52Z</time>
      </trkpt>
      <trkpt lat="48.6675" lon="-2.29299">
        <ele>45</ele>
        <time>2018-04-11T13:09:03Z</time>
      </trkpt>
      <trkpt lat="48.66753" lon="-2.29313">
        <ele>41</ele>
        <time>2018-04-11T13:09:12Z</time>
      </trkpt>
      <trkpt lat="48.66756" lon="-2.29328">
        <ele>41</ele>
        <time>2018-04-11T13:09:21Z</time>
      </trkpt>
      <trkpt lat="48.66757" lon="-2.29343">
        <ele>41</ele>
        <time>2018-04-11T13:09:30Z</time>
      </trkpt>
      <trkpt lat="48.66759" lon="-2.29356">
        <ele>42</ele>
        <time>2018-04-11T13:09:48Z</time>
      </trkpt>
      <trkpt lat="48.66758" lon="-2.2937">
        <ele>42</ele>
        <time>2018-04-11T13:09:55Z</time>
      </trkpt>
      <trkpt lat="48.6676" lon="-2.29384">
        <ele>43</ele>
        <time>2018-04-11T13:10:04Z</time>
      </trkpt>
      <trkpt lat="48.6676" lon="-2.29397">
        <ele>43</ele>
        <time>2018-04-11T13:10:12Z</time>
      </trkpt>
      <trkpt lat="48.66757" lon="-2.29412">
        <ele>44</ele>
        <time>2018-04-11T13:10:22Z</time>
      </trkpt>
      <trkpt lat="48.66757" lon="-2.29426">
        <ele>41</ele>
        <time>2018-04-11T13:10:31Z</time>
      </trkpt>
      <trkpt lat="48.66755" lon="-2.2944">
        <ele>39</ele>
        <time>2018-04-11T13:10:42Z</time>
      </trkpt>
      <trkpt lat="48.66751" lon="-2.29454">
        <ele>38</ele>
        <time>2018-04-11T13:10:52Z</time>
      </trkpt>
      <trkpt lat="48.66751" lon="-2.29469">
        <ele>38</ele>
        <time>2018-04-11T13:10:59Z</time>
      </trkpt>
      <trkpt lat="48.66749" lon="-2.29484">
        <ele>47</ele>
        <time>2018-04-11T13:11:08Z</time>
      </trkpt>
      <trkpt lat="48.6675" lon="-2.29498">
        <ele>45</ele>
        <time>2018-04-11T13:11:17Z</time>
      </trkpt>
      <trkpt lat="48.66746" lon="-2.2951">
        <ele>47</ele>
        <time>2018-04-11T13:11:24Z</time>
      </trkpt>
      <trkpt lat="48.66743" lon="-2.29524">
        <ele>48</ele>
        <time>2018-04-11T13:11:36Z</time>
      </trkpt>
      <trkpt lat="48.66739" lon="-2.29552">
        <ele>47</ele>
        <time>2018-04-11T13:11:52Z</time>
      </trkpt>
      <trkpt lat="48.66732" lon="-2.29561">
        <ele>47</ele>
        <time>2018-04-11T13:12:00Z</time>
      </trkpt>
      <trkpt lat="48.66728" lon="-2.29574">
        <ele>47</ele>
        <time>2018-04-11T13:12:07Z</time>
      </trkpt>
      <trkpt lat="48.66726" lon="-2.29589">
        <ele>46</ele>
        <time>2018-04-11T13:12:15Z</time>
      </trkpt>
      <trkpt lat="48.66726" lon="-2.29603">
        <ele>46</ele>
        <time>2018-04-11T13:12:25Z</time>
      </trkpt>
      <trkpt lat="48.66725" lon="-2.29617">
        <ele>46</ele>
        <time>2018-04-11T13:12:34Z</time>
      </trkpt>
      <trkpt lat="48.66724" lon="-2.29631">
        <ele>45</ele>
        <time>2018-04-11T13:12:42Z</time>
      </trkpt>
      <trkpt lat="48.66721" lon="-2.29675">
        <ele>42</ele>
        <time>2018-04-11T13:13:07Z</time>
      </trkpt>
      <trkpt lat="48.66716" lon="-2.29687">
        <ele>44</ele>
        <time>2018-04-11T13:13:16Z</time>
      </trkpt>
      <trkpt lat="48.66712" lon="-2.29699">
        <ele>45</ele>
        <time>2018-04-11T13:13:25Z</time>
      </trkpt>
      <trkpt lat="48.66705" lon="-2.29709">
        <ele>46</ele>
        <time>2018-04-11T13:13:36Z</time>
      </trkpt>
      <trkpt lat="48.66698" lon="-2.29719">
        <ele>47</ele>
        <time>2018-04-11T13:13:47Z</time>
      </trkpt>
      <trkpt lat="48.66696" lon="-2.29733">
        <ele>48</ele>
        <time>2018-04-11T13:13:55Z</time>
      </trkpt>
      <trkpt lat="48.66691" lon="-2.29745">
        <ele>50</ele>
        <time>2018-04-11T13:14:14Z</time>
      </trkpt>
      <trkpt lat="48.66688" lon="-2.29758">
        <ele>51</ele>
        <time>2018-04-11T13:14:25Z</time>
      </trkpt>
      <trkpt lat="48.66687" lon="-2.29772">
        <ele>50</ele>
        <time>2018-04-11T13:14:32Z</time>
      </trkpt>
      <trkpt lat="48.66687" lon="-2.29786">
        <ele>49</ele>
        <time>2018-04-11T13:14:40Z</time>
      </trkpt>
      <trkpt lat="48.66689" lon="-2.298">
        <ele>49</ele>
        <time>2018-04-11T13:14:47Z</time>
      </trkpt>
      <trkpt lat="48.66692" lon="-2.29814">
        <ele>49</ele>
        <time>2018-04-11T13:14:55Z</time>
      </trkpt>
      <trkpt lat="48.66692" lon="-2.29828">
        <ele>51</ele>
        <time>2018-04-11T13:15:03Z</time>
      </trkpt>
      <trkpt lat="48.6669" lon="-2.29843">
        <ele>53</ele>
        <time>2018-04-11T13:15:13Z</time>
      </trkpt>
      <trkpt lat="48.66689" lon="-2.29857">
        <ele>52</ele>
        <time>2018-04-11T13:15:25Z</time>
      </trkpt>
      <trkpt lat="48.6669" lon="-2.29871">
        <ele>52</ele>
        <time>2018-04-11T13:15:35Z</time>
      </trkpt>
      <trkpt lat="48.66691" lon="-2.29886">
        <ele>53</ele>
        <time>2018-04-11T13:15:44Z</time>
      </trkpt>
      <trkpt lat="48.66694" lon="-2.29899">
        <ele>53</ele>
        <time>2018-04-11T13:15:52Z</time>
      </trkpt>
      <trkpt lat="48.66698" lon="-2.29912">
        <ele>53</ele>
        <time>2018-04-11T13:16:01Z</time>
      </trkpt>
      <trkpt lat="48.66703" lon="-2.29925">
        <ele>54</ele>
        <time>2018-04-11T13:16:09Z</time>
      </trkpt>
      <trkpt lat="48.66705" lon="-2.29939">
        <ele>54</ele>
        <time>2018-04-11T13:16:17Z</time>
      </trkpt>
      <trkpt lat="48.66706" lon="-2.29953">
        <ele>54</ele>
        <time>2018-04-11T13:16:24Z</time>
      </trkpt>
      <trkpt lat="48.66713" lon="-2.30024">
        <ele>55</ele>
        <time>2018-04-11T13:17:03Z</time>
      </trkpt>
      <trkpt lat="48.66713" lon="-2.30052">
        <ele>55</ele>
        <time>2018-04-11T13:17:19Z</time>
      </trkpt>
      <trkpt lat="48.66715" lon="-2.30066">
        <ele>54</ele>
        <time>2018-04-11T13:17:26Z</time>
      </trkpt>
      <trkpt lat="48.66718" lon="-2.30081">
        <ele>53</ele>
        <time>2018-04-11T13:17:37Z</time>
      </trkpt>
      <trkpt lat="48.66724" lon="-2.30092">
        <ele>52</ele>
        <time>2018-04-11T13:17:46Z</time>
      </trkpt>
      <trkpt lat="48.66724" lon="-2.30107">
        <ele>53</ele>
        <time>2018-04-11T13:17:57Z</time>
      </trkpt>
      <trkpt lat="48.66726" lon="-2.30122">
        <ele>54</ele>
        <time>2018-04-11T13:18:06Z</time>
      </trkpt>
      <trkpt lat="48.66727" lon="-2.30137">
        <ele>54</ele>
        <time>2018-04-11T13:18:16Z</time>
      </trkpt>
      <trkpt lat="48.66728" lon="-2.30151">
        <ele>53</ele>
        <time>2018-04-11T13:18:27Z</time>
      </trkpt>
      <trkpt lat="48.66729" lon="-2.30165">
        <ele>52</ele>
        <time>2018-04-11T13:18:37Z</time>
      </trkpt>
      <trkpt lat="48.66725" lon="-2.30184">
        <ele>56</ele>
        <time>2018-04-11T13:19:02Z</time>
      </trkpt>
      <trkpt lat="48.66725" lon="-2.30198">
        <ele>57</ele>
        <time>2018-04-11T13:19:12Z</time>
      </trkpt>
      <trkpt lat="48.66725" lon="-2.30212">
        <ele>57</ele>
        <time>2018-04-11T13:19:21Z</time>
      </trkpt>
      <trkpt lat="48.66724" lon="-2.30226">
        <ele>57</ele>
        <time>2018-04-11T13:19:31Z</time>
      </trkpt>
      <trkpt lat="48.6672" lon="-2.30268">
        <ele>62</ele>
        <time>2018-04-11T13:20:05Z</time>
      </trkpt>
      <trkpt lat="48.66722" lon="-2.30283">
        <ele>63</ele>
        <time>2018-04-11T13:20:16Z</time>
      </trkpt>
      <trkpt lat="48.66726" lon="-2.30295">
        <ele>64</ele>
        <time>2018-04-11T13:20:26Z</time>
      </trkpt>
      <trkpt lat="48.66736" lon="-2.30328">
        <ele>64</ele>
        <time>2018-04-11T13:21:11Z</time>
      </trkpt>
      <trkpt lat="48.66743" lon="-2.30337">
        <ele>67</ele>
        <time>2018-04-11T13:21:22Z</time>
      </trkpt>
      <trkpt lat="48.6675" lon="-2.30348">
        <ele>58</ele>
        <time>2018-04-11T13:21:31Z</time>
      </trkpt>
      <trkpt lat="48.66756" lon="-2.3036">
        <ele>56</ele>
        <time>2018-04-11T13:21:39Z</time>
      </trkpt>
      <trkpt lat="48.6676" lon="-2.30372">
        <ele>56</ele>
        <time>2018-04-11T13:21:50Z</time>
      </trkpt>
      <trkpt lat="48.66764" lon="-2.30385">
        <ele>57</ele>
        <time>2018-04-11T13:21:57Z</time>
      </trkpt>
      <trkpt lat="48.66773" lon="-2.30426">
        <ele>65</ele>
        <time>2018-04-11T13:22:23Z</time>
      </trkpt>
      <trkpt lat="48.66779" lon="-2.30437">
        <ele>63</ele>
        <time>2018-04-11T13:22:31Z</time>
      </trkpt>
      <trkpt lat="48.66784" lon="-2.30449">
        <ele>61</ele>
        <time>2018-04-11T13:22:39Z</time>
      </trkpt>
      <trkpt lat="48.66791" lon="-2.30458">
        <ele>60</ele>
        <time>2018-04-11T13:22:47Z</time>
      </trkpt>
      <trkpt lat="48.66796" lon="-2.30469">
        <ele>59</ele>
        <time>2018-04-11T13:23:23Z</time>
      </trkpt>
      <trkpt lat="48.66801" lon="-2.30481">
        <ele>58</ele>
        <time>2018-04-11T13:23:35Z</time>
      </trkpt>
      <trkpt lat="48.66801" lon="-2.30496">
        <ele>58</ele>
        <time>2018-04-11T13:23:44Z</time>
      </trkpt>
      <trkpt lat="48.66803" lon="-2.30511">
        <ele>62</ele>
        <time>2018-04-11T13:23:52Z</time>
      </trkpt>
      <trkpt lat="48.66805" lon="-2.30526">
        <ele>62</ele>
        <time>2018-04-11T13:24:01Z</time>
      </trkpt>
      <trkpt lat="48.6681" lon="-2.30539">
        <ele>63</ele>
        <time>2018-04-11T13:24:09Z</time>
      </trkpt>
      <trkpt lat="48.66814" lon="-2.30552">
        <ele>63</ele>
        <time>2018-04-11T13:24:16Z</time>
      </trkpt>
      <trkpt lat="48.66816" lon="-2.30567">
        <ele>62</ele>
        <time>2018-04-11T13:24:24Z</time>
      </trkpt>
      <trkpt lat="48.66818" lon="-2.30581">
        <ele>61</ele>
        <time>2018-04-11T13:24:32Z</time>
      </trkpt>
      <trkpt lat="48.66824" lon="-2.30608">
        <ele>66</ele>
        <time>2018-04-11T13:24:48Z</time>
      </trkpt>
      <trkpt lat="48.66825" lon="-2.30622">
        <ele>67</ele>
        <time>2018-04-11T13:24:59Z</time>
      </trkpt>
      <trkpt lat="48.66831" lon="-2.30632">
        <ele>68</ele>
        <time>2018-04-11T13:25:11Z</time>
      </trkpt>
      <trkpt lat="48.66837" lon="-2.30644">
        <ele>51</ele>
        <time>2018-04-11T13:25:22Z</time>
      </trkpt>
      <trkpt lat="48.6684" lon="-2.30658">
        <ele>57</ele>
        <time>2018-04-11T13:25:31Z</time>
      </trkpt>
      <trkpt lat="48.66842" lon="-2.30673">
        <ele>61</ele>
        <time>2018-04-11T13:25:40Z</time>
      </trkpt>
      <trkpt lat="48.66843" lon="-2.30688">
        <ele>57</ele>
        <time>2018-04-11T13:25:49Z</time>
      </trkpt>
      <trkpt lat="48.66843" lon="-2.30702">
        <ele>55</ele>
        <time>2018-04-11T13:25:59Z</time>
      </trkpt>
      <trkpt lat="48.66845" lon="-2.30715">
        <ele>56</ele>
        <time>2018-04-11T13:26:07Z</time>
      </trkpt>
      <trkpt lat="48.66848" lon="-2.30728">
        <ele>57</ele>
        <time>2018-04-11T13:26:16Z</time>
      </trkpt>
      <trkpt lat="48.66852" lon="-2.30742">
        <ele>58</ele>
        <time>2018-04-11T13:26:32Z</time>
      </trkpt>
      <trkpt lat="48.66856" lon="-2.30754">
        <ele>59</ele>
        <time>2018-04-11T13:26:40Z</time>
      </trkpt>
      <trkpt lat="48.6686" lon="-2.30768">
        <ele>57</ele>
        <time>2018-04-11T13:26:48Z</time>
      </trkpt>
      <trkpt lat="48.66865" lon="-2.3078">
        <ele>56</ele>
        <time>2018-04-11T13:26:56Z</time>
      </trkpt>
      <trkpt lat="48.6687" lon="-2.30793">
        <ele>55</ele>
        <time>2018-04-11T13:27:16Z</time>
      </trkpt>
      <trkpt lat="48.66879" lon="-2.3082">
        <ele>53</ele>
        <time>2018-04-11T13:27:42Z</time>
      </trkpt>
      <trkpt lat="48.66882" lon="-2.30833">
        <ele>52</ele>
        <time>2018-04-11T13:27:50Z</time>
      </trkpt>
      <trkpt lat="48.66887" lon="-2.30847">
        <ele>54</ele>
        <time>2018-04-11T13:27:59Z</time>
      </trkpt>
      <trkpt lat="48.66889" lon="-2.30862">
        <ele>54</ele>
        <time>2018-04-11T13:28:07Z</time>
      </trkpt>
      <trkpt lat="48.66893" lon="-2.30874">
        <ele>55</ele>
        <time>2018-04-11T13:28:18Z</time>
      </trkpt>
      <trkpt lat="48.66894" lon="-2.30889">
        <ele>55</ele>
        <time>2018-04-11T13:28:26Z</time>
      </trkpt>
      <trkpt lat="48.66898" lon="-2.30901">
        <ele>55</ele>
        <time>2018-04-11T13:28:34Z</time>
      </trkpt>
      <trkpt lat="48.66905" lon="-2.30912">
        <ele>53</ele>
        <time>2018-04-11T13:28:42Z</time>
      </trkpt>
      <trkpt lat="48.66924" lon="-2.30945">
        <ele>42</ele>
        <time>2018-04-11T13:29:07Z</time>
      </trkpt>
      <trkpt lat="48.66928" lon="-2.30959">
        <ele>42</ele>
        <time>2018-04-11T13:29:14Z</time>
      </trkpt>
      <trkpt lat="48.6693" lon="-2.30972">
        <ele>44</ele>
        <time>2018-04-11T13:29:21Z</time>
      </trkpt>
      <trkpt lat="48.66934" lon="-2.30985">
        <ele>45</ele>
        <time>2018-04-11T13:29:29Z</time>
      </trkpt>
      <trkpt lat="48.6694" lon="-2.30996">
        <ele>45</ele>
        <time>2018-04-11T13:29:37Z</time>
      </trkpt>
      <trkpt lat="48.66945" lon="-2.31007">
        <ele>50</ele>
        <time>2018-04-11T13:29:44Z</time>
      </trkpt>
      <trkpt lat="48.66953" lon="-2.31018">
        <ele>48</ele>
        <time>2018-04-11T13:29:52Z</time>
      </trkpt>
      <trkpt lat="48.66958" lon="-2.31028">
        <ele>47</ele>
        <time>2018-04-11T13:29:59Z</time>
      </trkpt>
      <trkpt lat="48.66964" lon="-2.31041">
        <ele>47</ele>
        <time>2018-04-11T13:30:07Z</time>
      </trkpt>
      <trkpt lat="48.66967" lon="-2.31054">
        <ele>47</ele>
        <time>2018-04-11T13:30:15Z</time>
      </trkpt>
      <trkpt lat="48.66966" lon="-2.31069">
        <ele>48</ele>
        <time>2018-04-11T13:30:54Z</time>
      </trkpt>
      <trkpt lat="48.66965" lon="-2.31082">
        <ele>49</ele>
        <time>2018-04-11T13:31:03Z</time>
      </trkpt>
      <trkpt lat="48.66962" lon="-2.31096">
        <ele>56</ele>
        <time>2018-04-11T13:31:12Z</time>
      </trkpt>
      <trkpt lat="48.66957" lon="-2.31108">
        <ele>57</ele>
        <time>2018-04-11T13:31:22Z</time>
      </trkpt>
      <trkpt lat="48.66952" lon="-2.31122">
        <ele>58</ele>
        <time>2018-04-11T13:31:33Z</time>
      </trkpt>
      <trkpt lat="48.66946" lon="-2.31133">
        <ele>59</ele>
        <time>2018-04-11T13:31:43Z</time>
      </trkpt>
      <trkpt lat="48.66944" lon="-2.31147">
        <ele>59</ele>
        <time>2018-04-11T13:31:53Z</time>
      </trkpt>
      <trkpt lat="48.66952" lon="-2.31157">
        <ele>59</ele>
        <time>2018-04-11T13:32:05Z</time>
      </trkpt>
      <trkpt lat="48.66961" lon="-2.3116">
        <ele>59</ele>
        <time>2018-04-11T13:32:14Z</time>
      </trkpt>
      <trkpt lat="48.6697" lon="-2.31161">
        <ele>58</ele>
        <time>2018-04-11T13:32:22Z</time>
      </trkpt>
      <trkpt lat="48.66979" lon="-2.31164">
        <ele>58</ele>
        <time>2018-04-11T13:32:30Z</time>
      </trkpt>
      <trkpt lat="48.66988" lon="-2.31163">
        <ele>58</ele>
        <time>2018-04-11T13:32:38Z</time>
      </trkpt>
      <trkpt lat="48.66998" lon="-2.31163">
        <ele>59</ele>
        <time>2018-04-11T13:32:46Z</time>
      </trkpt>
      <trkpt lat="48.67007" lon="-2.31161">
        <ele>53</ele>
        <time>2018-04-11T13:32:54Z</time>
      </trkpt>
      <trkpt lat="48.67017" lon="-2.31158">
        <ele>48</ele>
        <time>2018-04-11T13:33:02Z</time>
      </trkpt>
      <trkpt lat="48.67026" lon="-2.3116">
        <ele>45</ele>
        <time>2018-04-11T13:33:12Z</time>
      </trkpt>
      <trkpt lat="48.67034" lon="-2.31168">
        <ele>52</ele>
        <time>2018-04-11T13:33:43Z</time>
      </trkpt>
      <trkpt lat="48.67039" lon="-2.3118">
        <ele>52</ele>
        <time>2018-04-11T13:33:53Z</time>
      </trkpt>
      <trkpt lat="48.67046" lon="-2.31191">
        <ele>51</ele>
        <time>2018-04-11T13:34:02Z</time>
      </trkpt>
      <trkpt lat="48.67051" lon="-2.31202">
        <ele>51</ele>
        <time>2018-04-11T13:34:10Z</time>
      </trkpt>
      <trkpt lat="48.67055" lon="-2.31214">
        <ele>52</ele>
        <time>2018-04-11T13:34:18Z</time>
      </trkpt>
      <trkpt lat="48.67061" lon="-2.31227">
        <ele>53</ele>
        <time>2018-04-11T13:34:27Z</time>
      </trkpt>
      <trkpt lat="48.67067" lon="-2.31238">
        <ele>53</ele>
        <time>2018-04-11T13:34:35Z</time>
      </trkpt>
      <trkpt lat="48.67073" lon="-2.31249">
        <ele>54</ele>
        <time>2018-04-11T13:34:43Z</time>
      </trkpt>
      <trkpt lat="48.6708" lon="-2.31258">
        <ele>57</ele>
        <time>2018-04-11T13:34:51Z</time>
      </trkpt>
      <trkpt lat="48.67094" lon="-2.31278">
        <ele>50</ele>
        <time>2018-04-11T13:35:07Z</time>
      </trkpt>
      <trkpt lat="48.67103" lon="-2.31284">
        <ele>49</ele>
        <time>2018-04-11T13:35:16Z</time>
      </trkpt>
      <trkpt lat="48.67111" lon="-2.3129">
        <ele>48</ele>
        <time>2018-04-11T13:35:24Z</time>
      </trkpt>
      <trkpt lat="48.6712" lon="-2.31292">
        <ele>47</ele>
        <time>2018-04-11T13:35:38Z</time>
      </trkpt>
      <trkpt lat="48.6713" lon="-2.31293">
        <ele>46</ele>
        <time>2018-04-11T13:35:47Z</time>
      </trkpt>
      <trkpt lat="48.67139" lon="-2.31296">
        <ele>46</ele>
        <time>2018-04-11T13:35:55Z</time>
      </trkpt>
      <trkpt lat="48.67148" lon="-2.31304">
        <ele>46</ele>
        <time>2018-04-11T13:36:04Z</time>
      </trkpt>
      <trkpt lat="48.67153" lon="-2.31317">
        <ele>48</ele>
        <time>2018-04-11T13:36:12Z</time>
      </trkpt>
      <trkpt lat="48.67161" lon="-2.31327">
        <ele>49</ele>
        <time>2018-04-11T13:36:21Z</time>
      </trkpt>
      <trkpt lat="48.67169" lon="-2.31334">
        <ele>51</ele>
        <time>2018-04-11T13:36:30Z</time>
      </trkpt>
      <trkpt lat="48.67175" lon="-2.31346">
        <ele>49</ele>
        <time>2018-04-11T13:36:39Z</time>
      </trkpt>
      <trkpt lat="48.67189" lon="-2.31366">
        <ele>48</ele>
        <time>2018-04-11T13:36:56Z</time>
      </trkpt>
      <trkpt lat="48.67198" lon="-2.31369">
        <ele>47</ele>
        <time>2018-04-11T13:37:05Z</time>
      </trkpt>
      <trkpt lat="48.67207" lon="-2.31375">
        <ele>47</ele>
        <time>2018-04-11T13:37:19Z</time>
      </trkpt>
      <trkpt lat="48.67214" lon="-2.31385">
        <ele>47</ele>
        <time>2018-04-11T13:37:29Z</time>
      </trkpt>
      <trkpt lat="48.6722" lon="-2.31397">
        <ele>48</ele>
        <time>2018-04-11T13:37:39Z</time>
      </trkpt>
      <trkpt lat="48.67227" lon="-2.31407">
        <ele>49</ele>
        <time>2018-04-11T13:37:51Z</time>
      </trkpt>
      <trkpt lat="48.67234" lon="-2.31418">
        <ele>56</ele>
        <time>2018-04-11T13:38:00Z</time>
      </trkpt>
      <trkpt lat="48.67245" lon="-2.31439">
        <ele>57</ele>
        <time>2018-04-11T13:38:17Z</time>
      </trkpt>
      <trkpt lat="48.67246" lon="-2.31454">
        <ele>58</ele>
        <time>2018-04-11T13:38:26Z</time>
      </trkpt>
      <trkpt lat="48.67252" lon="-2.31465">
        <ele>53</ele>
        <time>2018-04-11T13:38:36Z</time>
      </trkpt>
      <trkpt lat="48.67258" lon="-2.31482">
        <ele>55</ele>
        <time>2018-04-11T13:39:02Z</time>
      </trkpt>
      <trkpt lat="48.67267" lon="-2.31483">
        <ele>54</ele>
        <time>2018-04-11T13:39:11Z</time>
      </trkpt>
      <trkpt lat="48.67273" lon="-2.31494">
        <ele>54</ele>
        <time>2018-04-11T13:39:19Z</time>
      </trkpt>
      <trkpt lat="48.67277" lon="-2.31508">
        <ele>60</ele>
        <time>2018-04-11T13:39:28Z</time>
      </trkpt>
      <trkpt lat="48.67286" lon="-2.31512">
        <ele>60</ele>
        <time>2018-04-11T13:39:38Z</time>
      </trkpt>
      <trkpt lat="48.67296" lon="-2.31516">
        <ele>60</ele>
        <time>2018-04-11T13:39:47Z</time>
      </trkpt>
      <trkpt lat="48.67305" lon="-2.31521">
        <ele>60</ele>
        <time>2018-04-11T13:39:55Z</time>
      </trkpt>
      <trkpt lat="48.67313" lon="-2.31527">
        <ele>60</ele>
        <time>2018-04-11T13:40:03Z</time>
      </trkpt>
      <trkpt lat="48.67321" lon="-2.31536">
        <ele>60</ele>
        <time>2018-04-11T13:40:11Z</time>
      </trkpt>
      <trkpt lat="48.6733" lon="-2.31542">
        <ele>60</ele>
        <time>2018-04-11T13:40:20Z</time>
      </trkpt>
      <trkpt lat="48.67339" lon="-2.31547">
        <ele>57</ele>
        <time>2018-04-11T13:40:30Z</time>
      </trkpt>
      <trkpt lat="48.67348" lon="-2.31548">
        <ele>56</ele>
        <time>2018-04-11T13:40:39Z</time>
      </trkpt>
      <trkpt lat="48.67357" lon="-2.31551">
        <ele>56</ele>
        <time>2018-04-11T13:40:48Z</time>
      </trkpt>
      <trkpt lat="48.67426" lon="-2.31564">
        <ele>52</ele>
        <time>2018-04-11T13:41:45Z</time>
      </trkpt>
      <trkpt lat="48.67435" lon="-2.31569">
        <ele>52</ele>
        <time>2018-04-11T13:41:53Z</time>
      </trkpt>
      <trkpt lat="48.67445" lon="-2.31571">
        <ele>51</ele>
        <time>2018-04-11T13:42:01Z</time>
      </trkpt>
      <trkpt lat="48.67455" lon="-2.31572">
        <ele>50</ele>
        <time>2018-04-11T13:42:08Z</time>
      </trkpt>
      <trkpt lat="48.67464" lon="-2.31571">
        <ele>50</ele>
        <time>2018-04-11T13:42:15Z</time>
      </trkpt>
      <trkpt lat="48.67466" lon="-2.31586">
        <ele>57</ele>
        <time>2018-04-11T13:42:24Z</time>
      </trkpt>
      <trkpt lat="48.67464" lon="-2.316">
        <ele>57</ele>
        <time>2018-04-11T13:42:33Z</time>
      </trkpt>
      <trkpt lat="48.67472" lon="-2.31592">
        <ele>56</ele>
        <time>2018-04-11T13:42:47Z</time>
      </trkpt>
      <trkpt lat="48.67475" lon="-2.31605">
        <ele>56</ele>
        <time>2018-04-11T13:42:59Z</time>
      </trkpt>
      <trkpt lat="48.6748" lon="-2.31594">
        <ele>56</ele>
        <time>2018-04-11T13:43:08Z</time>
      </trkpt>
      <trkpt lat="48.67486" lon="-2.31605">
        <ele>56</ele>
        <time>2018-04-11T13:43:25Z</time>
      </trkpt>
      <trkpt lat="48.67481" lon="-2.31619">
        <ele>57</ele>
        <time>2018-04-11T13:43:35Z</time>
      </trkpt>
      <trkpt lat="48.67479" lon="-2.31633">
        <ele>57</ele>
        <time>2018-04-11T13:43:45Z</time>
      </trkpt>
      <trkpt lat="48.67481" lon="-2.31646">
        <ele>57</ele>
        <time>2018-04-11T13:43:53Z</time>
      </trkpt>
      <trkpt lat="48.67485" lon="-2.31659">
        <ele>57</ele>
        <time>2018-04-11T13:44:02Z</time>
      </trkpt>
      <trkpt lat="48.6749" lon="-2.31671">
        <ele>57</ele>
        <time>2018-04-11T13:44:13Z</time>
      </trkpt>
      <trkpt lat="48.67499" lon="-2.31671">
        <ele>57</ele>
        <time>2018-04-11T13:44:32Z</time>
      </trkpt>
      <trkpt lat="48.67507" lon="-2.31663">
        <ele>56</ele>
        <time>2018-04-11T13:44:41Z</time>
      </trkpt>
      <trkpt lat="48.67523" lon="-2.31649">
        <ele>57</ele>
        <time>2018-04-11T13:44:59Z</time>
      </trkpt>
      <trkpt lat="48.67528" lon="-2.31637">
        <ele>57</ele>
        <time>2018-04-11T13:45:07Z</time>
      </trkpt>
      <trkpt lat="48.6754" lon="-2.31609">
        <ele>57</ele>
        <time>2018-04-11T13:45:40Z</time>
      </trkpt>
      <trkpt lat="48.67542" lon="-2.31595">
        <ele>57</ele>
        <time>2018-04-11T13:45:49Z</time>
      </trkpt>
      <trkpt lat="48.67548" lon="-2.31583">
        <ele>52</ele>
        <time>2018-04-11T13:45:58Z</time>
      </trkpt>
      <trkpt lat="48.67564" lon="-2.31548">
        <ele>51</ele>
        <time>2018-04-11T13:46:20Z</time>
      </trkpt>
      <trkpt lat="48.67572" lon="-2.31539">
        <ele>50</ele>
        <time>2018-04-11T13:46:29Z</time>
      </trkpt>
      <trkpt lat="48.67581" lon="-2.31537">
        <ele>50</ele>
        <time>2018-04-11T13:46:38Z</time>
      </trkpt>
      <trkpt lat="48.67591" lon="-2.31538">
        <ele>56</ele>
        <time>2018-04-11T13:46:49Z</time>
      </trkpt>
      <trkpt lat="48.676" lon="-2.31535">
        <ele>56</ele>
        <time>2018-04-11T13:46:59Z</time>
      </trkpt>
      <trkpt lat="48.67609" lon="-2.31532">
        <ele>56</ele>
        <time>2018-04-11T13:47:09Z</time>
      </trkpt>
      <trkpt lat="48.67619" lon="-2.31531">
        <ele>56</ele>
        <time>2018-04-11T13:47:23Z</time>
      </trkpt>
      <trkpt lat="48.67628" lon="-2.31534">
        <ele>57</ele>
        <time>2018-04-11T13:47:32Z</time>
      </trkpt>
      <trkpt lat="48.67637" lon="-2.31528">
        <ele>57</ele>
        <time>2018-04-11T13:47:40Z</time>
      </trkpt>
      <trkpt lat="48.67646" lon="-2.31531">
        <ele>57</ele>
        <time>2018-04-11T13:47:49Z</time>
      </trkpt>
      <trkpt lat="48.67655" lon="-2.31524">
        <ele>58</ele>
        <time>2018-04-11T13:48:01Z</time>
      </trkpt>
      <trkpt lat="48.67664" lon="-2.31522">
        <ele>58</ele>
        <time>2018-04-11T13:48:09Z</time>
      </trkpt>
      <trkpt lat="48.67674" lon="-2.3152">
        <ele>60</ele>
        <time>2018-04-11T13:48:17Z</time>
      </trkpt>
      <trkpt lat="48.67683" lon="-2.31516">
        <ele>61</ele>
        <time>2018-04-11T13:48:25Z</time>
      </trkpt>
      <trkpt lat="48.67739" lon="-2.31492">
        <ele>58</ele>
        <time>2018-04-11T13:49:16Z</time>
      </trkpt>
      <trkpt lat="48.67748" lon="-2.31486">
        <ele>58</ele>
        <time>2018-04-11T13:49:24Z</time>
      </trkpt>
      <trkpt lat="48.67756" lon="-2.3148">
        <ele>59</ele>
        <time>2018-04-11T13:49:33Z</time>
      </trkpt>
      <trkpt lat="48.67763" lon="-2.31469">
        <ele>58</ele>
        <time>2018-04-11T13:49:44Z</time>
      </trkpt>
      <trkpt lat="48.67772" lon="-2.31464">
        <ele>58</ele>
        <time>2018-04-11T13:49:52Z</time>
      </trkpt>
      <trkpt lat="48.67779" lon="-2.31453">
        <ele>57</ele>
        <time>2018-04-11T13:50:00Z</time>
      </trkpt>
      <trkpt lat="48.67789" lon="-2.31451">
        <ele>57</ele>
        <time>2018-04-11T13:50:09Z</time>
      </trkpt>
      <trkpt lat="48.67798" lon="-2.31449">
        <ele>57</ele>
        <time>2018-04-11T13:50:18Z</time>
      </trkpt>
      <trkpt lat="48.67807" lon="-2.31444">
        <ele>57</ele>
        <time>2018-04-11T13:50:26Z</time>
      </trkpt>
      <trkpt lat="48.67816" lon="-2.31441">
        <ele>56</ele>
        <time>2018-04-11T13:50:34Z</time>
      </trkpt>
      <trkpt lat="48.67844" lon="-2.31433">
        <ele>58</ele>
        <time>2018-04-11T13:51:00Z</time>
      </trkpt>
      <trkpt lat="48.67854" lon="-2.31433">
        <ele>59</ele>
        <time>2018-04-11T13:51:10Z</time>
      </trkpt>
      <trkpt lat="48.67861" lon="-2.31425">
        <ele>60</ele>
        <time>2018-04-11T13:51:23Z</time>
      </trkpt>
      <trkpt lat="48.67871" lon="-2.3142">
        <ele>60</ele>
        <time>2018-04-11T13:51:31Z</time>
      </trkpt>
      <trkpt lat="48.6788" lon="-2.31417">
        <ele>61</ele>
        <time>2018-04-11T13:51:43Z</time>
      </trkpt>
      <trkpt lat="48.67889" lon="-2.31411">
        <ele>52</ele>
        <time>2018-04-11T13:51:51Z</time>
      </trkpt>
      <trkpt lat="48.67899" lon="-2.31407">
        <ele>54</ele>
        <time>2018-04-11T13:51:58Z</time>
      </trkpt>
      <trkpt lat="48.67944" lon="-2.31385">
        <ele>58</ele>
        <time>2018-04-11T13:52:38Z</time>
      </trkpt>
      <trkpt lat="48.67952" lon="-2.31379">
        <ele>58</ele>
        <time>2018-04-11T13:52:46Z</time>
      </trkpt>
      <trkpt lat="48.6796" lon="-2.31369">
        <ele>58</ele>
        <time>2018-04-11T13:52:55Z</time>
      </trkpt>
      <trkpt lat="48.67965" lon="-2.31357">
        <ele>58</ele>
        <time>2018-04-11T13:53:03Z</time>
      </trkpt>
      <trkpt lat="48.67971" lon="-2.31347">
        <ele>58</ele>
        <time>2018-04-11T13:53:12Z</time>
      </trkpt>
      <trkpt lat="48.67981" lon="-2.31346">
        <ele>58</ele>
        <time>2018-04-11T13:53:21Z</time>
      </trkpt>
      <trkpt lat="48.6799" lon="-2.31348">
        <ele>59</ele>
        <time>2018-04-11T13:53:30Z</time>
      </trkpt>
      <trkpt lat="48.67998" lon="-2.31354">
        <ele>59</ele>
        <time>2018-04-11T13:53:38Z</time>
      </trkpt>
      <trkpt lat="48.68006" lon="-2.31359">
        <ele>58</ele>
        <time>2018-04-11T13:53:47Z</time>
      </trkpt>
      <trkpt lat="48.68016" lon="-2.3136">
        <ele>57</ele>
        <time>2018-04-11T13:53:56Z</time>
      </trkpt>
      <trkpt lat="48.68025" lon="-2.31364">
        <ele>57</ele>
        <time>2018-04-11T13:54:05Z</time>
      </trkpt>
      <trkpt lat="48.68034" lon="-2.31366">
        <ele>56</ele>
        <time>2018-04-11T13:54:16Z</time>
      </trkpt>
      <trkpt lat="48.68042" lon="-2.31374">
        <ele>56</ele>
        <time>2018-04-11T13:54:29Z</time>
      </trkpt>
      <trkpt lat="48.6805" lon="-2.31381">
        <ele>56</ele>
        <time>2018-04-11T13:54:49Z</time>
      </trkpt>
      <trkpt lat="48.68059" lon="-2.31387">
        <ele>57</ele>
        <time>2018-04-11T13:54:58Z</time>
      </trkpt>
      <trkpt lat="48.68068" lon="-2.31393">
        <ele>58</ele>
        <time>2018-04-11T13:55:07Z</time>
      </trkpt>
      <trkpt lat="48.68077" lon="-2.31397">
        <ele>59</ele>
        <time>2018-04-11T13:55:15Z</time>
      </trkpt>
      <trkpt lat="48.68143" lon="-2.31423">
        <ele>59</ele>
        <time>2018-04-11T13:56:16Z</time>
      </trkpt>
      <trkpt lat="48.68151" lon="-2.31432">
        <ele>59</ele>
        <time>2018-04-11T13:56:24Z</time>
      </trkpt>
      <trkpt lat="48.68159" lon="-2.3144">
        <ele>59</ele>
        <time>2018-04-11T13:56:33Z</time>
      </trkpt>
      <trkpt lat="48.68169" lon="-2.31443">
        <ele>51</ele>
        <time>2018-04-11T13:56:42Z</time>
      </trkpt>
      <trkpt lat="48.68178" lon="-2.31448">
        <ele>51</ele>
        <time>2018-04-11T13:56:51Z</time>
      </trkpt>
      <trkpt lat="48.68187" lon="-2.31454">
        <ele>51</ele>
        <time>2018-04-11T13:57:00Z</time>
      </trkpt>
      <trkpt lat="48.68196" lon="-2.31458">
        <ele>51</ele>
        <time>2018-04-11T13:57:10Z</time>
      </trkpt>
      <trkpt lat="48.68205" lon="-2.31464">
        <ele>51</ele>
        <time>2018-04-11T13:57:18Z</time>
      </trkpt>
      <trkpt lat="48.68214" lon="-2.31467">
        <ele>50</ele>
        <time>2018-04-11T13:57:28Z</time>
      </trkpt>
      <trkpt lat="48.68221" lon="-2.31474">
        <ele>51</ele>
        <time>2018-04-11T13:57:38Z</time>
      </trkpt>
      <trkpt lat="48.68237" lon="-2.31489">
        <ele>54</ele>
        <time>2018-04-11T13:57:59Z</time>
      </trkpt>
      <trkpt lat="48.68246" lon="-2.31495">
        <ele>56</ele>
        <time>2018-04-11T13:58:11Z</time>
      </trkpt>
      <trkpt lat="48.68254" lon="-2.31504">
        <ele>58</ele>
        <time>2018-04-11T13:58:21Z</time>
      </trkpt>
      <trkpt lat="48.68263" lon="-2.31511">
        <ele>59</ele>
        <time>2018-04-11T13:58:30Z</time>
      </trkpt>
      <trkpt lat="48.68273" lon="-2.31515">
        <ele>59</ele>
        <time>2018-04-11T13:58:39Z</time>
      </trkpt>
      <trkpt lat="48.68281" lon="-2.31519">
        <ele>60</ele>
        <time>2018-04-11T13:58:47Z</time>
      </trkpt>
      <trkpt lat="48.683" lon="-2.31523">
        <ele>59</ele>
        <time>2018-04-11T13:59:03Z</time>
      </trkpt>
      <trkpt lat="48.68309" lon="-2.31525">
        <ele>59</ele>
        <time>2018-04-11T13:59:12Z</time>
      </trkpt>
      <trkpt lat="48.68317" lon="-2.31529">
        <ele>59</ele>
        <time>2018-04-11T13:59:21Z</time>
      </trkpt>
      <trkpt lat="48.68326" lon="-2.31523">
        <ele>58</ele>
        <time>2018-04-11T13:59:29Z</time>
      </trkpt>
      <trkpt lat="48.68335" lon="-2.31516">
        <ele>55</ele>
        <time>2018-04-11T13:59:37Z</time>
      </trkpt>
      <trkpt lat="48.68344" lon="-2.31514">
        <ele>55</ele>
        <time>2018-04-11T13:59:45Z</time>
      </trkpt>
      <trkpt lat="48.68352" lon="-2.3151">
        <ele>54</ele>
        <time>2018-04-11T13:59:53Z</time>
      </trkpt>
      <trkpt lat="48.68362" lon="-2.31509">
        <ele>54</ele>
        <time>2018-04-11T14:00:01Z</time>
      </trkpt>
      <trkpt lat="48.68372" lon="-2.31511">
        <ele>54</ele>
        <time>2018-04-11T14:00:14Z</time>
      </trkpt>
      <trkpt lat="48.6838" lon="-2.31517">
        <ele>53</ele>
        <time>2018-04-11T14:00:26Z</time>
      </trkpt>
      <trkpt lat="48.6839" lon="-2.3152">
        <ele>53</ele>
        <time>2018-04-11T14:00:35Z</time>
      </trkpt>
      <trkpt lat="48.68398" lon="-2.31527">
        <ele>53</ele>
        <time>2018-04-11T14:00:43Z</time>
      </trkpt>
      <trkpt lat="48.68407" lon="-2.31533">
        <ele>53</ele>
        <time>2018-04-11T14:00:51Z</time>
      </trkpt>
      <trkpt lat="48.68416" lon="-2.31532">
        <ele>53</ele>
        <time>2018-04-11T14:01:02Z</time>
      </trkpt>
      <trkpt lat="48.68436" lon="-2.31532">
        <ele>45</ele>
        <time>2018-04-11T14:01:22Z</time>
      </trkpt>
      <trkpt lat="48.68445" lon="-2.31534">
        <ele>45</ele>
        <time>2018-04-11T14:01:31Z</time>
      </trkpt>
      <trkpt lat="48.68453" lon="-2.31543">
        <ele>45</ele>
        <time>2018-04-11T14:01:40Z</time>
      </trkpt>
      <trkpt lat="48.68484" lon="-2.31578">
        <ele>47</ele>
        <time>2018-04-11T14:02:19Z</time>
      </trkpt>
      <trkpt lat="48.6849" lon="-2.31588">
        <ele>52</ele>
        <time>2018-04-11T14:02:29Z</time>
      </trkpt>
      <trkpt lat="48.68495" lon="-2.31599">
        <ele>53</ele>
        <time>2018-04-11T14:02:40Z</time>
      </trkpt>
      <trkpt lat="48.68502" lon="-2.3161">
        <ele>49</ele>
        <time>2018-04-11T14:02:49Z</time>
      </trkpt>
      <trkpt lat="48.68509" lon="-2.3162">
        <ele>49</ele>
        <time>2018-04-11T14:02:58Z</time>
      </trkpt>
      <trkpt lat="48.68518" lon="-2.31629">
        <ele>50</ele>
        <time>2018-04-11T14:03:07Z</time>
      </trkpt>
      <trkpt lat="48.68526" lon="-2.31636">
        <ele>50</ele>
        <time>2018-04-11T14:03:16Z</time>
      </trkpt>
      <trkpt lat="48.68534" lon="-2.31645">
        <ele>50</ele>
        <time>2018-04-11T14:03:24Z</time>
      </trkpt>
      <trkpt lat="48.6854" lon="-2.31656">
        <ele>51</ele>
        <time>2018-04-11T14:03:33Z</time>
      </trkpt>
      <trkpt lat="48.68547" lon="-2.31667">
        <ele>57</ele>
        <time>2018-04-11T14:03:43Z</time>
      </trkpt>
      <trkpt lat="48.68555" lon="-2.31671">
        <ele>57</ele>
        <time>2018-04-11T14:04:01Z</time>
      </trkpt>
      <trkpt lat="48.68564" lon="-2.31675">
        <ele>56</ele>
        <time>2018-04-11T14:04:11Z</time>
      </trkpt>
      <trkpt lat="48.68574" lon="-2.31674">
        <ele>55</ele>
        <time>2018-04-11T14:04:20Z</time>
      </trkpt>
      <trkpt lat="48.68584" lon="-2.3167">
        <ele>53</ele>
        <time>2018-04-11T14:04:29Z</time>
      </trkpt>
      <trkpt lat="48.68593" lon="-2.31666">
        <ele>48</ele>
        <time>2018-04-11T14:04:38Z</time>
      </trkpt>
      <trkpt lat="48.68602" lon="-2.31659">
        <ele>43</ele>
        <time>2018-04-11T14:05:05Z</time>
      </trkpt>
      <trkpt lat="48.6861" lon="-2.31652">
        <ele>40</ele>
        <time>2018-04-11T14:05:19Z</time>
      </trkpt>
      <trkpt lat="48.68619" lon="-2.31647">
        <ele>37</ele>
        <time>2018-04-11T14:14:02Z</time>
      </trkpt>
      <trkpt lat="48.68629" lon="-2.31649">
        <ele>37</ele>
        <time>2018-04-11T14:14:12Z</time>
      </trkpt>
      <trkpt lat="48.68639" lon="-2.31649">
        <ele>36</ele>
        <time>2018-04-11T14:14:22Z</time>
      </trkpt>
      <trkpt lat="48.68657" lon="-2.31649">
        <ele>36</ele>
        <time>2018-04-11T14:14:39Z</time>
      </trkpt>
      <trkpt lat="48.68667" lon="-2.31653">
        <ele>37</ele>
        <time>2018-04-11T14:14:48Z</time>
      </trkpt>
      <trkpt lat="48.68676" lon="-2.31657">
        <ele>33</ele>
        <time>2018-04-11T14:14:57Z</time>
      </trkpt>
      <trkpt lat="48.68685" lon="-2.31664">
        <ele>32</ele>
        <time>2018-04-11T14:15:07Z</time>
      </trkpt>
      <trkpt lat="48.68692" lon="-2.31671">
        <ele>36</ele>
        <time>2018-04-11T14:15:16Z</time>
      </trkpt>
      <trkpt lat="48.68701" lon="-2.31677">
        <ele>34</ele>
        <time>2018-04-11T14:15:25Z</time>
      </trkpt>
      <trkpt lat="48.68718" lon="-2.31691">
        <ele>32</ele>
        <time>2018-04-11T14:15:44Z</time>
      </trkpt>
      <trkpt lat="48.68726" lon="-2.31696">
        <ele>32</ele>
        <time>2018-04-11T14:15:53Z</time>
      </trkpt>
      <trkpt lat="48.68736" lon="-2.31698">
        <ele>31</ele>
        <time>2018-04-11T14:16:02Z</time>
      </trkpt>
      <trkpt lat="48.68745" lon="-2.31705">
        <ele>32</ele>
        <time>2018-04-11T14:16:11Z</time>
      </trkpt>
      <trkpt lat="48.68754" lon="-2.31714">
        <ele>24</ele>
        <time>2018-04-11T14:16:20Z</time>
      </trkpt>
      <trkpt lat="48.6876" lon="-2.31724">
        <ele>26</ele>
        <time>2018-04-11T14:16:28Z</time>
      </trkpt>
      <trkpt lat="48.68767" lon="-2.31734">
        <ele>27</ele>
        <time>2018-04-11T14:16:37Z</time>
      </trkpt>
      <trkpt lat="48.68769" lon="-2.31748">
        <ele>28</ele>
        <time>2018-04-11T14:16:49Z</time>
      </trkpt>
      <trkpt lat="48.68767" lon="-2.31763">
        <ele>26</ele>
        <time>2018-04-11T14:17:16Z</time>
      </trkpt>
      <trkpt lat="48.68762" lon="-2.31773">
        <ele>25</ele>
        <time>2018-04-11T14:17:25Z</time>
      </trkpt>
      <trkpt lat="48.68752" lon="-2.31777">
        <ele>25</ele>
        <time>2018-04-11T14:17:35Z</time>
      </trkpt>
      <trkpt lat="48.68743" lon="-2.31778">
        <ele>34</ele>
        <time>2018-04-11T14:17:44Z</time>
      </trkpt>
      <trkpt lat="48.68733" lon="-2.31778">
        <ele>34</ele>
        <time>2018-04-11T14:17:53Z</time>
      </trkpt>
      <trkpt lat="48.68724" lon="-2.31775">
        <ele>34</ele>
        <time>2018-04-11T14:18:01Z</time>
      </trkpt>
      <trkpt lat="48.68715" lon="-2.31776">
        <ele>34</ele>
        <time>2018-04-11T14:18:10Z</time>
      </trkpt>
      <trkpt lat="48.68696" lon="-2.31773">
        <ele>36</ele>
        <time>2018-04-11T14:18:33Z</time>
      </trkpt>
      <trkpt lat="48.68688" lon="-2.31768">
        <ele>37</ele>
        <time>2018-04-11T14:18:41Z</time>
      </trkpt>
      <trkpt lat="48.68678" lon="-2.31765">
        <ele>39</ele>
        <time>2018-04-11T14:18:50Z</time>
      </trkpt>
      <trkpt lat="48.68592" lon="-2.31744">
        <ele>53</ele>
        <time>2018-04-11T14:20:01Z</time>
      </trkpt>
      <trkpt lat="48.68582" lon="-2.31749">
        <ele>55</ele>
        <time>2018-04-11T14:20:10Z</time>
      </trkpt>
      <trkpt lat="48.68574" lon="-2.31755">
        <ele>54</ele>
        <time>2018-04-11T14:20:18Z</time>
      </trkpt>
      <trkpt lat="48.6855" lon="-2.31777">
        <ele>54</ele>
        <time>2018-04-11T14:20:42Z</time>
      </trkpt>
      <trkpt lat="48.68518" lon="-2.31812">
        <ele>55</ele>
        <time>2018-04-11T14:21:13Z</time>
      </trkpt>
      <trkpt lat="48.68511" lon="-2.31822">
        <ele>56</ele>
        <time>2018-04-11T14:21:20Z</time>
      </trkpt>
      <trkpt lat="48.6849" lon="-2.31853">
        <ele>58</ele>
        <time>2018-04-11T14:21:43Z</time>
      </trkpt>
      <trkpt lat="48.68482" lon="-2.31861">
        <ele>58</ele>
        <time>2018-04-11T14:21:51Z</time>
      </trkpt>
      <trkpt lat="48.68473" lon="-2.31865">
        <ele>58</ele>
        <time>2018-04-11T14:21:59Z</time>
      </trkpt>
      <trkpt lat="48.68465" lon="-2.31873">
        <ele>58</ele>
        <time>2018-04-11T14:22:07Z</time>
      </trkpt>
      <trkpt lat="48.6844" lon="-2.31893">
        <ele>60</ele>
        <time>2018-04-11T14:22:30Z</time>
      </trkpt>
      <trkpt lat="48.68432" lon="-2.31904">
        <ele>61</ele>
        <time>2018-04-11T14:22:38Z</time>
      </trkpt>
      <trkpt lat="48.68426" lon="-2.31916">
        <ele>63</ele>
        <time>2018-04-11T14:22:46Z</time>
      </trkpt>
      <trkpt lat="48.68422" lon="-2.31929">
        <ele>55</ele>
        <time>2018-04-11T14:22:56Z</time>
      </trkpt>
      <trkpt lat="48.68415" lon="-2.31938">
        <ele>60</ele>
        <time>2018-04-11T14:23:11Z</time>
      </trkpt>
      <trkpt lat="48.68408" lon="-2.31928">
        <ele>62</ele>
        <time>2018-04-11T14:24:30Z</time>
      </trkpt>
      <trkpt lat="48.68396" lon="-2.31906">
        <ele>66</ele>
        <time>2018-04-11T14:24:48Z</time>
      </trkpt>
      <trkpt lat="48.68401" lon="-2.31918">
        <ele>62</ele>
        <time>2018-04-11T14:25:17Z</time>
      </trkpt>
      <trkpt lat="48.68408" lon="-2.31928">
        <ele>62</ele>
        <time>2018-04-11T14:25:29Z</time>
      </trkpt>
      <trkpt lat="48.68402" lon="-2.3194">
        <ele>60</ele>
        <time>2018-04-11T14:25:49Z</time>
      </trkpt>
      <trkpt lat="48.68393" lon="-2.31947">
        <ele>59</ele>
        <time>2018-04-11T14:25:57Z</time>
      </trkpt>
      <trkpt lat="48.68386" lon="-2.31957">
        <ele>58</ele>
        <time>2018-04-11T14:26:05Z</time>
      </trkpt>
      <trkpt lat="48.68378" lon="-2.31966">
        <ele>57</ele>
        <time>2018-04-11T14:26:13Z</time>
      </trkpt>
      <trkpt lat="48.68369" lon="-2.31968">
        <ele>58</ele>
        <time>2018-04-11T14:26:21Z</time>
      </trkpt>
      <trkpt lat="48.6836" lon="-2.3197">
        <ele>58</ele>
        <time>2018-04-11T14:26:29Z</time>
      </trkpt>
      <trkpt lat="48.68349" lon="-2.31969">
        <ele>59</ele>
        <time>2018-04-11T14:26:44Z</time>
      </trkpt>
      <trkpt lat="48.68339" lon="-2.31971">
        <ele>59</ele>
        <time>2018-04-11T14:26:53Z</time>
      </trkpt>
      <trkpt lat="48.68329" lon="-2.3197">
        <ele>63</ele>
        <time>2018-04-11T14:27:02Z</time>
      </trkpt>
      <trkpt lat="48.6832" lon="-2.31968">
        <ele>63</ele>
        <time>2018-04-11T14:27:10Z</time>
      </trkpt>
      <trkpt lat="48.68311" lon="-2.31968">
        <ele>63</ele>
        <time>2018-04-11T14:27:19Z</time>
      </trkpt>
      <trkpt lat="48.68303" lon="-2.31976">
        <ele>63</ele>
        <time>2018-04-11T14:27:27Z</time>
      </trkpt>
      <trkpt lat="48.68294" lon="-2.31982">
        <ele>63</ele>
        <time>2018-04-11T14:27:34Z</time>
      </trkpt>
      <trkpt lat="48.68286" lon="-2.31989">
        <ele>63</ele>
        <time>2018-04-11T14:27:41Z</time>
      </trkpt>
      <trkpt lat="48.68277" lon="-2.31997">
        <ele>63</ele>
        <time>2018-04-11T14:27:49Z</time>
      </trkpt>
      <trkpt lat="48.68269" lon="-2.32002">
        <ele>59</ele>
        <time>2018-04-11T14:27:56Z</time>
      </trkpt>
      <trkpt lat="48.6826" lon="-2.32009">
        <ele>60</ele>
        <time>2018-04-11T14:28:04Z</time>
      </trkpt>
      <trkpt lat="48.68255" lon="-2.3202">
        <ele>59</ele>
        <time>2018-04-11T14:28:11Z</time>
      </trkpt>
      <trkpt lat="48.68249" lon="-2.32032">
        <ele>62</ele>
        <time>2018-04-11T14:28:19Z</time>
      </trkpt>
      <trkpt lat="48.68242" lon="-2.32042">
        <ele>62</ele>
        <time>2018-04-11T14:28:27Z</time>
      </trkpt>
      <trkpt lat="48.68233" lon="-2.32047">
        <ele>62</ele>
        <time>2018-04-11T14:28:36Z</time>
      </trkpt>
      <trkpt lat="48.68224" lon="-2.32054">
        <ele>62</ele>
        <time>2018-04-11T14:28:44Z</time>
      </trkpt>
      <trkpt lat="48.6822" lon="-2.32066">
        <ele>62</ele>
        <time>2018-04-11T14:28:54Z</time>
      </trkpt>
      <trkpt lat="48.68226" lon="-2.32076">
        <ele>62</ele>
        <time>2018-04-11T14:29:03Z</time>
      </trkpt>
      <trkpt lat="48.68232" lon="-2.32088">
        <ele>61</ele>
        <time>2018-04-11T14:29:11Z</time>
      </trkpt>
      <trkpt lat="48.68237" lon="-2.32101">
        <ele>61</ele>
        <time>2018-04-11T14:29:19Z</time>
      </trkpt>
      <trkpt lat="48.68241" lon="-2.32114">
        <ele>61</ele>
        <time>2018-04-11T14:29:28Z</time>
      </trkpt>
      <trkpt lat="48.68243" lon="-2.32128">
        <ele>60</ele>
        <time>2018-04-11T14:29:36Z</time>
      </trkpt>
      <trkpt lat="48.68243" lon="-2.32142">
        <ele>60</ele>
        <time>2018-04-11T14:29:44Z</time>
      </trkpt>
      <trkpt lat="48.68242" lon="-2.32156">
        <ele>59</ele>
        <time>2018-04-11T14:29:53Z</time>
      </trkpt>
      <trkpt lat="48.6825" lon="-2.32166">
        <ele>57</ele>
        <time>2018-04-11T14:30:03Z</time>
      </trkpt>
      <trkpt lat="48.68256" lon="-2.32177">
        <ele>47</ele>
        <time>2018-04-11T14:30:12Z</time>
      </trkpt>
      <trkpt lat="48.68249" lon="-2.32185">
        <ele>53</ele>
        <time>2018-04-11T14:30:22Z</time>
      </trkpt>
      <trkpt lat="48.6824" lon="-2.32186">
        <ele>53</ele>
        <time>2018-04-11T14:30:31Z</time>
      </trkpt>
      <trkpt lat="48.6823" lon="-2.32188">
        <ele>52</ele>
        <time>2018-04-11T14:30:46Z</time>
      </trkpt>
      <trkpt lat="48.68221" lon="-2.3219">
        <ele>52</ele>
        <time>2018-04-11T14:30:54Z</time>
      </trkpt>
      <trkpt lat="48.68212" lon="-2.32194">
        <ele>52</ele>
        <time>2018-04-11T14:31:02Z</time>
      </trkpt>
      <trkpt lat="48.68203" lon="-2.32201">
        <ele>52</ele>
        <time>2018-04-11T14:31:10Z</time>
      </trkpt>
      <trkpt lat="48.68193" lon="-2.32203">
        <ele>52</ele>
        <time>2018-04-11T14:31:18Z</time>
      </trkpt>
      <trkpt lat="48.68184" lon="-2.32198">
        <ele>53</ele>
        <time>2018-04-11T14:31:26Z</time>
      </trkpt>
      <trkpt lat="48.68175" lon="-2.32197">
        <ele>54</ele>
        <time>2018-04-11T14:31:34Z</time>
      </trkpt>
      <trkpt lat="48.68156" lon="-2.32196">
        <ele>59</ele>
        <time>2018-04-11T14:31:50Z</time>
      </trkpt>
      <trkpt lat="48.68155" lon="-2.32211">
        <ele>58</ele>
        <time>2018-04-11T14:32:02Z</time>
      </trkpt>
      <trkpt lat="48.68146" lon="-2.32208">
        <ele>58</ele>
        <time>2018-04-11T14:32:10Z</time>
      </trkpt>
      <trkpt lat="48.68138" lon="-2.32217">
        <ele>58</ele>
        <time>2018-04-11T14:32:18Z</time>
      </trkpt>
      <trkpt lat="48.68133" lon="-2.32228">
        <ele>58</ele>
        <time>2018-04-11T14:32:27Z</time>
      </trkpt>
      <trkpt lat="48.68138" lon="-2.3224">
        <ele>57</ele>
        <time>2018-04-11T14:32:38Z</time>
      </trkpt>
      <trkpt lat="48.68145" lon="-2.3225">
        <ele>56</ele>
        <time>2018-04-11T14:32:47Z</time>
      </trkpt>
      <trkpt lat="48.6815" lon="-2.32261">
        <ele>51</ele>
        <time>2018-04-11T14:32:55Z</time>
      </trkpt>
      <trkpt lat="48.68153" lon="-2.32274">
        <ele>50</ele>
        <time>2018-04-11T14:33:05Z</time>
      </trkpt>
      <trkpt lat="48.68149" lon="-2.32286">
        <ele>49</ele>
        <time>2018-04-11T14:33:13Z</time>
      </trkpt>
      <trkpt lat="48.68144" lon="-2.32298">
        <ele>48</ele>
        <time>2018-04-11T14:33:21Z</time>
      </trkpt>
      <trkpt lat="48.68138" lon="-2.32309">
        <ele>48</ele>
        <time>2018-04-11T14:33:30Z</time>
      </trkpt>
      <trkpt lat="48.68134" lon="-2.32321">
        <ele>48</ele>
        <time>2018-04-11T14:33:39Z</time>
      </trkpt>
      <trkpt lat="48.68126" lon="-2.32347">
        <ele>42</ele>
        <time>2018-04-11T14:33:57Z</time>
      </trkpt>
      <trkpt lat="48.6812" lon="-2.32359">
        <ele>43</ele>
        <time>2018-04-11T14:34:05Z</time>
      </trkpt>
      <trkpt lat="48.68114" lon="-2.32369">
        <ele>44</ele>
        <time>2018-04-11T14:34:13Z</time>
      </trkpt>
      <trkpt lat="48.68106" lon="-2.32376">
        <ele>45</ele>
        <time>2018-04-11T14:34:24Z</time>
      </trkpt>
      <trkpt lat="48.6809" lon="-2.32393">
        <ele>47</ele>
        <time>2018-04-11T14:34:46Z</time>
      </trkpt>
      <trkpt lat="48.68081" lon="-2.32393">
        <ele>59</ele>
        <time>2018-04-11T14:34:54Z</time>
      </trkpt>
      <trkpt lat="48.68072" lon="-2.32395">
        <ele>59</ele>
        <time>2018-04-11T14:35:03Z</time>
      </trkpt>
      <trkpt lat="48.68054" lon="-2.32397">
        <ele>59</ele>
        <time>2018-04-11T14:35:22Z</time>
      </trkpt>
      <trkpt lat="48.68047" lon="-2.32408">
        <ele>59</ele>
        <time>2018-04-11T14:35:32Z</time>
      </trkpt>
      <trkpt lat="48.68037" lon="-2.32404">
        <ele>60</ele>
        <time>2018-04-11T14:35:50Z</time>
      </trkpt>
      <trkpt lat="48.68027" lon="-2.32406">
        <ele>60</ele>
        <time>2018-04-11T14:35:59Z</time>
      </trkpt>
      <trkpt lat="48.68018" lon="-2.32407">
        <ele>60</ele>
        <time>2018-04-11T14:36:08Z</time>
      </trkpt>
      <trkpt lat="48.68012" lon="-2.32418">
        <ele>58</ele>
        <time>2018-04-11T14:36:17Z</time>
      </trkpt>
      <trkpt lat="48.68006" lon="-2.32428">
        <ele>58</ele>
        <time>2018-04-11T14:36:25Z</time>
      </trkpt>
      <trkpt lat="48.67997" lon="-2.32433">
        <ele>57</ele>
        <time>2018-04-11T14:36:37Z</time>
      </trkpt>
      <trkpt lat="48.67968" lon="-2.32446">
        <ele>56</ele>
        <time>2018-04-11T14:37:02Z</time>
      </trkpt>
      <trkpt lat="48.67959" lon="-2.32452">
        <ele>56</ele>
        <time>2018-04-11T14:37:11Z</time>
      </trkpt>
      <trkpt lat="48.67907" lon="-2.32487">
        <ele>50</ele>
        <time>2018-04-11T14:37:56Z</time>
      </trkpt>
      <trkpt lat="48.67898" lon="-2.32489">
        <ele>50</ele>
        <time>2018-04-11T14:38:03Z</time>
      </trkpt>
      <trkpt lat="48.67888" lon="-2.3249">
        <ele>50</ele>
        <time>2018-04-11T14:38:12Z</time>
      </trkpt>
      <trkpt lat="48.6788" lon="-2.32483">
        <ele>51</ele>
        <time>2018-04-11T14:38:59Z</time>
      </trkpt>
      <trkpt lat="48.67873" lon="-2.32473">
        <ele>51</ele>
        <time>2018-04-11T14:39:06Z</time>
      </trkpt>
      <trkpt lat="48.67866" lon="-2.32464">
        <ele>52</ele>
        <time>2018-04-11T14:39:13Z</time>
      </trkpt>
      <trkpt lat="48.67856" lon="-2.32463">
        <ele>52</ele>
        <time>2018-04-11T14:39:22Z</time>
      </trkpt>
      <trkpt lat="48.67847" lon="-2.32463">
        <ele>52</ele>
        <time>2018-04-11T14:39:30Z</time>
      </trkpt>
      <trkpt lat="48.6784" lon="-2.32472">
        <ele>50</ele>
        <time>2018-04-11T14:39:38Z</time>
      </trkpt>
      <trkpt lat="48.67832" lon="-2.32479">
        <ele>49</ele>
        <time>2018-04-11T14:39:46Z</time>
      </trkpt>
      <trkpt lat="48.67822" lon="-2.32479">
        <ele>50</ele>
        <time>2018-04-11T14:39:53Z</time>
      </trkpt>
      <trkpt lat="48.67812" lon="-2.32481">
        <ele>50</ele>
        <time>2018-04-11T14:40:01Z</time>
      </trkpt>
      <trkpt lat="48.67803" lon="-2.32483">
        <ele>50</ele>
        <time>2018-04-11T14:40:09Z</time>
      </trkpt>
      <trkpt lat="48.67793" lon="-2.32479">
        <ele>51</ele>
        <time>2018-04-11T14:40:18Z</time>
      </trkpt>
      <trkpt lat="48.67784" lon="-2.3248">
        <ele>51</ele>
        <time>2018-04-11T14:40:26Z</time>
      </trkpt>
      <trkpt lat="48.67764" lon="-2.32486">
        <ele>50</ele>
        <time>2018-04-11T14:41:11Z</time>
      </trkpt>
      <trkpt lat="48.67755" lon="-2.32483">
        <ele>50</ele>
        <time>2018-04-11T14:41:27Z</time>
      </trkpt>
      <trkpt lat="48.67745" lon="-2.32483">
        <ele>51</ele>
        <time>2018-04-11T14:41:35Z</time>
      </trkpt>
      <trkpt lat="48.67736" lon="-2.32488">
        <ele>52</ele>
        <time>2018-04-11T14:41:43Z</time>
      </trkpt>
      <trkpt lat="48.67728" lon="-2.32495">
        <ele>52</ele>
        <time>2018-04-11T14:41:51Z</time>
      </trkpt>
      <trkpt lat="48.67721" lon="-2.32505">
        <ele>47</ele>
        <time>2018-04-11T14:41:58Z</time>
      </trkpt>
      <trkpt lat="48.67712" lon="-2.32512">
        <ele>47</ele>
        <time>2018-04-11T14:42:04Z</time>
      </trkpt>
      <trkpt lat="48.67704" lon="-2.3252">
        <ele>47</ele>
        <time>2018-04-11T14:42:12Z</time>
      </trkpt>
      <trkpt lat="48.67694" lon="-2.32525">
        <ele>47</ele>
        <time>2018-04-11T14:42:20Z</time>
      </trkpt>
      <trkpt lat="48.67686" lon="-2.32533">
        <ele>48</ele>
        <time>2018-04-11T14:42:30Z</time>
      </trkpt>
      <trkpt lat="48.67681" lon="-2.32546">
        <ele>47</ele>
        <time>2018-04-11T14:42:38Z</time>
      </trkpt>
      <trkpt lat="48.6768" lon="-2.3256">
        <ele>48</ele>
        <time>2018-04-11T14:42:46Z</time>
      </trkpt>
      <trkpt lat="48.67682" lon="-2.32573">
        <ele>48</ele>
        <time>2018-04-11T14:43:11Z</time>
      </trkpt>
      <trkpt lat="48.67682" lon="-2.32588">
        <ele>44</ele>
        <time>2018-04-11T14:43:25Z</time>
      </trkpt>
      <trkpt lat="48.67675" lon="-2.32596">
        <ele>44</ele>
        <time>2018-04-11T14:43:33Z</time>
      </trkpt>
      <trkpt lat="48.67666" lon="-2.32603">
        <ele>50</ele>
        <time>2018-04-11T14:43:41Z</time>
      </trkpt>
      <trkpt lat="48.67649" lon="-2.32615">
        <ele>49</ele>
        <time>2018-04-11T14:43:56Z</time>
      </trkpt>
      <trkpt lat="48.67643" lon="-2.32625">
        <ele>49</ele>
        <time>2018-04-11T14:44:03Z</time>
      </trkpt>
      <trkpt lat="48.6764" lon="-2.32639">
        <ele>48</ele>
        <time>2018-04-11T14:44:11Z</time>
      </trkpt>
      <trkpt lat="48.67635" lon="-2.32652">
        <ele>47</ele>
        <time>2018-04-11T14:44:18Z</time>
      </trkpt>
      <trkpt lat="48.67629" lon="-2.32663">
        <ele>47</ele>
        <time>2018-04-11T14:44:26Z</time>
      </trkpt>
      <trkpt lat="48.67624" lon="-2.32675">
        <ele>37</ele>
        <time>2018-04-11T14:44:33Z</time>
      </trkpt>
      <trkpt lat="48.6762" lon="-2.32689">
        <ele>36</ele>
        <time>2018-04-11T14:44:41Z</time>
      </trkpt>
      <trkpt lat="48.67614" lon="-2.327">
        <ele>35</ele>
        <time>2018-04-11T14:44:50Z</time>
      </trkpt>
      <trkpt lat="48.67606" lon="-2.32708">
        <ele>34</ele>
        <time>2018-04-11T14:45:00Z</time>
      </trkpt>
      <trkpt lat="48.67604" lon="-2.32693">
        <ele>36</ele>
        <time>2018-04-11T14:45:11Z</time>
      </trkpt>
      <trkpt lat="48.67609" lon="-2.32681">
        <ele>38</ele>
        <time>2018-04-11T14:45:19Z</time>
      </trkpt>
      <trkpt lat="48.67614" lon="-2.32669">
        <ele>38</ele>
        <time>2018-04-11T14:45:28Z</time>
      </trkpt>
      <trkpt lat="48.67618" lon="-2.32655">
        <ele>48</ele>
        <time>2018-04-11T14:45:36Z</time>
      </trkpt>
      <trkpt lat="48.67621" lon="-2.32641">
        <ele>48</ele>
        <time>2018-04-11T14:45:44Z</time>
      </trkpt>
      <trkpt lat="48.67622" lon="-2.32626">
        <ele>49</ele>
        <time>2018-04-11T14:45:53Z</time>
      </trkpt>
      <trkpt lat="48.67615" lon="-2.32617">
        <ele>49</ele>
        <time>2018-04-11T14:46:17Z</time>
      </trkpt>
      <trkpt lat="48.67606" lon="-2.32623">
        <ele>49</ele>
        <time>2018-04-11T14:46:37Z</time>
      </trkpt>
      <trkpt lat="48.67594" lon="-2.32624">
        <ele>49</ele>
        <time>2018-04-11T14:47:19Z</time>
      </trkpt>
      <trkpt lat="48.6759" lon="-2.32636">
        <ele>49</ele>
        <time>2018-04-11T14:47:28Z</time>
      </trkpt>
      <trkpt lat="48.67581" lon="-2.32644">
        <ele>51</ele>
        <time>2018-04-11T14:47:36Z</time>
      </trkpt>
      <trkpt lat="48.67549" lon="-2.32674">
        <ele>44</ele>
        <time>2018-04-11T14:48:09Z</time>
      </trkpt>
      <trkpt lat="48.6754" lon="-2.32674">
        <ele>45</ele>
        <time>2018-04-11T14:48:19Z</time>
      </trkpt>
      <trkpt lat="48.67531" lon="-2.3267">
        <ele>46</ele>
        <time>2018-04-11T14:48:31Z</time>
      </trkpt>
      <trkpt lat="48.67524" lon="-2.3268">
        <ele>46</ele>
        <time>2018-04-11T14:48:42Z</time>
      </trkpt>
      <trkpt lat="48.67495" lon="-2.32719">
        <ele>42</ele>
        <time>2018-04-11T14:49:19Z</time>
      </trkpt>
      <trkpt lat="48.67489" lon="-2.32731">
        <ele>40</ele>
        <time>2018-04-11T14:50:15Z</time>
      </trkpt>
      <trkpt lat="48.6748" lon="-2.32734">
        <ele>40</ele>
        <time>2018-04-11T14:50:28Z</time>
      </trkpt>
      <trkpt lat="48.67471" lon="-2.3273">
        <ele>40</ele>
        <time>2018-04-11T14:50:37Z</time>
      </trkpt>
      <trkpt lat="48.67453" lon="-2.32724">
        <ele>40</ele>
        <time>2018-04-11T14:50:54Z</time>
      </trkpt>
      <trkpt lat="48.67434" lon="-2.32719">
        <ele>39</ele>
        <time>2018-04-11T14:51:11Z</time>
      </trkpt>
      <trkpt lat="48.67425" lon="-2.32715">
        <ele>40</ele>
        <time>2018-04-11T14:51:19Z</time>
      </trkpt>
      <trkpt lat="48.67362" lon="-2.32684">
        <ele>44</ele>
        <time>2018-04-11T14:52:17Z</time>
      </trkpt>
      <trkpt lat="48.67353" lon="-2.32678">
        <ele>46</ele>
        <time>2018-04-11T14:52:25Z</time>
      </trkpt>
      <trkpt lat="48.67344" lon="-2.32672">
        <ele>48</ele>
        <time>2018-04-11T14:52:33Z</time>
      </trkpt>
      <trkpt lat="48.67335" lon="-2.32667">
        <ele>52</ele>
        <time>2018-04-11T14:52:41Z</time>
      </trkpt>
      <trkpt lat="48.67326" lon="-2.32674">
        <ele>50</ele>
        <time>2018-04-11T14:52:50Z</time>
      </trkpt>
      <trkpt lat="48.67318" lon="-2.3268">
        <ele>49</ele>
        <time>2018-04-11T14:52:58Z</time>
      </trkpt>
      <trkpt lat="48.67309" lon="-2.32686">
        <ele>48</ele>
        <time>2018-04-11T14:53:07Z</time>
      </trkpt>
      <trkpt lat="48.67301" lon="-2.32696">
        <ele>47</ele>
        <time>2018-04-11T14:53:16Z</time>
      </trkpt>
      <trkpt lat="48.67294" lon="-2.32706">
        <ele>46</ele>
        <time>2018-04-11T14:53:24Z</time>
      </trkpt>
      <trkpt lat="48.67286" lon="-2.32713">
        <ele>46</ele>
        <time>2018-04-11T14:53:33Z</time>
      </trkpt>
      <trkpt lat="48.67279" lon="-2.32721">
        <ele>46</ele>
        <time>2018-04-11T14:53:41Z</time>
      </trkpt>
      <trkpt lat="48.67272" lon="-2.3273">
        <ele>47</ele>
        <time>2018-04-11T14:53:49Z</time>
      </trkpt>
      <trkpt lat="48.67267" lon="-2.32742">
        <ele>47</ele>
        <time>2018-04-11T14:53:57Z</time>
      </trkpt>
      <trkpt lat="48.67261" lon="-2.32755">
        <ele>42</ele>
        <time>2018-04-11T14:54:05Z</time>
      </trkpt>
      <trkpt lat="48.67255" lon="-2.32766">
        <ele>40</ele>
        <time>2018-04-11T14:54:13Z</time>
      </trkpt>
      <trkpt lat="48.67251" lon="-2.32778">
        <ele>37</ele>
        <time>2018-04-11T14:54:20Z</time>
      </trkpt>
      <trkpt lat="48.67245" lon="-2.3279">
        <ele>46</ele>
        <time>2018-04-11T14:54:28Z</time>
      </trkpt>
      <trkpt lat="48.67239" lon="-2.32801">
        <ele>45</ele>
        <time>2018-04-11T14:54:36Z</time>
      </trkpt>
      <trkpt lat="48.67236" lon="-2.32815">
        <ele>43</ele>
        <time>2018-04-11T14:54:45Z</time>
      </trkpt>
      <trkpt lat="48.6723" lon="-2.32826">
        <ele>43</ele>
        <time>2018-04-11T14:54:53Z</time>
      </trkpt>
      <trkpt lat="48.67218" lon="-2.32849">
        <ele>39</ele>
        <time>2018-04-11T14:55:09Z</time>
      </trkpt>
      <trkpt lat="48.67211" lon="-2.32859">
        <ele>39</ele>
        <time>2018-04-11T14:55:17Z</time>
      </trkpt>
      <trkpt lat="48.67197" lon="-2.32879">
        <ele>39</ele>
        <time>2018-04-11T14:55:33Z</time>
      </trkpt>
      <trkpt lat="48.6717" lon="-2.32916">
        <ele>45</ele>
        <time>2018-04-11T14:56:05Z</time>
      </trkpt>
      <trkpt lat="48.67164" lon="-2.32927">
        <ele>45</ele>
        <time>2018-04-11T14:56:13Z</time>
      </trkpt>
      <trkpt lat="48.67158" lon="-2.32939">
        <ele>44</ele>
        <time>2018-04-11T14:56:21Z</time>
      </trkpt>
      <trkpt lat="48.67154" lon="-2.32951">
        <ele>43</ele>
        <time>2018-04-11T14:56:29Z</time>
      </trkpt>
      <trkpt lat="48.67138" lon="-2.32987">
        <ele>41</ele>
        <time>2018-04-11T14:56:53Z</time>
      </trkpt>
      <trkpt lat="48.67133" lon="-2.32999">
        <ele>41</ele>
        <time>2018-04-11T14:57:01Z</time>
      </trkpt>
      <trkpt lat="48.6713" lon="-2.33012">
        <ele>34</ele>
        <time>2018-04-11T14:57:09Z</time>
      </trkpt>
      <trkpt lat="48.67126" lon="-2.33025">
        <ele>34</ele>
        <time>2018-04-11T14:57:17Z</time>
      </trkpt>
      <trkpt lat="48.67118" lon="-2.33034">
        <ele>34</ele>
        <time>2018-04-11T14:57:27Z</time>
      </trkpt>
      <trkpt lat="48.67116" lon="-2.33048">
        <ele>34</ele>
        <time>2018-04-11T14:57:36Z</time>
      </trkpt>
      <trkpt lat="48.67109" lon="-2.33059">
        <ele>34</ele>
        <time>2018-04-11T14:57:46Z</time>
      </trkpt>
      <trkpt lat="48.67102" lon="-2.33068">
        <ele>35</ele>
        <time>2018-04-11T14:58:01Z</time>
      </trkpt>
      <trkpt lat="48.67094" lon="-2.33073">
        <ele>37</ele>
        <time>2018-04-11T14:58:10Z</time>
      </trkpt>
      <trkpt lat="48.67085" lon="-2.33072">
        <ele>38</ele>
        <time>2018-04-11T14:58:19Z</time>
      </trkpt>
      <trkpt lat="48.67075" lon="-2.33072">
        <ele>44</ele>
        <time>2018-04-11T14:58:28Z</time>
      </trkpt>
      <trkpt lat="48.67066" lon="-2.33075">
        <ele>45</ele>
        <time>2018-04-11T14:58:37Z</time>
      </trkpt>
      <trkpt lat="48.67057" lon="-2.33081">
        <ele>46</ele>
        <time>2018-04-11T14:58:46Z</time>
      </trkpt>
      <trkpt lat="48.67049" lon="-2.33089">
        <ele>39</ele>
        <time>2018-04-11T14:58:55Z</time>
      </trkpt>
      <trkpt lat="48.67041" lon="-2.33097">
        <ele>39</ele>
        <time>2018-04-11T14:59:04Z</time>
      </trkpt>
      <trkpt lat="48.67036" lon="-2.33109">
        <ele>39</ele>
        <time>2018-04-11T14:59:13Z</time>
      </trkpt>
      <trkpt lat="48.67031" lon="-2.33123">
        <ele>38</ele>
        <time>2018-04-11T14:59:22Z</time>
      </trkpt>
      <trkpt lat="48.67025" lon="-2.33134">
        <ele>38</ele>
        <time>2018-04-11T14:59:30Z</time>
      </trkpt>
      <trkpt lat="48.67018" lon="-2.33143">
        <ele>38</ele>
        <time>2018-04-11T14:59:38Z</time>
      </trkpt>
      <trkpt lat="48.6701" lon="-2.3315">
        <ele>39</ele>
        <time>2018-04-11T14:59:47Z</time>
      </trkpt>
      <trkpt lat="48.67002" lon="-2.33159">
        <ele>41</ele>
        <time>2018-04-11T14:59:56Z</time>
      </trkpt>
      <trkpt lat="48.66996" lon="-2.33171">
        <ele>43</ele>
        <time>2018-04-11T15:00:06Z</time>
      </trkpt>
      <trkpt lat="48.66993" lon="-2.33185">
        <ele>43</ele>
        <time>2018-04-11T15:00:14Z</time>
      </trkpt>
      <trkpt lat="48.66988" lon="-2.33197">
        <ele>43</ele>
        <time>2018-04-11T15:00:22Z</time>
      </trkpt>
      <trkpt lat="48.66984" lon="-2.33211">
        <ele>42</ele>
        <time>2018-04-11T15:00:31Z</time>
      </trkpt>
      <trkpt lat="48.66982" lon="-2.33226">
        <ele>41</ele>
        <time>2018-04-11T15:00:40Z</time>
      </trkpt>
      <trkpt lat="48.66981" lon="-2.3324">
        <ele>40</ele>
        <time>2018-04-11T15:00:48Z</time>
      </trkpt>
      <trkpt lat="48.6698" lon="-2.33269">
        <ele>38</ele>
        <time>2018-04-11T15:01:05Z</time>
      </trkpt>
      <trkpt lat="48.66978" lon="-2.33297">
        <ele>39</ele>
        <time>2018-04-11T15:01:43Z</time>
      </trkpt>
      <trkpt lat="48.66978" lon="-2.33312">
        <ele>38</ele>
        <time>2018-04-11T15:01:52Z</time>
      </trkpt>
      <trkpt lat="48.66978" lon="-2.33326">
        <ele>38</ele>
        <time>2018-04-11T15:02:00Z</time>
      </trkpt>
      <trkpt lat="48.66975" lon="-2.33339">
        <ele>37</ele>
        <time>2018-04-11T15:02:09Z</time>
      </trkpt>
      <trkpt lat="48.66981" lon="-2.33352">
        <ele>37</ele>
        <time>2018-04-11T15:02:17Z</time>
      </trkpt>
      <trkpt lat="48.66982" lon="-2.33366">
        <ele>37</ele>
        <time>2018-04-11T15:02:25Z</time>
      </trkpt>
      <trkpt lat="48.66984" lon="-2.3338">
        <ele>36</ele>
        <time>2018-04-11T15:02:33Z</time>
      </trkpt>
      <trkpt lat="48.66984" lon="-2.33395">
        <ele>35</ele>
        <time>2018-04-11T15:02:42Z</time>
      </trkpt>
      <trkpt lat="48.66983" lon="-2.33409">
        <ele>34</ele>
        <time>2018-04-11T15:02:50Z</time>
      </trkpt>
      <trkpt lat="48.66985" lon="-2.33425">
        <ele>31</ele>
        <time>2018-04-11T15:02:58Z</time>
      </trkpt>
      <trkpt lat="48.66984" lon="-2.3344">
        <ele>31</ele>
        <time>2018-04-11T15:03:06Z</time>
      </trkpt>
      <trkpt lat="48.66982" lon="-2.33453">
        <ele>30</ele>
        <time>2018-04-11T15:03:14Z</time>
      </trkpt>
      <trkpt lat="48.66977" lon="-2.33481">
        <ele>28</ele>
        <time>2018-04-11T15:03:30Z</time>
      </trkpt>
      <trkpt lat="48.66973" lon="-2.33495">
        <ele>27</ele>
        <time>2018-04-11T15:03:38Z</time>
      </trkpt>
      <trkpt lat="48.66965" lon="-2.33502">
        <ele>23</ele>
        <time>2018-04-11T15:03:47Z</time>
      </trkpt>
      <trkpt lat="48.66932" lon="-2.33535">
        <ele>27</ele>
        <time>2018-04-11T15:04:20Z</time>
      </trkpt>
      <trkpt lat="48.66916" lon="-2.33552">
        <ele>35</ele>
        <time>2018-04-11T15:04:37Z</time>
      </trkpt>
      <trkpt lat="48.66907" lon="-2.33552">
        <ele>36</ele>
        <time>2018-04-11T15:04:46Z</time>
      </trkpt>
      <trkpt lat="48.66898" lon="-2.33548">
        <ele>36</ele>
        <time>2018-04-11T15:04:54Z</time>
      </trkpt>
      <trkpt lat="48.66888" lon="-2.33546">
        <ele>37</ele>
        <time>2018-04-11T15:05:02Z</time>
      </trkpt>
      <trkpt lat="48.6688" lon="-2.33552">
        <ele>37</ele>
        <time>2018-04-11T15:05:12Z</time>
      </trkpt>
      <trkpt lat="48.66874" lon="-2.33563">
        <ele>37</ele>
        <time>2018-04-11T15:05:29Z</time>
      </trkpt>
      <trkpt lat="48.66868" lon="-2.33575">
        <ele>37</ele>
        <time>2018-04-11T15:05:38Z</time>
      </trkpt>
      <trkpt lat="48.66852" lon="-2.33611">
        <ele>31</ele>
        <time>2018-04-11T15:06:04Z</time>
      </trkpt>
      <trkpt lat="48.66846" lon="-2.33621">
        <ele>31</ele>
        <time>2018-04-11T15:06:12Z</time>
      </trkpt>
      <trkpt lat="48.6684" lon="-2.33633">
        <ele>30</ele>
        <time>2018-04-11T15:06:20Z</time>
      </trkpt>
      <trkpt lat="48.66832" lon="-2.3364">
        <ele>36</ele>
        <time>2018-04-11T15:06:28Z</time>
      </trkpt>
      <trkpt lat="48.66828" lon="-2.33654">
        <ele>35</ele>
        <time>2018-04-11T15:06:37Z</time>
      </trkpt>
      <trkpt lat="48.66822" lon="-2.33666">
        <ele>34</ele>
        <time>2018-04-11T15:06:45Z</time>
      </trkpt>
      <trkpt lat="48.66816" lon="-2.33676">
        <ele>31</ele>
        <time>2018-04-11T15:06:55Z</time>
      </trkpt>
      <trkpt lat="48.66805" lon="-2.337">
        <ele>30</ele>
        <time>2018-04-11T15:07:11Z</time>
      </trkpt>
      <trkpt lat="48.66798" lon="-2.3371">
        <ele>30</ele>
        <time>2018-04-11T15:07:19Z</time>
      </trkpt>
      <trkpt lat="48.66793" lon="-2.33722">
        <ele>29</ele>
        <time>2018-04-11T15:07:27Z</time>
      </trkpt>
      <trkpt lat="48.66788" lon="-2.33735">
        <ele>29</ele>
        <time>2018-04-11T15:07:35Z</time>
      </trkpt>
      <trkpt lat="48.6678" lon="-2.33742">
        <ele>29</ele>
        <time>2018-04-11T15:07:44Z</time>
      </trkpt>
      <trkpt lat="48.6677" lon="-2.33741">
        <ele>30</ele>
        <time>2018-04-11T15:07:53Z</time>
      </trkpt>
      <trkpt lat="48.66761" lon="-2.3374">
        <ele>31</ele>
        <time>2018-04-11T15:08:02Z</time>
      </trkpt>
      <trkpt lat="48.66751" lon="-2.33745">
        <ele>32</ele>
        <time>2018-04-11T15:08:12Z</time>
      </trkpt>
      <trkpt lat="48.66742" lon="-2.33749">
        <ele>33</ele>
        <time>2018-04-11T15:08:21Z</time>
      </trkpt>
      <trkpt lat="48.66734" lon="-2.33756">
        <ele>32</ele>
        <time>2018-04-11T15:08:30Z</time>
      </trkpt>
      <trkpt lat="48.66728" lon="-2.33767">
        <ele>32</ele>
        <time>2018-04-11T15:08:38Z</time>
      </trkpt>
      <trkpt lat="48.66717" lon="-2.3379">
        <ele>32</ele>
        <time>2018-04-11T15:08:54Z</time>
      </trkpt>
      <trkpt lat="48.66713" lon="-2.33804">
        <ele>32</ele>
        <time>2018-04-11T15:09:03Z</time>
      </trkpt>
      <trkpt lat="48.6671" lon="-2.33818">
        <ele>32</ele>
        <time>2018-04-11T15:09:11Z</time>
      </trkpt>
      <trkpt lat="48.66707" lon="-2.33832">
        <ele>32</ele>
        <time>2018-04-11T15:09:19Z</time>
      </trkpt>
      <trkpt lat="48.66711" lon="-2.33844">
        <ele>33</ele>
        <time>2018-04-11T15:09:31Z</time>
      </trkpt>
      <trkpt lat="48.66715" lon="-2.33856">
        <ele>33</ele>
        <time>2018-04-11T15:09:45Z</time>
      </trkpt>
      <trkpt lat="48.66721" lon="-2.33869">
        <ele>33</ele>
        <time>2018-04-11T15:10:31Z</time>
      </trkpt>
      <trkpt lat="48.66727" lon="-2.3388">
        <ele>33</ele>
        <time>2018-04-11T15:10:41Z</time>
      </trkpt>
      <trkpt lat="48.66737" lon="-2.33881">
        <ele>33</ele>
        <time>2018-04-11T15:10:49Z</time>
      </trkpt>
      <trkpt lat="48.66747" lon="-2.33883">
        <ele>33</ele>
        <time>2018-04-11T15:10:58Z</time>
      </trkpt>
      <trkpt lat="48.66775" lon="-2.33887">
        <ele>27</ele>
        <time>2018-04-11T15:11:24Z</time>
      </trkpt>
      <trkpt lat="48.66794" lon="-2.3389">
        <ele>26</ele>
        <time>2018-04-11T15:11:51Z</time>
      </trkpt>
      <trkpt lat="48.66804" lon="-2.33891">
        <ele>25</ele>
        <time>2018-04-11T15:12:00Z</time>
      </trkpt>
      <trkpt lat="48.66813" lon="-2.33889">
        <ele>25</ele>
        <time>2018-04-11T15:12:08Z</time>
      </trkpt>
      <trkpt lat="48.66823" lon="-2.3389">
        <ele>24</ele>
        <time>2018-04-11T15:12:16Z</time>
      </trkpt>
      <trkpt lat="48.6683" lon="-2.33898">
        <ele>25</ele>
        <time>2018-04-11T15:12:25Z</time>
      </trkpt>
      <trkpt lat="48.66828" lon="-2.33914">
        <ele>25</ele>
        <time>2018-04-11T15:12:34Z</time>
      </trkpt>
      <trkpt lat="48.66824" lon="-2.33926">
        <ele>26</ele>
        <time>2018-04-11T15:12:42Z</time>
      </trkpt>
      <trkpt lat="48.66817" lon="-2.33936">
        <ele>27</ele>
        <time>2018-04-11T15:12:50Z</time>
      </trkpt>
      <trkpt lat="48.66811" lon="-2.33948">
        <ele>27</ele>
        <time>2018-04-11T15:12:59Z</time>
      </trkpt>
      <trkpt lat="48.66812" lon="-2.33963">
        <ele>26</ele>
        <time>2018-04-11T15:13:08Z</time>
      </trkpt>
      <trkpt lat="48.66812" lon="-2.33978">
        <ele>25</ele>
        <time>2018-04-11T15:13:16Z</time>
      </trkpt>
      <trkpt lat="48.66812" lon="-2.33991">
        <ele>24</ele>
        <time>2018-04-11T15:13:24Z</time>
      </trkpt>
      <trkpt lat="48.66809" lon="-2.34005">
        <ele>20</ele>
        <time>2018-04-11T15:13:32Z</time>
      </trkpt>
      <trkpt lat="48.66805" lon="-2.34018">
        <ele>21</ele>
        <time>2018-04-11T15:13:40Z</time>
      </trkpt>
      <trkpt lat="48.668" lon="-2.34029">
        <ele>21</ele>
        <time>2018-04-11T15:13:48Z</time>
      </trkpt>
      <trkpt lat="48.66793" lon="-2.3404">
        <ele>21</ele>
        <time>2018-04-11T15:13:57Z</time>
      </trkpt>
      <trkpt lat="48.66783" lon="-2.34041">
        <ele>22</ele>
        <time>2018-04-11T15:14:21Z</time>
      </trkpt>
      <trkpt lat="48.66774" lon="-2.34043">
        <ele>23</ele>
        <time>2018-04-11T15:14:30Z</time>
      </trkpt>
      <trkpt lat="48.66755" lon="-2.34049">
        <ele>24</ele>
        <time>2018-04-11T15:14:48Z</time>
      </trkpt>
      <trkpt lat="48.66736" lon="-2.34056">
        <ele>32</ele>
        <time>2018-04-11T15:15:04Z</time>
      </trkpt>
      <trkpt lat="48.66728" lon="-2.34061">
        <ele>33</ele>
        <time>2018-04-11T15:15:13Z</time>
      </trkpt>
      <trkpt lat="48.66719" lon="-2.34066">
        <ele>33</ele>
        <time>2018-04-11T15:15:22Z</time>
      </trkpt>
      <trkpt lat="48.66711" lon="-2.34072">
        <ele>34</ele>
        <time>2018-04-11T15:15:31Z</time>
      </trkpt>
      <trkpt lat="48.66704" lon="-2.34081">
        <ele>34</ele>
        <time>2018-04-11T15:15:41Z</time>
      </trkpt>
      <trkpt lat="48.667" lon="-2.34094">
        <ele>30</ele>
        <time>2018-04-11T15:15:51Z</time>
      </trkpt>
      <trkpt lat="48.66703" lon="-2.34108">
        <ele>29</ele>
        <time>2018-04-11T15:16:01Z</time>
      </trkpt>
      <trkpt lat="48.66709" lon="-2.34121">
        <ele>28</ele>
        <time>2018-04-11T15:16:11Z</time>
      </trkpt>
      <trkpt lat="48.6671" lon="-2.34135">
        <ele>27</ele>
        <time>2018-04-11T15:16:20Z</time>
      </trkpt>
      <trkpt lat="48.66711" lon="-2.34163">
        <ele>26</ele>
        <time>2018-04-11T15:16:37Z</time>
      </trkpt>
      <trkpt lat="48.6671" lon="-2.34177">
        <ele>20</ele>
        <time>2018-04-11T15:19:11Z</time>
      </trkpt>
      <trkpt lat="48.66707" lon="-2.3419">
        <ele>20</ele>
        <time>2018-04-11T15:19:21Z</time>
      </trkpt>
      <trkpt lat="48.66701" lon="-2.34202">
        <ele>19</ele>
        <time>2018-04-11T15:19:29Z</time>
      </trkpt>
      <trkpt lat="48.66694" lon="-2.34212">
        <ele>19</ele>
        <time>2018-04-11T15:19:37Z</time>
      </trkpt>
      <trkpt lat="48.66688" lon="-2.34224">
        <ele>19</ele>
        <time>2018-04-11T15:19:45Z</time>
      </trkpt>
      <trkpt lat="48.6668" lon="-2.34232">
        <ele>19</ele>
        <time>2018-04-11T15:19:53Z</time>
      </trkpt>
      <trkpt lat="48.66671" lon="-2.34231">
        <ele>19</ele>
        <time>2018-04-11T15:20:01Z</time>
      </trkpt>
      <trkpt lat="48.66662" lon="-2.34228">
        <ele>26</ele>
        <time>2018-04-11T15:20:09Z</time>
      </trkpt>
      <trkpt lat="48.66652" lon="-2.34229">
        <ele>27</ele>
        <time>2018-04-11T15:20:17Z</time>
      </trkpt>
      <trkpt lat="48.66633" lon="-2.3423">
        <ele>28</ele>
        <time>2018-04-11T15:20:34Z</time>
      </trkpt>
      <trkpt lat="48.66624" lon="-2.34235">
        <ele>28</ele>
        <time>2018-04-11T15:20:42Z</time>
      </trkpt>
      <trkpt lat="48.66615" lon="-2.34238">
        <ele>29</ele>
        <time>2018-04-11T15:20:50Z</time>
      </trkpt>
      <trkpt lat="48.66606" lon="-2.34246">
        <ele>29</ele>
        <time>2018-04-11T15:20:59Z</time>
      </trkpt>
      <trkpt lat="48.66597" lon="-2.34251">
        <ele>22</ele>
        <time>2018-04-11T15:21:07Z</time>
      </trkpt>
      <trkpt lat="48.66589" lon="-2.34246">
        <ele>28</ele>
        <time>2018-04-11T15:21:18Z</time>
      </trkpt>
      <trkpt lat="48.66579" lon="-2.34249">
        <ele>29</ele>
        <time>2018-04-11T15:21:27Z</time>
      </trkpt>
      <trkpt lat="48.6657" lon="-2.34253">
        <ele>26</ele>
        <time>2018-04-11T15:21:36Z</time>
      </trkpt>
      <trkpt lat="48.66561" lon="-2.34257">
        <ele>26</ele>
        <time>2018-04-11T15:21:46Z</time>
      </trkpt>
      <trkpt lat="48.66554" lon="-2.34247">
        <ele>33</ele>
        <time>2018-04-11T15:22:10Z</time>
      </trkpt>
      <trkpt lat="48.66545" lon="-2.34246">
        <ele>34</ele>
        <time>2018-04-11T15:22:20Z</time>
      </trkpt>
      <trkpt lat="48.66535" lon="-2.34252">
        <ele>27</ele>
        <time>2018-04-11T15:22:32Z</time>
      </trkpt>
      <trkpt lat="48.66519" lon="-2.34263">
        <ele>29</ele>
        <time>2018-04-11T15:22:48Z</time>
      </trkpt>
      <trkpt lat="48.66509" lon="-2.34268">
        <ele>29</ele>
        <time>2018-04-11T15:22:56Z</time>
      </trkpt>
      <trkpt lat="48.66482" lon="-2.34279">
        <ele>32</ele>
        <time>2018-04-11T15:23:20Z</time>
      </trkpt>
      <trkpt lat="48.66472" lon="-2.34281">
        <ele>32</ele>
        <time>2018-04-11T15:23:28Z</time>
      </trkpt>
      <trkpt lat="48.66453" lon="-2.34284">
        <ele>32</ele>
        <time>2018-04-11T15:23:44Z</time>
      </trkpt>
      <trkpt lat="48.66376" lon="-2.34293">
        <ele>36</ele>
        <time>2018-04-11T15:25:01Z</time>
      </trkpt>
      <trkpt lat="48.66367" lon="-2.34296">
        <ele>36</ele>
        <time>2018-04-11T15:25:08Z</time>
      </trkpt>
      <trkpt lat="48.66358" lon="-2.34301">
        <ele>36</ele>
        <time>2018-04-11T15:25:16Z</time>
      </trkpt>
      <trkpt lat="48.66349" lon="-2.34308">
        <ele>36</ele>
        <time>2018-04-11T15:25:24Z</time>
      </trkpt>
      <trkpt lat="48.66341" lon="-2.34316">
        <ele>36</ele>
        <time>2018-04-11T15:25:32Z</time>
      </trkpt>
      <trkpt lat="48.66334" lon="-2.34325">
        <ele>36</ele>
        <time>2018-04-11T15:25:40Z</time>
      </trkpt>
      <trkpt lat="48.66327" lon="-2.34336">
        <ele>36</ele>
        <time>2018-04-11T15:25:48Z</time>
      </trkpt>
      <trkpt lat="48.66322" lon="-2.34349">
        <ele>35</ele>
        <time>2018-04-11T15:25:56Z</time>
      </trkpt>
      <trkpt lat="48.66317" lon="-2.34361">
        <ele>34</ele>
        <time>2018-04-11T15:26:04Z</time>
      </trkpt>
      <trkpt lat="48.66313" lon="-2.34375">
        <ele>34</ele>
        <time>2018-04-11T15:26:12Z</time>
      </trkpt>
      <trkpt lat="48.6631" lon="-2.34389">
        <ele>33</ele>
        <time>2018-04-11T15:26:20Z</time>
      </trkpt>
      <trkpt lat="48.66307" lon="-2.34404">
        <ele>33</ele>
        <time>2018-04-11T15:26:28Z</time>
      </trkpt>
      <trkpt lat="48.66305" lon="-2.34419">
        <ele>31</ele>
        <time>2018-04-11T15:26:36Z</time>
      </trkpt>
      <trkpt lat="48.66306" lon="-2.34434">
        <ele>31</ele>
        <time>2018-04-11T15:26:44Z</time>
      </trkpt>
      <trkpt lat="48.66307" lon="-2.34448">
        <ele>31</ele>
        <time>2018-04-11T15:26:52Z</time>
      </trkpt>
      <trkpt lat="48.66309" lon="-2.34462">
        <ele>30</ele>
        <time>2018-04-11T15:26:59Z</time>
      </trkpt>
      <trkpt lat="48.66331" lon="-2.34589">
        <ele>27</ele>
        <time>2018-04-11T15:28:24Z</time>
      </trkpt>
      <trkpt lat="48.66333" lon="-2.34602">
        <ele>28</ele>
        <time>2018-04-11T15:28:31Z</time>
      </trkpt>
      <trkpt lat="48.66336" lon="-2.34617">
        <ele>22</ele>
        <time>2018-04-11T15:28:39Z</time>
      </trkpt>
      <trkpt lat="48.66338" lon="-2.34632">
        <ele>22</ele>
        <time>2018-04-11T15:28:47Z</time>
      </trkpt>
      <trkpt lat="48.66341" lon="-2.34661">
        <ele>24</ele>
        <time>2018-04-11T15:29:03Z</time>
      </trkpt>
      <trkpt lat="48.66341" lon="-2.34676">
        <ele>23</ele>
        <time>2018-04-11T15:29:11Z</time>
      </trkpt>
      <trkpt lat="48.66338" lon="-2.34689">
        <ele>22</ele>
        <time>2018-04-11T15:29:19Z</time>
      </trkpt>
      <trkpt lat="48.66335" lon="-2.34719">
        <ele>20</ele>
        <time>2018-04-11T15:29:36Z</time>
      </trkpt>
      <trkpt lat="48.66331" lon="-2.34732">
        <ele>23</ele>
        <time>2018-04-11T15:29:43Z</time>
      </trkpt>
      <trkpt lat="48.66328" lon="-2.34745">
        <ele>22</ele>
        <time>2018-04-11T15:29:50Z</time>
      </trkpt>
      <trkpt lat="48.66322" lon="-2.34758">
        <ele>19</ele>
        <time>2018-04-11T15:29:58Z</time>
      </trkpt>
      <trkpt lat="48.6631" lon="-2.34781">
        <ele>17</ele>
        <time>2018-04-11T15:30:14Z</time>
      </trkpt>
      <trkpt lat="48.66303" lon="-2.34792">
        <ele>17</ele>
        <time>2018-04-11T15:30:22Z</time>
      </trkpt>
      <trkpt lat="48.66296" lon="-2.34801">
        <ele>16</ele>
        <time>2018-04-11T15:30:30Z</time>
      </trkpt>
      <trkpt lat="48.66281" lon="-2.34817">
        <ele>16</ele>
        <time>2018-04-11T15:30:46Z</time>
      </trkpt>
      <trkpt lat="48.66272" lon="-2.34824">
        <ele>15</ele>
        <time>2018-04-11T15:30:54Z</time>
      </trkpt>
      <trkpt lat="48.66263" lon="-2.34828">
        <ele>15</ele>
        <time>2018-04-11T15:31:01Z</time>
      </trkpt>
      <trkpt lat="48.66254" lon="-2.34833">
        <ele>14</ele>
        <time>2018-04-11T15:31:09Z</time>
      </trkpt>
      <trkpt lat="48.66244" lon="-2.34835">
        <ele>13</ele>
        <time>2018-04-11T15:31:40Z</time>
      </trkpt>
      <trkpt lat="48.66235" lon="-2.34838">
        <ele>12</ele>
        <time>2018-04-11T15:31:48Z</time>
      </trkpt>
      <trkpt lat="48.66226" lon="-2.34838">
        <ele>12</ele>
        <time>2018-04-11T15:31:55Z</time>
      </trkpt>
      <trkpt lat="48.66215" lon="-2.34837">
        <ele>12</ele>
        <time>2018-04-11T15:32:03Z</time>
      </trkpt>
      <trkpt lat="48.66206" lon="-2.34835">
        <ele>12</ele>
        <time>2018-04-11T15:32:11Z</time>
      </trkpt>
      <trkpt lat="48.66196" lon="-2.34831">
        <ele>15</ele>
        <time>2018-04-11T15:32:20Z</time>
      </trkpt>
      <trkpt lat="48.66123" lon="-2.34799">
        <ele>14</ele>
        <time>2018-04-11T15:33:23Z</time>
      </trkpt>
      <trkpt lat="48.66114" lon="-2.34799">
        <ele>14</ele>
        <time>2018-04-11T15:33:32Z</time>
      </trkpt>
      <trkpt lat="48.6611" lon="-2.34812">
        <ele>14</ele>
        <time>2018-04-11T15:33:42Z</time>
      </trkpt>
      <trkpt lat="48.66107" lon="-2.34826">
        <ele>13</ele>
        <time>2018-04-11T15:33:51Z</time>
      </trkpt>
      <trkpt lat="48.661" lon="-2.34835">
        <ele>12</ele>
        <time>2018-04-11T15:34:00Z</time>
      </trkpt>
      <trkpt lat="48.66091" lon="-2.34841">
        <ele>13</ele>
        <time>2018-04-11T15:34:10Z</time>
      </trkpt>
      <trkpt lat="48.66056" lon="-2.34868">
        <ele>16</ele>
        <time>2018-04-11T15:34:45Z</time>
      </trkpt>
      <trkpt lat="48.66054" lon="-2.34882">
        <ele>16</ele>
        <time>2018-04-11T15:34:58Z</time>
      </trkpt>
      <trkpt lat="48.66058" lon="-2.34896">
        <ele>15</ele>
        <time>2018-04-11T15:35:09Z</time>
      </trkpt>
      <trkpt lat="48.66064" lon="-2.34908">
        <ele>14</ele>
        <time>2018-04-11T15:35:19Z</time>
      </trkpt>
      <trkpt lat="48.66069" lon="-2.34921">
        <ele>14</ele>
        <time>2018-04-11T15:35:31Z</time>
      </trkpt>
      <trkpt lat="48.66077" lon="-2.34936">
        <ele>14</ele>
        <time>2018-04-11T15:36:14Z</time>
      </trkpt>
      <trkpt lat="48.66085" lon="-2.34945">
        <ele>10</ele>
        <time>2018-04-11T15:36:22Z</time>
      </trkpt>
      <trkpt lat="48.66091" lon="-2.34956">
        <ele>10</ele>
        <time>2018-04-11T15:36:30Z</time>
      </trkpt>
      <trkpt lat="48.66095" lon="-2.3497">
        <ele>10</ele>
        <time>2018-04-11T15:36:37Z</time>
      </trkpt>
      <trkpt lat="48.66098" lon="-2.34983">
        <ele>10</ele>
        <time>2018-04-11T15:36:44Z</time>
      </trkpt>
      <trkpt lat="48.66099" lon="-2.34997">
        <ele>11</ele>
        <time>2018-04-11T15:36:51Z</time>
      </trkpt>
      <trkpt lat="48.66104" lon="-2.35039">
        <ele>10</ele>
        <time>2018-04-11T15:37:15Z</time>
      </trkpt>
      <trkpt lat="48.66104" lon="-2.35054">
        <ele>10</ele>
        <time>2018-04-11T15:37:23Z</time>
      </trkpt>
      <trkpt lat="48.66107" lon="-2.35069">
        <ele>11</ele>
        <time>2018-04-11T15:37:35Z</time>
      </trkpt>
      <trkpt lat="48.66107" lon="-2.35082">
        <ele>11</ele>
        <time>2018-04-11T15:37:49Z</time>
      </trkpt>
      <trkpt lat="48.66105" lon="-2.35097">
        <ele>10</ele>
        <time>2018-04-11T15:37:59Z</time>
      </trkpt>
      <trkpt lat="48.66095" lon="-2.35099">
        <ele>11</ele>
        <time>2018-04-11T15:38:08Z</time>
      </trkpt>
      <trkpt lat="48.66086" lon="-2.35095">
        <ele>12</ele>
        <time>2018-04-11T15:38:18Z</time>
      </trkpt>
      <trkpt lat="48.66076" lon="-2.35094">
        <ele>15</ele>
        <time>2018-04-11T15:38:28Z</time>
      </trkpt>
      <trkpt lat="48.66068" lon="-2.351">
        <ele>15</ele>
        <time>2018-04-11T15:38:40Z</time>
      </trkpt>
      <trkpt lat="48.6606" lon="-2.35108">
        <ele>14</ele>
        <time>2018-04-11T15:38:51Z</time>
      </trkpt>
      <trkpt lat="48.66059" lon="-2.35122">
        <ele>14</ele>
        <time>2018-04-11T15:39:03Z</time>
      </trkpt>
      <trkpt lat="48.66057" lon="-2.35136">
        <ele>14</ele>
        <time>2018-04-11T15:39:16Z</time>
      </trkpt>
      <trkpt lat="48.66057" lon="-2.35152">
        <ele>13</ele>
        <time>2018-04-11T15:39:26Z</time>
      </trkpt>
      <trkpt lat="48.66052" lon="-2.35164">
        <ele>13</ele>
        <time>2018-04-11T15:39:34Z</time>
      </trkpt>
      <trkpt lat="48.66046" lon="-2.35174">
        <ele>10</ele>
        <time>2018-04-11T15:39:42Z</time>
      </trkpt>
      <trkpt lat="48.66045" lon="-2.35188">
        <ele>10</ele>
        <time>2018-04-11T15:39:50Z</time>
      </trkpt>
      <trkpt lat="48.66048" lon="-2.35201">
        <ele>10</ele>
        <time>2018-04-11T15:40:01Z</time>
      </trkpt>
      <trkpt lat="48.66052" lon="-2.35214">
        <ele>9</ele>
        <time>2018-04-11T15:40:13Z</time>
      </trkpt>
      <trkpt lat="48.66051" lon="-2.35227">
        <ele>9</ele>
        <time>2018-04-11T15:40:26Z</time>
      </trkpt>
      <trkpt lat="48.66053" lon="-2.3524">
        <ele>8</ele>
        <time>2018-04-11T15:41:15Z</time>
      </trkpt>
      <trkpt lat="48.66045" lon="-2.35249">
        <ele>9</ele>
        <time>2018-04-11T15:41:26Z</time>
      </trkpt>
      <trkpt lat="48.66036" lon="-2.35246">
        <ele>9</ele>
        <time>2018-04-11T15:41:36Z</time>
      </trkpt>
      <trkpt lat="48.66027" lon="-2.3525">
        <ele>8</ele>
        <time>2018-04-11T15:41:49Z</time>
      </trkpt>
      <trkpt lat="48.66019" lon="-2.35257">
        <ele>8</ele>
        <time>2018-04-11T15:42:00Z</time>
      </trkpt>
      <trkpt lat="48.66009" lon="-2.35256">
        <ele>9</ele>
        <time>2018-04-11T15:42:12Z</time>
      </trkpt>
      <trkpt lat="48.66001" lon="-2.35263">
        <ele>9</ele>
        <time>2018-04-11T15:42:24Z</time>
      </trkpt>
      <trkpt lat="48.65994" lon="-2.35271">
        <ele>12</ele>
        <time>2018-04-11T15:42:35Z</time>
      </trkpt>
      <trkpt lat="48.6599" lon="-2.35285">
        <ele>12</ele>
        <time>2018-04-11T15:42:47Z</time>
      </trkpt>
      <trkpt lat="48.65989" lon="-2.35299">
        <ele>12</ele>
        <time>2018-04-11T15:42:59Z</time>
      </trkpt>
      <trkpt lat="48.65984" lon="-2.3531">
        <ele>12</ele>
        <time>2018-04-11T15:43:09Z</time>
      </trkpt>
      <trkpt lat="48.65975" lon="-2.35316">
        <ele>12</ele>
        <time>2018-04-11T15:43:21Z</time>
      </trkpt>
      <trkpt lat="48.65958" lon="-2.35328">
        <ele>14</ele>
        <time>2018-04-11T15:43:42Z</time>
      </trkpt>
      <trkpt lat="48.6595" lon="-2.35337">
        <ele>14</ele>
        <time>2018-04-11T15:43:51Z</time>
      </trkpt>
      <trkpt lat="48.65943" lon="-2.35347">
        <ele>14</ele>
        <time>2018-04-11T15:44:00Z</time>
      </trkpt>
      <trkpt lat="48.65937" lon="-2.35357">
        <ele>14</ele>
        <time>2018-04-11T15:44:09Z</time>
      </trkpt>
      <trkpt lat="48.65925" lon="-2.35379">
        <ele>14</ele>
        <time>2018-04-11T15:44:50Z</time>
      </trkpt>
      <trkpt lat="48.65933" lon="-2.35389">
        <ele>14</ele>
        <time>2018-04-11T15:45:01Z</time>
      </trkpt>
      <trkpt lat="48.65939" lon="-2.354">
        <ele>14</ele>
        <time>2018-04-11T15:45:09Z</time>
      </trkpt>
      <trkpt lat="48.65942" lon="-2.35414">
        <ele>14</ele>
        <time>2018-04-11T15:45:17Z</time>
      </trkpt>
      <trkpt lat="48.65944" lon="-2.35429">
        <ele>12</ele>
        <time>2018-04-11T15:45:25Z</time>
      </trkpt>
      <trkpt lat="48.65946" lon="-2.35457">
        <ele>11</ele>
        <time>2018-04-11T15:45:41Z</time>
      </trkpt>
      <trkpt lat="48.65944" lon="-2.35472">
        <ele>10</ele>
        <time>2018-04-11T15:45:49Z</time>
      </trkpt>
      <trkpt lat="48.65938" lon="-2.35484">
        <ele>11</ele>
        <time>2018-04-11T15:45:57Z</time>
      </trkpt>
      <trkpt lat="48.65929" lon="-2.35491">
        <ele>11</ele>
        <time>2018-04-11T15:46:06Z</time>
      </trkpt>
      <trkpt lat="48.65921" lon="-2.355">
        <ele>12</ele>
        <time>2018-04-11T15:46:15Z</time>
      </trkpt>
      <trkpt lat="48.65893" lon="-2.35537">
        <ele>12</ele>
        <time>2018-04-11T15:46:47Z</time>
      </trkpt>
      <trkpt lat="48.65886" lon="-2.35548">
        <ele>12</ele>
        <time>2018-04-11T15:46:55Z</time>
      </trkpt>
      <trkpt lat="48.65881" lon="-2.35561">
        <ele>12</ele>
        <time>2018-04-11T15:47:03Z</time>
      </trkpt>
      <trkpt lat="48.65875" lon="-2.35572">
        <ele>12</ele>
        <time>2018-04-11T15:47:12Z</time>
      </trkpt>
      <trkpt lat="48.65866" lon="-2.35578">
        <ele>12</ele>
        <time>2018-04-11T15:47:21Z</time>
      </trkpt>
      <trkpt lat="48.65856" lon="-2.35574">
        <ele>13</ele>
        <time>2018-04-11T15:47:30Z</time>
      </trkpt>
      <trkpt lat="48.65848" lon="-2.35568">
        <ele>13</ele>
        <time>2018-04-11T15:47:39Z</time>
      </trkpt>
      <trkpt lat="48.6584" lon="-2.3556">
        <ele>14</ele>
        <time>2018-04-11T15:47:48Z</time>
      </trkpt>
      <trkpt lat="48.65833" lon="-2.35552">
        <ele>16</ele>
        <time>2018-04-11T15:47:57Z</time>
      </trkpt>
      <trkpt lat="48.65827" lon="-2.3554">
        <ele>17</ele>
        <time>2018-04-11T15:48:06Z</time>
      </trkpt>
      <trkpt lat="48.65822" lon="-2.35528">
        <ele>18</ele>
        <time>2018-04-11T15:48:14Z</time>
      </trkpt>
      <trkpt lat="48.65807" lon="-2.35491">
        <ele>21</ele>
        <time>2018-04-11T15:49:10Z</time>
      </trkpt>
      <trkpt lat="48.65801" lon="-2.3548">
        <ele>21</ele>
        <time>2018-04-11T15:49:19Z</time>
      </trkpt>
      <trkpt lat="48.65793" lon="-2.35471">
        <ele>21</ele>
        <time>2018-04-11T15:49:28Z</time>
      </trkpt>
      <trkpt lat="48.65787" lon="-2.35461">
        <ele>21</ele>
        <time>2018-04-11T15:49:36Z</time>
      </trkpt>
      <trkpt lat="48.65781" lon="-2.35449">
        <ele>21</ele>
        <time>2018-04-11T15:49:45Z</time>
      </trkpt>
      <trkpt lat="48.65774" lon="-2.35439">
        <ele>22</ele>
        <time>2018-04-11T15:49:53Z</time>
      </trkpt>
      <trkpt lat="48.65767" lon="-2.35429">
        <ele>22</ele>
        <time>2018-04-11T15:50:01Z</time>
      </trkpt>
      <trkpt lat="48.65749" lon="-2.35397">
        <ele>24</ele>
        <time>2018-04-11T15:50:25Z</time>
      </trkpt>
      <trkpt lat="48.65741" lon="-2.35387">
        <ele>24</ele>
        <time>2018-04-11T15:50:34Z</time>
      </trkpt>
      <trkpt lat="48.65733" lon="-2.35379">
        <ele>24</ele>
        <time>2018-04-11T15:50:43Z</time>
      </trkpt>
      <trkpt lat="48.65727" lon="-2.35367">
        <ele>25</ele>
        <time>2018-04-11T15:50:52Z</time>
      </trkpt>
      <trkpt lat="48.65728" lon="-2.35353">
        <ele>25</ele>
        <time>2018-04-11T15:51:53Z</time>
      </trkpt>
      <trkpt lat="48.65719" lon="-2.35356">
        <ele>25</ele>
        <time>2018-04-11T15:54:07Z</time>
      </trkpt>
      <trkpt lat="48.6571" lon="-2.35354">
        <ele>25</ele>
        <time>2018-04-11T15:54:16Z</time>
      </trkpt>
      <trkpt lat="48.65701" lon="-2.35356">
        <ele>25</ele>
        <time>2018-04-11T15:54:24Z</time>
      </trkpt>
      <trkpt lat="48.65692" lon="-2.3536">
        <ele>25</ele>
        <time>2018-04-11T15:54:32Z</time>
      </trkpt>
      <trkpt lat="48.65685" lon="-2.35369">
        <ele>25</ele>
        <time>2018-04-11T15:54:40Z</time>
      </trkpt>
      <trkpt lat="48.65679" lon="-2.35379">
        <ele>25</ele>
        <time>2018-04-11T15:54:48Z</time>
      </trkpt>
      <trkpt lat="48.65678" lon="-2.35394">
        <ele>25</ele>
        <time>2018-04-11T15:54:58Z</time>
      </trkpt>
      <trkpt lat="48.65681" lon="-2.35408">
        <ele>25</ele>
        <time>2018-04-11T15:55:07Z</time>
      </trkpt>
      <trkpt lat="48.65673" lon="-2.35414">
        <ele>25</ele>
        <time>2018-04-11T15:55:23Z</time>
      </trkpt>
      <trkpt lat="48.65664" lon="-2.35418">
        <ele>25</ele>
        <time>2018-04-11T15:55:31Z</time>
      </trkpt>
      <trkpt lat="48.65655" lon="-2.35424">
        <ele>25</ele>
        <time>2018-04-11T15:55:39Z</time>
      </trkpt>
      <trkpt lat="48.6565" lon="-2.35437">
        <ele>25</ele>
        <time>2018-04-11T15:55:47Z</time>
      </trkpt>
      <trkpt lat="48.65644" lon="-2.35447">
        <ele>24</ele>
        <time>2018-04-11T15:55:55Z</time>
      </trkpt>
      <trkpt lat="48.65636" lon="-2.35456">
        <ele>24</ele>
        <time>2018-04-11T15:56:03Z</time>
      </trkpt>
      <trkpt lat="48.65627" lon="-2.3546">
        <ele>24</ele>
        <time>2018-04-11T15:56:11Z</time>
      </trkpt>
      <trkpt lat="48.65618" lon="-2.35462">
        <ele>25</ele>
        <time>2018-04-11T15:56:19Z</time>
      </trkpt>
      <trkpt lat="48.65608" lon="-2.35465">
        <ele>25</ele>
        <time>2018-04-11T15:56:28Z</time>
      </trkpt>
      <trkpt lat="48.65589" lon="-2.35472">
        <ele>25</ele>
        <time>2018-04-11T15:56:44Z</time>
      </trkpt>
      <trkpt lat="48.65579" lon="-2.35472">
        <ele>27</ele>
        <time>2018-04-11T15:56:52Z</time>
      </trkpt>
      <trkpt lat="48.65569" lon="-2.35471">
        <ele>27</ele>
        <time>2018-04-11T15:57:00Z</time>
      </trkpt>
      <trkpt lat="48.6556" lon="-2.35475">
        <ele>27</ele>
        <time>2018-04-11T15:57:08Z</time>
      </trkpt>
      <trkpt lat="48.65559" lon="-2.35488">
        <ele>26</ele>
        <time>2018-04-11T15:57:17Z</time>
      </trkpt>
      <trkpt lat="48.65557" lon="-2.35502">
        <ele>24</ele>
        <time>2018-04-11T15:57:26Z</time>
      </trkpt>
      <trkpt lat="48.65552" lon="-2.35514">
        <ele>24</ele>
        <time>2018-04-11T15:57:35Z</time>
      </trkpt>
      <trkpt lat="48.65544" lon="-2.35521">
        <ele>24</ele>
        <time>2018-04-11T15:57:45Z</time>
      </trkpt>
      <trkpt lat="48.65535" lon="-2.35516">
        <ele>25</ele>
        <time>2018-04-11T15:57:57Z</time>
      </trkpt>
      <trkpt lat="48.65526" lon="-2.35517">
        <ele>25</ele>
        <time>2018-04-11T15:58:17Z</time>
      </trkpt>
      <trkpt lat="48.65517" lon="-2.35523">
        <ele>25</ele>
        <time>2018-04-11T15:58:26Z</time>
      </trkpt>
      <trkpt lat="48.65509" lon="-2.35532">
        <ele>25</ele>
        <time>2018-04-11T15:58:35Z</time>
      </trkpt>
      <trkpt lat="48.65493" lon="-2.35549">
        <ele>27</ele>
        <time>2018-04-11T15:58:53Z</time>
      </trkpt>
      <trkpt lat="48.65486" lon="-2.35559">
        <ele>27</ele>
        <time>2018-04-11T15:59:02Z</time>
      </trkpt>
      <trkpt lat="48.65473" lon="-2.35579">
        <ele>27</ele>
        <time>2018-04-11T15:59:30Z</time>
      </trkpt>
      <trkpt lat="48.65469" lon="-2.35591">
        <ele>25</ele>
        <time>2018-04-11T15:59:39Z</time>
      </trkpt>
      <trkpt lat="48.65466" lon="-2.35606">
        <ele>25</ele>
        <time>2018-04-11T15:59:50Z</time>
      </trkpt>
      <trkpt lat="48.65463" lon="-2.35619">
        <ele>24</ele>
        <time>2018-04-11T16:00:00Z</time>
      </trkpt>
      <trkpt lat="48.65458" lon="-2.35631">
        <ele>24</ele>
        <time>2018-04-11T16:00:08Z</time>
      </trkpt>
      <trkpt lat="48.65451" lon="-2.35641">
        <ele>24</ele>
        <time>2018-04-11T16:00:17Z</time>
      </trkpt>
      <trkpt lat="48.65442" lon="-2.35648">
        <ele>24</ele>
        <time>2018-04-11T16:00:25Z</time>
      </trkpt>
      <trkpt lat="48.65427" lon="-2.35662">
        <ele>24</ele>
        <time>2018-04-11T16:00:41Z</time>
      </trkpt>
      <trkpt lat="48.65396" lon="-2.35697">
        <ele>26</ele>
        <time>2018-04-11T16:01:15Z</time>
      </trkpt>
      <trkpt lat="48.6538" lon="-2.35713">
        <ele>26</ele>
        <time>2018-04-11T16:01:33Z</time>
      </trkpt>
      <trkpt lat="48.65382" lon="-2.35726">
        <ele>26</ele>
        <time>2018-04-11T16:01:42Z</time>
      </trkpt>
      <trkpt lat="48.65386" lon="-2.35739">
        <ele>26</ele>
        <time>2018-04-11T16:01:50Z</time>
      </trkpt>
      <trkpt lat="48.6539" lon="-2.35751">
        <ele>25</ele>
        <time>2018-04-11T16:01:58Z</time>
      </trkpt>
      <trkpt lat="48.65396" lon="-2.35762">
        <ele>25</ele>
        <time>2018-04-11T16:02:06Z</time>
      </trkpt>
      <trkpt lat="48.654" lon="-2.35775">
        <ele>25</ele>
        <time>2018-04-11T16:02:14Z</time>
      </trkpt>
      <trkpt lat="48.65401" lon="-2.3579">
        <ele>25</ele>
        <time>2018-04-11T16:02:23Z</time>
      </trkpt>
      <trkpt lat="48.65399" lon="-2.35804">
        <ele>24</ele>
        <time>2018-04-11T16:02:32Z</time>
      </trkpt>
      <trkpt lat="48.65395" lon="-2.35818">
        <ele>24</ele>
        <time>2018-04-11T16:02:44Z</time>
      </trkpt>
      <trkpt lat="48.65393" lon="-2.35831">
        <ele>24</ele>
        <time>2018-04-11T16:03:00Z</time>
      </trkpt>
      <trkpt lat="48.65391" lon="-2.35846">
        <ele>23</ele>
        <time>2018-04-11T16:03:23Z</time>
      </trkpt>
      <trkpt lat="48.65396" lon="-2.35859">
        <ele>23</ele>
        <time>2018-04-11T16:03:31Z</time>
      </trkpt>
      <trkpt lat="48.65405" lon="-2.35885">
        <ele>23</ele>
        <time>2018-04-11T16:03:47Z</time>
      </trkpt>
      <trkpt lat="48.65411" lon="-2.35898">
        <ele>22</ele>
        <time>2018-04-11T16:03:56Z</time>
      </trkpt>
      <trkpt lat="48.65414" lon="-2.3591">
        <ele>20</ele>
        <time>2018-04-11T16:04:04Z</time>
      </trkpt>
      <trkpt lat="48.65413" lon="-2.35924">
        <ele>20</ele>
        <time>2018-04-11T16:04:12Z</time>
      </trkpt>
      <trkpt lat="48.65409" lon="-2.35938">
        <ele>22</ele>
        <time>2018-04-11T16:04:20Z</time>
      </trkpt>
      <trkpt lat="48.65404" lon="-2.35949">
        <ele>22</ele>
        <time>2018-04-11T16:04:28Z</time>
      </trkpt>
      <trkpt lat="48.654" lon="-2.35962">
        <ele>23</ele>
        <time>2018-04-11T16:04:35Z</time>
      </trkpt>
      <trkpt lat="48.6539" lon="-2.36002">
        <ele>23</ele>
        <time>2018-04-11T16:05:02Z</time>
      </trkpt>
      <trkpt lat="48.65383" lon="-2.3603">
        <ele>24</ele>
        <time>2018-04-11T16:05:20Z</time>
      </trkpt>
      <trkpt lat="48.6538" lon="-2.36044">
        <ele>24</ele>
        <time>2018-04-11T16:05:29Z</time>
      </trkpt>
      <trkpt lat="48.65372" lon="-2.36085">
        <ele>24</ele>
        <time>2018-04-11T16:06:01Z</time>
      </trkpt>
      <trkpt lat="48.65371" lon="-2.36099">
        <ele>24</ele>
        <time>2018-04-11T16:06:10Z</time>
      </trkpt>
      <trkpt lat="48.65369" lon="-2.36113">
        <ele>24</ele>
        <time>2018-04-11T16:06:19Z</time>
      </trkpt>
      <trkpt lat="48.65369" lon="-2.36128">
        <ele>24</ele>
        <time>2018-04-11T16:06:28Z</time>
      </trkpt>
      <trkpt lat="48.65368" lon="-2.36142">
        <ele>24</ele>
        <time>2018-04-11T16:06:36Z</time>
      </trkpt>
      <trkpt lat="48.65369" lon="-2.36157">
        <ele>24</ele>
        <time>2018-04-11T16:06:45Z</time>
      </trkpt>
      <trkpt lat="48.65372" lon="-2.36198">
        <ele>22</ele>
        <time>2018-04-11T16:07:09Z</time>
      </trkpt>
      <trkpt lat="48.65371" lon="-2.36213">
        <ele>22</ele>
        <time>2018-04-11T16:07:17Z</time>
      </trkpt>
      <trkpt lat="48.65367" lon="-2.36227">
        <ele>22</ele>
        <time>2018-04-11T16:07:26Z</time>
      </trkpt>
      <trkpt lat="48.65363" lon="-2.3624">
        <ele>22</ele>
        <time>2018-04-11T16:07:34Z</time>
      </trkpt>
      <trkpt lat="48.65361" lon="-2.36255">
        <ele>23</ele>
        <time>2018-04-11T16:07:42Z</time>
      </trkpt>
      <trkpt lat="48.65361" lon="-2.3627">
        <ele>23</ele>
        <time>2018-04-11T16:07:51Z</time>
      </trkpt>
      <trkpt lat="48.6536" lon="-2.36321">
        <ele>24</ele>
        <time>2018-04-11T16:08:48Z</time>
      </trkpt>
      <trkpt lat="48.65368" lon="-2.3633">
        <ele>23</ele>
        <time>2018-04-11T16:09:02Z</time>
      </trkpt>
      <trkpt lat="48.65376" lon="-2.36336">
        <ele>23</ele>
        <time>2018-04-11T16:09:11Z</time>
      </trkpt>
      <trkpt lat="48.65385" lon="-2.36342">
        <ele>22</ele>
        <time>2018-04-11T16:09:20Z</time>
      </trkpt>
      <trkpt lat="48.65394" lon="-2.36347">
        <ele>21</ele>
        <time>2018-04-11T16:09:29Z</time>
      </trkpt>
      <trkpt lat="48.65394" lon="-2.36361">
        <ele>22</ele>
        <time>2018-04-11T16:09:41Z</time>
      </trkpt>
      <trkpt lat="48.6539" lon="-2.36373">
        <ele>23</ele>
        <time>2018-04-11T16:09:50Z</time>
      </trkpt>
      <trkpt lat="48.65389" lon="-2.36387">
        <ele>23</ele>
        <time>2018-04-11T16:10:01Z</time>
      </trkpt>
      <trkpt lat="48.65395" lon="-2.36397">
        <ele>22</ele>
        <time>2018-04-11T16:10:10Z</time>
      </trkpt>
      <trkpt lat="48.65399" lon="-2.3641">
        <ele>21</ele>
        <time>2018-04-11T16:10:20Z</time>
      </trkpt>
      <trkpt lat="48.65408" lon="-2.36436">
        <ele>21</ele>
        <time>2018-04-11T16:10:37Z</time>
      </trkpt>
      <trkpt lat="48.65416" lon="-2.36445">
        <ele>21</ele>
        <time>2018-04-11T16:10:46Z</time>
      </trkpt>
      <trkpt lat="48.6543" lon="-2.36464">
        <ele>13</ele>
        <time>2018-04-11T16:11:05Z</time>
      </trkpt>
      <trkpt lat="48.65433" lon="-2.36478">
        <ele>13</ele>
        <time>2018-04-11T16:11:14Z</time>
      </trkpt>
      <trkpt lat="48.65439" lon="-2.3649">
        <ele>13</ele>
        <time>2018-04-11T16:11:27Z</time>
      </trkpt>
      <trkpt lat="48.65451" lon="-2.36512">
        <ele>16</ele>
        <time>2018-04-11T16:11:46Z</time>
      </trkpt>
      <trkpt lat="48.65456" lon="-2.36525">
        <ele>16</ele>
        <time>2018-04-11T16:11:55Z</time>
      </trkpt>
      <trkpt lat="48.65451" lon="-2.36537">
        <ele>17</ele>
        <time>2018-04-11T16:12:05Z</time>
      </trkpt>
      <trkpt lat="48.65441" lon="-2.36532">
        <ele>17</ele>
        <time>2018-04-11T16:12:29Z</time>
      </trkpt>
    </trkseg>
  </trk>
</gpx>